<?xml version="1.0" encoding="UTF-8" standalone="no" ?><gpx xmlns="http://www.topografix.com/GPX/1/1" xmlns:gpxx="http://www.garmin.com/xmlschemas/GpxExtensions/v3" xmlns:wptx1="http://www.garmin.com/xmlschemas/WaypointExtension/v1" xmlns:gpxtpx="http://www.garmin.com/xmlschemas/TrackPointExtension/v1" creator="GPSMAP 62s" version="1.1" xmlns:xsi="http://www.w3.org/2001/XMLSchema-instance" xsi:schemaLocation="http://www.topografix.com/GPX/1/1 http://www.topografix.com/GPX/1/1/gpx.xsd http://www.garmin.com/xmlschemas/GpxExtensions/v3 http://www8.garmin.com/xmlschemas/GpxExtensionsv3.xsd http://www.garmin.com/xmlschemas/WaypointExtension/v1 http://www8.garmin.com/xmlschemas/WaypointExtensionv1.xsd http://www.garmin.com/xmlschemas/TrackPointExtension/v1 http://www.garmin.com/xmlschemas/TrackPointExtensionv1.xsd"><metadata><link href="http://www.garmin.com"><text>Garmin International</text></link><time>2013-04-06T16:52:54Z</time></metadata><trk><name>AA-APR-13 06:52:39 PM</name><extensions><gpxx:TrackExtension><gpxx:DisplayColor>Red</gpxx:DisplayColor></gpxx:TrackExtension></extensions><trkseg><trkpt lat="42.1811150853" lon="13.4840202704"><ele>1485.85</ele><time>2013-04-06T09:58:54Z</time></trkpt><trkpt lat="42.1811256465" lon="13.4840278141"><ele>1485.85</ele><time>2013-04-06T09:59:42Z</time></trkpt><trkpt lat="42.1811253112" lon="13.4840192646"><ele>1487.30</ele><time>2013-04-06T10:00:03Z</time></trkpt><trkpt lat="42.1811266523" lon="13.4840184264"><ele>1486.82</ele><time>2013-04-06T10:00:22Z</time></trkpt><trkpt lat="42.1811180189" lon="13.4840523731"><ele>1487.30</ele><time>2013-04-06T10:00:28Z</time></trkpt><trkpt lat="42.1810015105" lon="13.4840402193"><ele>1486.82</ele><time>2013-04-06T10:00:37Z</time></trkpt><trkpt lat="42.1808819845" lon="13.4840680473"><ele>1487.30</ele><time>2013-04-06T10:00:48Z</time></trkpt><trkpt lat="42.1808254067" lon="13.4840051830"><ele>1486.82</ele><time>2013-04-06T10:01:04Z</time></trkpt><trkpt lat="42.1808323637" lon="13.4839974716"><ele>1486.82</ele><time>2013-04-06T10:01:47Z</time></trkpt><trkpt lat="42.1808373928" lon="13.4838846512"><ele>1484.89</ele><time>2013-04-06T10:02:06Z</time></trkpt><trkpt lat="42.1808145940" lon="13.4838236310"><ele>1481.53</ele><time>2013-04-06T10:02:19Z</time></trkpt><trkpt lat="42.1807756182" lon="13.4837564919"><ele>1478.16</ele><time>2013-04-06T10:02:32Z</time></trkpt><trkpt lat="42.1807383187" lon="13.4836928733"><ele>1474.80</ele><time>2013-04-06T10:02:43Z</time></trkpt><trkpt lat="42.1807265002" lon="13.4836450964"><ele>1473.84</ele><time>2013-04-06T10:02:48Z</time></trkpt><trkpt lat="42.1806972474" lon="13.4835964814"><ele>1471.92</ele><time>2013-04-06T10:02:53Z</time></trkpt><trkpt lat="42.1806270070" lon="13.4834519774"><ele>1472.88</ele><time>2013-04-06T10:03:11Z</time></trkpt><trkpt lat="42.1805654839" lon="13.4832674917"><ele>1472.88</ele><time>2013-04-06T10:03:30Z</time></trkpt><trkpt lat="42.1805658191" lon="13.4832690004"><ele>1473.36</ele><time>2013-04-06T10:03:53Z</time></trkpt><trkpt lat="42.1805672441" lon="13.4832722694"><ele>1472.40</ele><time>2013-04-06T10:04:17Z</time></trkpt><trkpt lat="42.1805719379" lon="13.4832720179"><ele>1472.40</ele><time>2013-04-06T10:05:00Z</time></trkpt><trkpt lat="42.1805690881" lon="13.4832710959"><ele>1471.92</ele><time>2013-04-06T10:05:30Z</time></trkpt><trkpt lat="42.1805762965" lon="13.4832491353"><ele>1471.92</ele><time>2013-04-06T10:06:36Z</time></trkpt><trkpt lat="42.1805690043" lon="13.4832549188"><ele>1471.92</ele><time>2013-04-06T10:07:33Z</time></trkpt><trkpt lat="42.1805602033" lon="13.4832569305"><ele>1471.92</ele><time>2013-04-06T10:07:58Z</time></trkpt><trkpt lat="42.1805661544" lon="13.4832584392"><ele>1471.92</ele><time>2013-04-06T10:08:27Z</time></trkpt><trkpt lat="42.1805547550" lon="13.4832637198"><ele>1472.88</ele><time>2013-04-06T10:08:45Z</time></trkpt><trkpt lat="42.1805514023" lon="13.4832620434"><ele>1472.88</ele><time>2013-04-06T10:09:06Z</time></trkpt><trkpt lat="42.1805553418" lon="13.4832623787"><ele>1472.88</ele><time>2013-04-06T10:09:22Z</time></trkpt><trkpt lat="42.1805420984" lon="13.4832472913"><ele>1472.88</ele><time>2013-04-06T10:09:51Z</time></trkpt><trkpt lat="42.1805273462" lon="13.4832261689"><ele>1472.40</ele><time>2013-04-06T10:10:09Z</time></trkpt><trkpt lat="42.1805097442" lon="13.4832182899"><ele>1472.88</ele><time>2013-04-06T10:10:11Z</time></trkpt><trkpt lat="42.1804494783" lon="13.4831467923"><ele>1473.84</ele><time>2013-04-06T10:10:22Z</time></trkpt><trkpt lat="42.1803937387" lon="13.4829959180"><ele>1474.80</ele><time>2013-04-06T10:10:37Z</time></trkpt><trkpt lat="42.1802486479" lon="13.4828965086"><ele>1476.72</ele><time>2013-04-06T10:10:54Z</time></trkpt><trkpt lat="42.1800837759" lon="13.4828393441"><ele>1477.68</ele><time>2013-04-06T10:11:12Z</time></trkpt><trkpt lat="42.1799044032" lon="13.4828514978"><ele>1478.65</ele><time>2013-04-06T10:11:30Z</time></trkpt><trkpt lat="42.1798210870" lon="13.4828026313"><ele>1478.65</ele><time>2013-04-06T10:11:38Z</time></trkpt><trkpt lat="42.1798008867" lon="13.4827874601"><ele>1479.13</ele><time>2013-04-06T10:11:41Z</time></trkpt><trkpt lat="42.1797709633" lon="13.4827668406"><ele>1479.61</ele><time>2013-04-06T10:11:45Z</time></trkpt><trkpt lat="42.1797552053" lon="13.4827567823"><ele>1479.61</ele><time>2013-04-06T10:11:47Z</time></trkpt><trkpt lat="42.1796846297" lon="13.4826883860"><ele>1480.09</ele><time>2013-04-06T10:11:57Z</time></trkpt><trkpt lat="42.1795934346" lon="13.4827120230"><ele>1480.09</ele><time>2013-04-06T10:12:05Z</time></trkpt><trkpt lat="42.1795480046" lon="13.4827033896"><ele>1481.05</ele><time>2013-04-06T10:12:10Z</time></trkpt><trkpt lat="42.1795061789" lon="13.4827191476"><ele>1482.01</ele><time>2013-04-06T10:12:16Z</time></trkpt><trkpt lat="42.1794946957" lon="13.4827105142"><ele>1481.53</ele><time>2013-04-06T10:12:18Z</time></trkpt><trkpt lat="42.1794421412" lon="13.4827143699"><ele>1481.05</ele><time>2013-04-06T10:12:23Z</time></trkpt><trkpt lat="42.1794001479" lon="13.4827262722"><ele>1481.05</ele><time>2013-04-06T10:12:27Z</time></trkpt><trkpt lat="42.1792627685" lon="13.4826842789"><ele>1480.57</ele><time>2013-04-06T10:12:40Z</time></trkpt><trkpt lat="42.1792320907" lon="13.4826560318"><ele>1480.09</ele><time>2013-04-06T10:12:44Z</time></trkpt><trkpt lat="42.1791889239" lon="13.4826107696"><ele>1480.57</ele><time>2013-04-06T10:13:02Z</time></trkpt><trkpt lat="42.1791610960" lon="13.4826006275"><ele>1480.57</ele><time>2013-04-06T10:13:14Z</time></trkpt><trkpt lat="42.1791526303" lon="13.4825938381"><ele>1480.09</ele><time>2013-04-06T10:13:16Z</time></trkpt><trkpt lat="42.1790695656" lon="13.4824987035"><ele>1478.65</ele><time>2013-04-06T10:13:35Z</time></trkpt><trkpt lat="42.1790496167" lon="13.4824728034"><ele>1478.65</ele><time>2013-04-06T10:13:38Z</time></trkpt><trkpt lat="42.1790113114" lon="13.4824049100"><ele>1478.16</ele><time>2013-04-06T10:13:44Z</time></trkpt><trkpt lat="42.1789882611" lon="13.4822472464"><ele>1477.68</ele><time>2013-04-06T10:13:57Z</time></trkpt><trkpt lat="42.1789554041" lon="13.4820587374"><ele>1477.68</ele><time>2013-04-06T10:14:11Z</time></trkpt><trkpt lat="42.1789279114" lon="13.4818337671"><ele>1477.68</ele><time>2013-04-06T10:14:26Z</time></trkpt><trkpt lat="42.1788782906" lon="13.4816510417"><ele>1477.68</ele><time>2013-04-06T10:14:40Z</time></trkpt><trkpt lat="42.1788404044" lon="13.4815091360"><ele>1478.16</ele><time>2013-04-06T10:14:51Z</time></trkpt><trkpt lat="42.1788096428" lon="13.4814041946"><ele>1478.65</ele><time>2013-04-06T10:15:00Z</time></trkpt><trkpt lat="42.1787637938" lon="13.4813184477"><ele>1478.65</ele><time>2013-04-06T10:15:19Z</time></trkpt><trkpt lat="42.1787636261" lon="13.4813187830"><ele>1477.68</ele><time>2013-04-06T10:15:21Z</time></trkpt><trkpt lat="42.1787601896" lon="13.4813121613"><ele>1474.80</ele><time>2013-04-06T10:15:47Z</time></trkpt><trkpt lat="42.1787607763" lon="13.4813143406"><ele>1478.16</ele><time>2013-04-06T10:15:50Z</time></trkpt><trkpt lat="42.1787621174" lon="13.4813114069"><ele>1479.13</ele><time>2013-04-06T10:16:18Z</time></trkpt><trkpt lat="42.1787621174" lon="13.4813113231"><ele>1476.72</ele><time>2013-04-06T10:16:20Z</time></trkpt><trkpt lat="42.1787695773" lon="13.4813040309"><ele>1477.68</ele><time>2013-04-06T10:17:06Z</time></trkpt><trkpt lat="42.1787690744" lon="13.4813031089"><ele>1477.68</ele><time>2013-04-06T10:17:39Z</time></trkpt><trkpt lat="42.1787650511" lon="13.4813031089"><ele>1477.68</ele><time>2013-04-06T10:18:35Z</time></trkpt><trkpt lat="42.1787639614" lon="13.4813072160"><ele>1477.68</ele><time>2013-04-06T10:18:39Z</time></trkpt><trkpt lat="42.1787627880" lon="13.4813031089"><ele>1474.80</ele><time>2013-04-06T10:18:49Z</time></trkpt><trkpt lat="42.1787631232" lon="13.4813022707"><ele>1475.76</ele><time>2013-04-06T10:18:50Z</time></trkpt><trkpt lat="42.1787637100" lon="13.4813007619"><ele>1484.89</ele><time>2013-04-06T10:18:51Z</time></trkpt><trkpt lat="42.1787596028" lon="13.4813005943"><ele>1479.61</ele><time>2013-04-06T10:18:52Z</time></trkpt><trkpt lat="42.1787655540" lon="13.4813015163"><ele>1479.13</ele><time>2013-04-06T10:19:17Z</time></trkpt><trkpt lat="42.1787495445" lon="13.4812915418"><ele>1478.65</ele><time>2013-04-06T10:19:25Z</time></trkpt><trkpt lat="42.1787188668" lon="13.4812453575"><ele>1479.13</ele><time>2013-04-06T10:19:29Z</time></trkpt><trkpt lat="42.1787029412" lon="13.4812213015"><ele>1479.13</ele><time>2013-04-06T10:19:31Z</time></trkpt><trkpt lat="42.1785726026" lon="13.4809769690"><ele>1479.61</ele><time>2013-04-06T10:19:51Z</time></trkpt><trkpt lat="42.1784809045" lon="13.4808095824"><ele>1479.61</ele><time>2013-04-06T10:20:04Z</time></trkpt><trkpt lat="42.1784585249" lon="13.4807582013"><ele>1479.61</ele><time>2013-04-06T10:20:08Z</time></trkpt><trkpt lat="42.1784332953" lon="13.4807047248"><ele>1479.61</ele><time>2013-04-06T10:20:12Z</time></trkpt><trkpt lat="42.1784089878" lon="13.4806359094"><ele>1480.09</ele><time>2013-04-06T10:20:17Z</time></trkpt><trkpt lat="42.1784029528" lon="13.4806109313"><ele>1480.09</ele><time>2013-04-06T10:20:19Z</time></trkpt><trkpt lat="42.1783659048" lon="13.4805492405"><ele>1480.09</ele><time>2013-04-06T10:20:24Z</time></trkpt><trkpt lat="42.1783115901" lon="13.4803849552"><ele>1480.57</ele><time>2013-04-06T10:20:37Z</time></trkpt><trkpt lat="42.1783079021" lon="13.4803495836"><ele>1480.57</ele><time>2013-04-06T10:20:40Z</time></trkpt><trkpt lat="42.1782875340" lon="13.4803225938"><ele>1480.57</ele><time>2013-04-06T10:20:43Z</time></trkpt><trkpt lat="42.1782068163" lon="13.4801889025"><ele>1481.05</ele><time>2013-04-06T10:20:55Z</time></trkpt><trkpt lat="42.1781943273" lon="13.4801617451"><ele>1481.53</ele><time>2013-04-06T10:20:57Z</time></trkpt><trkpt lat="42.1781105082" lon="13.4799762536"><ele>1481.53</ele><time>2013-04-06T10:21:12Z</time></trkpt><trkpt lat="42.1780903079" lon="13.4799214359"><ele>1482.01</ele><time>2013-04-06T10:21:16Z</time></trkpt><trkpt lat="42.1779804211" lon="13.4797236230"><ele>1482.49</ele><time>2013-04-06T10:21:34Z</time></trkpt><trkpt lat="42.1779691894" lon="13.4796936158"><ele>1482.49</ele><time>2013-04-06T10:21:36Z</time></trkpt><trkpt lat="42.1778450534" lon="13.4794904385"><ele>1482.97</ele><time>2013-04-06T10:21:54Z</time></trkpt><trkpt lat="42.1778084245" lon="13.4794285800"><ele>1482.97</ele><time>2013-04-06T10:21:59Z</time></trkpt><trkpt lat="42.1777551156" lon="13.4793418273"><ele>1483.45</ele><time>2013-04-06T10:22:07Z</time></trkpt><trkpt lat="42.1777159721" lon="13.4793048631"><ele>1483.93</ele><time>2013-04-06T10:22:11Z</time></trkpt><trkpt lat="42.1776947659" lon="13.4792575892"><ele>1483.45</ele><time>2013-04-06T10:22:15Z</time></trkpt><trkpt lat="42.1776655130" lon="13.4792142548"><ele>1483.93</ele><time>2013-04-06T10:22:19Z</time></trkpt><trkpt lat="42.1776303928" lon="13.4791539889"><ele>1483.93</ele><time>2013-04-06T10:22:24Z</time></trkpt><trkpt lat="42.1775592305" lon="13.4790833294"><ele>1484.41</ele><time>2013-04-06T10:22:32Z</time></trkpt><trkpt lat="42.1774708014" lon="13.4789131768"><ele>1484.89</ele><time>2013-04-06T10:22:45Z</time></trkpt><trkpt lat="42.1774453204" lon="13.4788698424"><ele>1484.89</ele><time>2013-04-06T10:22:49Z</time></trkpt><trkpt lat="42.1773742419" lon="13.4787530825"><ele>1485.37</ele><time>2013-04-06T10:23:00Z</time></trkpt><trkpt lat="42.1773150656" lon="13.4786694311"><ele>1484.89</ele><time>2013-04-06T10:23:07Z</time></trkpt><trkpt lat="42.1771942824" lon="13.4784896392"><ele>1485.85</ele><time>2013-04-06T10:23:23Z</time></trkpt><trkpt lat="42.1771731600" lon="13.4784308821"><ele>1485.85</ele><time>2013-04-06T10:23:28Z</time></trkpt><trkpt lat="42.1771372017" lon="13.4783688560"><ele>1485.85</ele><time>2013-04-06T10:23:33Z</time></trkpt><trkpt lat="42.1770709008" lon="13.4782478213"><ele>1485.37</ele><time>2013-04-06T10:23:42Z</time></trkpt><trkpt lat="42.1770339366" lon="13.4781549498"><ele>1485.37</ele><time>2013-04-06T10:23:48Z</time></trkpt><trkpt lat="42.1769818012" lon="13.4780833684"><ele>1485.37</ele><time>2013-04-06T10:23:55Z</time></trkpt><trkpt lat="42.1769098006" lon="13.4779609088"><ele>1484.89</ele><time>2013-04-06T10:24:05Z</time></trkpt><trkpt lat="42.1768760215" lon="13.4779167362"><ele>1484.89</ele><time>2013-04-06T10:24:09Z</time></trkpt><trkpt lat="42.1768598445" lon="13.4778909199"><ele>1484.89</ele><time>2013-04-06T10:24:11Z</time></trkpt><trkpt lat="42.1768134926" lon="13.4778428916"><ele>1484.41</ele><time>2013-04-06T10:24:15Z</time></trkpt><trkpt lat="42.1767457668" lon="13.4776924364"><ele>1483.45</ele><time>2013-04-06T10:24:25Z</time></trkpt><trkpt lat="42.1767250635" lon="13.4776205197"><ele>1483.45</ele><time>2013-04-06T10:24:30Z</time></trkpt><trkpt lat="42.1767019294" lon="13.4775852319"><ele>1483.45</ele><time>2013-04-06T10:24:33Z</time></trkpt><trkpt lat="42.1765554138" lon="13.4773035999"><ele>1482.97</ele><time>2013-04-06T10:24:54Z</time></trkpt><trkpt lat="42.1765456069" lon="13.4772710782"><ele>1482.97</ele><time>2013-04-06T10:24:56Z</time></trkpt><trkpt lat="42.1765093133" lon="13.4771593474"><ele>1483.45</ele><time>2013-04-06T10:25:17Z</time></trkpt><trkpt lat="42.1765078045" lon="13.4771466907"><ele>1482.49</ele><time>2013-04-06T10:25:45Z</time></trkpt><trkpt lat="42.1765101515" lon="13.4771568328"><ele>1482.49</ele><time>2013-04-06T10:26:33Z</time></trkpt><trkpt lat="42.1765149292" lon="13.4771590959"><ele>1482.97</ele><time>2013-04-06T10:27:14Z</time></trkpt><trkpt lat="42.1765112411" lon="13.4771546535"><ele>1482.49</ele><time>2013-04-06T10:27:25Z</time></trkpt><trkpt lat="42.1765124146" lon="13.4771699924"><ele>1484.41</ele><time>2013-04-06T10:27:41Z</time></trkpt><trkpt lat="42.1765079722" lon="13.4771527257"><ele>1483.93</ele><time>2013-04-06T10:28:06Z</time></trkpt><trkpt lat="42.1765004285" lon="13.4771464393"><ele>1483.93</ele><time>2013-04-06T10:28:31Z</time></trkpt><trkpt lat="42.1765032783" lon="13.4771455172"><ele>1483.93</ele><time>2013-04-06T10:28:53Z</time></trkpt><trkpt lat="42.1765023563" lon="13.4771411587"><ele>1484.41</ele><time>2013-04-06T10:29:03Z</time></trkpt><trkpt lat="42.1764761209" lon="13.4771080501"><ele>1484.89</ele><time>2013-04-06T10:29:07Z</time></trkpt><trkpt lat="42.1764395759" lon="13.4770426713"><ele>1485.85</ele><time>2013-04-06T10:29:15Z</time></trkpt><trkpt lat="42.1764000133" lon="13.4768870194"><ele>1489.70</ele><time>2013-04-06T10:29:32Z</time></trkpt><trkpt lat="42.1763580199" lon="13.4768083133"><ele>1491.14</ele><time>2013-04-06T10:29:42Z</time></trkpt><trkpt lat="42.1763453633" lon="13.4767511487"><ele>1492.10</ele><time>2013-04-06T10:29:48Z</time></trkpt><trkpt lat="42.1763437707" lon="13.4767227340"><ele>1493.06</ele><time>2013-04-06T10:29:50Z</time></trkpt><trkpt lat="42.1763291862" lon="13.4766743705"><ele>1492.58</ele><time>2013-04-06T10:29:55Z</time></trkpt><trkpt lat="42.1762881149" lon="13.4765755478"><ele>1494.51</ele><time>2013-04-06T10:30:07Z</time></trkpt><trkpt lat="42.1762239933" lon="13.4764691815"><ele>1495.47</ele><time>2013-04-06T10:30:20Z</time></trkpt><trkpt lat="42.1761235781" lon="13.4763588756"><ele>1496.43</ele><time>2013-04-06T10:30:37Z</time></trkpt><trkpt lat="42.1760339756" lon="13.4763235040"><ele>1494.51</ele><time>2013-04-06T10:30:51Z</time></trkpt><trkpt lat="42.1759859473" lon="13.4763198160"><ele>1493.55</ele><time>2013-04-06T10:30:58Z</time></trkpt><trkpt lat="42.1759330574" lon="13.4762836900"><ele>1493.55</ele><time>2013-04-06T10:31:04Z</time></trkpt><trkpt lat="42.1758660860" lon="13.4762075823"><ele>1495.95</ele><time>2013-04-06T10:31:15Z</time></trkpt><trkpt lat="42.1758285351" lon="13.4760755673"><ele>1497.39</ele><time>2013-04-06T10:31:31Z</time></trkpt><trkpt lat="42.1757680178" lon="13.4759592265"><ele>1499.31</ele><time>2013-04-06T10:31:46Z</time></trkpt><trkpt lat="42.1756535210" lon="13.4757982101"><ele>1500.27</ele><time>2013-04-06T10:32:05Z</time></trkpt><trkpt lat="42.1756424569" lon="13.4757776745"><ele>1500.27</ele><time>2013-04-06T10:32:07Z</time></trkpt><trkpt lat="42.1755828615" lon="13.4756413847"><ele>1503.64</ele><time>2013-04-06T10:32:26Z</time></trkpt><trkpt lat="42.1755736414" lon="13.4754889179"><ele>1506.52</ele><time>2013-04-06T10:32:42Z</time></trkpt><trkpt lat="42.1755679417" lon="13.4754692204"><ele>1506.52</ele><time>2013-04-06T10:32:44Z</time></trkpt><trkpt lat="42.1755527705" lon="13.4754014108"><ele>1507.97</ele><time>2013-04-06T10:32:52Z</time></trkpt><trkpt lat="42.1754929237" lon="13.4753112216"><ele>1509.41</ele><time>2013-04-06T10:33:07Z</time></trkpt><trkpt lat="42.1754295565" lon="13.4752776939"><ele>1511.33</ele><time>2013-04-06T10:33:27Z</time></trkpt><trkpt lat="42.1754228510" lon="13.4752736706"><ele>1511.81</ele><time>2013-04-06T10:33:51Z</time></trkpt><trkpt lat="42.1753358468" lon="13.4752064478"><ele>1513.25</ele><time>2013-04-06T10:34:16Z</time></trkpt><trkpt lat="42.1752704680" lon="13.4751285799"><ele>1516.14</ele><time>2013-04-06T10:34:30Z</time></trkpt><trkpt lat="42.1752190869" lon="13.4750833176"><ele>1517.58</ele><time>2013-04-06T10:34:40Z</time></trkpt><trkpt lat="42.1751796082" lon="13.4749676473"><ele>1519.50</ele><time>2013-04-06T10:34:52Z</time></trkpt><trkpt lat="42.1751691308" lon="13.4749183618"><ele>1520.46</ele><time>2013-04-06T10:34:58Z</time></trkpt><trkpt lat="42.1751413029" lon="13.4747494664"><ele>1523.35</ele><time>2013-04-06T10:35:17Z</time></trkpt><trkpt lat="42.1750864014" lon="13.4745853487"><ele>1526.71</ele><time>2013-04-06T10:35:36Z</time></trkpt><trkpt lat="42.1750280634" lon="13.4744523279"><ele>1528.15</ele><time>2013-04-06T10:35:53Z</time></trkpt><trkpt lat="42.1749793645" lon="13.4743361548"><ele>1531.52</ele><time>2013-04-06T10:36:09Z</time></trkpt><trkpt lat="42.1749386285" lon="13.4742539283"><ele>1532.00</ele><time>2013-04-06T10:36:26Z</time></trkpt><trkpt lat="42.1748736687" lon="13.4741118550"><ele>1535.36</ele><time>2013-04-06T10:36:42Z</time></trkpt><trkpt lat="42.1748233773" lon="13.4740432911"><ele>1537.77</ele><time>2013-04-06T10:36:58Z</time></trkpt><trkpt lat="42.1748097148" lon="13.4740179777"><ele>1539.21</ele><time>2013-04-06T10:37:16Z</time></trkpt><trkpt lat="42.1748066973" lon="13.4740059078"><ele>1540.17</ele><time>2013-04-06T10:37:53Z</time></trkpt><trkpt lat="42.1747730020" lon="13.4738908242"><ele>1543.05</ele><time>2013-04-06T10:38:09Z</time></trkpt><trkpt lat="42.1747401450" lon="13.4738082625"><ele>1546.42</ele><time>2013-04-06T10:38:25Z</time></trkpt><trkpt lat="42.1746970620" lon="13.4736775048"><ele>1549.78</ele><time>2013-04-06T10:38:44Z</time></trkpt><trkpt lat="42.1746462677" lon="13.4735766705"><ele>1552.67</ele><time>2013-04-06T10:39:02Z</time></trkpt><trkpt lat="42.1746320184" lon="13.4734889120"><ele>1556.03</ele><time>2013-04-06T10:39:22Z</time></trkpt><trkpt lat="42.1745682321" lon="13.4734053444"><ele>1558.92</ele><time>2013-04-06T10:39:39Z</time></trkpt><trkpt lat="42.1745686512" lon="13.4734048415"><ele>1558.92</ele><time>2013-04-06T10:39:40Z</time></trkpt><trkpt lat="42.1745174378" lon="13.4733643569"><ele>1557.95</ele><time>2013-04-06T10:39:59Z</time></trkpt><trkpt lat="42.1744334511" lon="13.4732885845"><ele>1561.80</ele><time>2013-04-06T10:40:18Z</time></trkpt><trkpt lat="42.1743791364" lon="13.4732299112"><ele>1564.68</ele><time>2013-04-06T10:40:40Z</time></trkpt><trkpt lat="42.1743014362" lon="13.4731174260"><ele>1568.05</ele><time>2013-04-06T10:41:02Z</time></trkpt><trkpt lat="42.1741482150" lon="13.4729849920"><ele>1571.41</ele><time>2013-04-06T10:41:21Z</time></trkpt><trkpt lat="42.1740941517" lon="13.4728983231"><ele>1573.82</ele><time>2013-04-06T10:41:37Z</time></trkpt><trkpt lat="42.1740232408" lon="13.4728059545"><ele>1574.30</ele><time>2013-04-06T10:41:53Z</time></trkpt><trkpt lat="42.1740150265" lon="13.4727684874"><ele>1576.70</ele><time>2013-04-06T10:41:56Z</time></trkpt><trkpt lat="42.1739813313" lon="13.4727041982"><ele>1576.22</ele><time>2013-04-06T10:42:06Z</time></trkpt><trkpt lat="42.1739393380" lon="13.4726253245"><ele>1576.70</ele><time>2013-04-06T10:42:16Z</time></trkpt><trkpt lat="42.1738517471" lon="13.4725210536"><ele>1578.62</ele><time>2013-04-06T10:42:34Z</time></trkpt><trkpt lat="42.1738036349" lon="13.4724691696"><ele>1579.10</ele><time>2013-04-06T10:42:44Z</time></trkpt><trkpt lat="42.1736981906" lon="13.4723180439"><ele>1580.54</ele><time>2013-04-06T10:43:04Z</time></trkpt><trkpt lat="42.1736348234" lon="13.4722457919"><ele>1581.51</ele><time>2013-04-06T10:43:16Z</time></trkpt><trkpt lat="42.1735273674" lon="13.4721017070"><ele>1583.43</ele><time>2013-04-06T10:43:36Z</time></trkpt><trkpt lat="42.1734836139" lon="13.4719682671"><ele>1584.87</ele><time>2013-04-06T10:43:51Z</time></trkpt><trkpt lat="42.1734230127" lon="13.4718464781"><ele>1586.79</ele><time>2013-04-06T10:44:10Z</time></trkpt><trkpt lat="42.1734058298" lon="13.4718106035"><ele>1587.27</ele><time>2013-04-06T10:44:49Z</time></trkpt><trkpt lat="42.1733355056" lon="13.4716757387"><ele>1589.68</ele><time>2013-04-06T10:45:07Z</time></trkpt><trkpt lat="42.1732936800" lon="13.4715469927"><ele>1591.60</ele><time>2013-04-06T10:45:24Z</time></trkpt><trkpt lat="42.1732802689" lon="13.4714920912"><ele>1592.08</ele><time>2013-04-06T10:45:30Z</time></trkpt><trkpt lat="42.1732415445" lon="13.4714147262"><ele>1593.52</ele><time>2013-04-06T10:45:40Z</time></trkpt><trkpt lat="42.1731671970" lon="13.4712975472"><ele>1595.93</ele><time>2013-04-06T10:45:58Z</time></trkpt><trkpt lat="42.1731059253" lon="13.4711895045"><ele>1598.81</ele><time>2013-04-06T10:46:19Z</time></trkpt><trkpt lat="42.1730319131" lon="13.4710434079"><ele>1601.21</ele><time>2013-04-06T10:46:36Z</time></trkpt><trkpt lat="42.1729863156" lon="13.4709750954"><ele>1604.58</ele><time>2013-04-06T10:46:54Z</time></trkpt><trkpt lat="42.1729481779" lon="13.4709175117"><ele>1607.46</ele><time>2013-04-06T10:47:16Z</time></trkpt><trkpt lat="42.1729238704" lon="13.4708141629"><ele>1608.90</ele><time>2013-04-06T10:47:36Z</time></trkpt><trkpt lat="42.1729079448" lon="13.4706954751"><ele>1611.79</ele><time>2013-04-06T10:47:53Z</time></trkpt><trkpt lat="42.1728777699" lon="13.4706197865"><ele>1614.19</ele><time>2013-04-06T10:48:10Z</time></trkpt><trkpt lat="42.1728652809" lon="13.4705343749"><ele>1616.59</ele><time>2013-04-06T10:48:28Z</time></trkpt><trkpt lat="42.1728079487" lon="13.4704430960"><ele>1618.52</ele><time>2013-04-06T10:48:47Z</time></trkpt><trkpt lat="42.1727662906" lon="13.4703727718"><ele>1620.92</ele><time>2013-04-06T10:49:05Z</time></trkpt><trkpt lat="42.1727004927" lon="13.4703697544"><ele>1622.84</ele><time>2013-04-06T10:49:22Z</time></trkpt><trkpt lat="42.1726792026" lon="13.4702979214"><ele>1625.25</ele><time>2013-04-06T10:49:40Z</time></trkpt><trkpt lat="42.1726649534" lon="13.4703004360"><ele>1625.25</ele><time>2013-04-06T10:49:57Z</time></trkpt><trkpt lat="42.1726714075" lon="13.4702868573"><ele>1625.25</ele><time>2013-04-06T10:50:33Z</time></trkpt><trkpt lat="42.1726724133" lon="13.4702751227"><ele>1625.25</ele><time>2013-04-06T10:51:21Z</time></trkpt><trkpt lat="42.1726367902" lon="13.4702914674"><ele>1625.25</ele><time>2013-04-06T10:51:49Z</time></trkpt><trkpt lat="42.1725853253" lon="13.4702134319"><ele>1627.65</ele><time>2013-04-06T10:52:06Z</time></trkpt><trkpt lat="42.1726050228" lon="13.4701120947"><ele>1630.05</ele><time>2013-04-06T10:52:20Z</time></trkpt><trkpt lat="42.1725744288" lon="13.4700487275"><ele>1633.42</ele><time>2013-04-06T10:52:34Z</time></trkpt><trkpt lat="42.1725507081" lon="13.4699373320"><ele>1635.34</ele><time>2013-04-06T10:52:51Z</time></trkpt><trkpt lat="42.1725391410" lon="13.4698346537"><ele>1638.22</ele><time>2013-04-06T10:53:09Z</time></trkpt><trkpt lat="42.1725243051" lon="13.4697176423"><ele>1639.67</ele><time>2013-04-06T10:53:25Z</time></trkpt><trkpt lat="42.1724732593" lon="13.4696406126"><ele>1642.07</ele><time>2013-04-06T10:53:43Z</time></trkpt><trkpt lat="42.1723758616" lon="13.4695395268"><ele>1644.47</ele><time>2013-04-06T10:54:00Z</time></trkpt><trkpt lat="42.1723179426" lon="13.4694900736"><ele>1645.43</ele><time>2013-04-06T10:54:14Z</time></trkpt><trkpt lat="42.1722142585" lon="13.4693640936"><ele>1647.36</ele><time>2013-04-06T10:54:36Z</time></trkpt><trkpt lat="42.1721172798" lon="13.4692471661"><ele>1650.72</ele><time>2013-04-06T10:55:00Z</time></trkpt><trkpt lat="42.1720285155" lon="13.4692119621"><ele>1653.12</ele><time>2013-04-06T10:55:19Z</time></trkpt><trkpt lat="42.1719521564" lon="13.4692321625"><ele>1656.01</ele><time>2013-04-06T10:55:36Z</time></trkpt><trkpt lat="42.1718852688" lon="13.4692069329"><ele>1658.41</ele><time>2013-04-06T10:55:56Z</time></trkpt><trkpt lat="42.1718334686" lon="13.4691542946"><ele>1659.85</ele><time>2013-04-06T10:56:12Z</time></trkpt><trkpt lat="42.1717784833" lon="13.4691301547"><ele>1662.26</ele><time>2013-04-06T10:56:29Z</time></trkpt><trkpt lat="42.1717021242" lon="13.4691086132"><ele>1664.66</ele><time>2013-04-06T10:56:46Z</time></trkpt><trkpt lat="42.1716639865" lon="13.4690656140"><ele>1666.10</ele><time>2013-04-06T10:57:03Z</time></trkpt><trkpt lat="42.1715774015" lon="13.4690138139"><ele>1668.99</ele><time>2013-04-06T10:57:22Z</time></trkpt><trkpt lat="42.1715693548" lon="13.4689702280"><ele>1670.91</ele><time>2013-04-06T10:57:39Z</time></trkpt><trkpt lat="42.1715877112" lon="13.4688956290"><ele>1673.31</ele><time>2013-04-06T10:57:55Z</time></trkpt><trkpt lat="42.1716042235" lon="13.4688460920"><ele>1674.27</ele><time>2013-04-06T10:58:00Z</time></trkpt><trkpt lat="42.1716065705" lon="13.4688215330"><ele>1674.75</ele><time>2013-04-06T10:58:22Z</time></trkpt><trkpt lat="42.1715859510" lon="13.4687826410"><ele>1677.16</ele><time>2013-04-06T10:58:40Z</time></trkpt><trkpt lat="42.1715042274" lon="13.4687839821"><ele>1679.56</ele><time>2013-04-06T10:58:58Z</time></trkpt><trkpt lat="42.1714583784" lon="13.4686829802"><ele>1681.96</ele><time>2013-04-06T10:59:17Z</time></trkpt><trkpt lat="42.1714232583" lon="13.4686048608"><ele>1683.41</ele><time>2013-04-06T10:59:37Z</time></trkpt><trkpt lat="42.1713812649" lon="13.4685460199"><ele>1684.85</ele><time>2013-04-06T10:59:56Z</time></trkpt><trkpt lat="42.1712983679" lon="13.4685077984"><ele>1687.73</ele><time>2013-04-06T11:00:14Z</time></trkpt><trkpt lat="42.1712433826" lon="13.4684716724"><ele>1690.14</ele><time>2013-04-06T11:00:32Z</time></trkpt><trkpt lat="42.1711866371" lon="13.4684080537"><ele>1693.02</ele><time>2013-04-06T11:00:50Z</time></trkpt><trkpt lat="42.1712130401" lon="13.4682888631"><ele>1695.90</ele><time>2013-04-06T11:01:09Z</time></trkpt><trkpt lat="42.1712585539" lon="13.4681333788"><ele>1697.34</ele><time>2013-04-06T11:01:30Z</time></trkpt><trkpt lat="42.1712544467" lon="13.4680428542"><ele>1698.31</ele><time>2013-04-06T11:01:47Z</time></trkpt><trkpt lat="42.1712443046" lon="13.4680239949"><ele>1698.79</ele><time>2013-04-06T11:02:31Z</time></trkpt><trkpt lat="42.1712385211" lon="13.4679851867"><ele>1700.23</ele><time>2013-04-06T11:02:50Z</time></trkpt><trkpt lat="42.1712282952" lon="13.4680239111"><ele>1702.15</ele><time>2013-04-06T11:03:13Z</time></trkpt><trkpt lat="42.1711627487" lon="13.4680605400"><ele>1705.04</ele><time>2013-04-06T11:03:34Z</time></trkpt><trkpt lat="42.1710823663" lon="13.4680344723"><ele>1707.44</ele><time>2013-04-06T11:03:53Z</time></trkpt><trkpt lat="42.1711033210" lon="13.4678936563"><ele>1710.32</ele><time>2013-04-06T11:04:14Z</time></trkpt><trkpt lat="42.1710885689" lon="13.4678198118"><ele>1712.25</ele><time>2013-04-06T11:04:34Z</time></trkpt><trkpt lat="42.1710063424" lon="13.4678665828"><ele>1715.13</ele><time>2013-04-06T11:04:54Z</time></trkpt><trkpt lat="42.1708904207" lon="13.4678944945"><ele>1717.53</ele><time>2013-04-06T11:05:18Z</time></trkpt><trkpt lat="42.1708445717" lon="13.4679159522"><ele>1718.97</ele><time>2013-04-06T11:05:33Z</time></trkpt><trkpt lat="42.1707362775" lon="13.4678831790"><ele>1721.86</ele><time>2013-04-06T11:05:53Z</time></trkpt><trkpt lat="42.1707384568" lon="13.4678401798"><ele>1724.26</ele><time>2013-04-06T11:06:11Z</time></trkpt><trkpt lat="42.1707184240" lon="13.4677749686"><ele>1726.67</ele><time>2013-04-06T11:06:33Z</time></trkpt><trkpt lat="42.1707331762" lon="13.4676650818"><ele>1729.55</ele><time>2013-04-06T11:06:53Z</time></trkpt><trkpt lat="42.1707144845" lon="13.4675899800"><ele>1732.43</ele><time>2013-04-06T11:07:12Z</time></trkpt><trkpt lat="42.1707216930" lon="13.4674668498"><ele>1734.36</ele><time>2013-04-06T11:07:33Z</time></trkpt><trkpt lat="42.1706637740" lon="13.4674416203"><ele>1736.28</ele><time>2013-04-06T11:08:06Z</time></trkpt><trkpt lat="42.1706201043" lon="13.4673974477"><ele>1738.68</ele><time>2013-04-06T11:08:24Z</time></trkpt><trkpt lat="42.1705502830" lon="13.4673651773"><ele>1741.08</ele><time>2013-04-06T11:08:45Z</time></trkpt><trkpt lat="42.1704952139" lon="13.4674016386"><ele>1744.45</ele><time>2013-04-06T11:09:04Z</time></trkpt><trkpt lat="42.1704315115" lon="13.4674260300"><ele>1746.37</ele><time>2013-04-06T11:09:26Z</time></trkpt><trkpt lat="42.1703932900" lon="13.4674482420"><ele>1747.81</ele><time>2013-04-06T11:09:44Z</time></trkpt><trkpt lat="42.1703727543" lon="13.4674676880"><ele>1747.81</ele><time>2013-04-06T11:10:13Z</time></trkpt><trkpt lat="42.1703117341" lon="13.4674950968"><ele>1748.29</ele><time>2013-04-06T11:10:29Z</time></trkpt><trkpt lat="42.1702133305" lon="13.4675325640"><ele>1749.26</ele><time>2013-04-06T11:10:46Z</time></trkpt><trkpt lat="42.1702115703" lon="13.4675248526"><ele>1749.74</ele><time>2013-04-06T11:11:07Z</time></trkpt><trkpt lat="42.1702414937" lon="13.4674626589"><ele>1751.18</ele><time>2013-04-06T11:11:29Z</time></trkpt><trkpt lat="42.1702476125" lon="13.4674133733"><ele>1752.62</ele><time>2013-04-06T11:11:48Z</time></trkpt><trkpt lat="42.1702450980" lon="13.4674000461"><ele>1752.14</ele><time>2013-04-06T11:12:31Z</time></trkpt><trkpt lat="42.1702483669" lon="13.4673681110"><ele>1753.58</ele><time>2013-04-06T11:13:07Z</time></trkpt><trkpt lat="42.1702128276" lon="13.4673803486"><ele>1755.02</ele><time>2013-04-06T11:13:30Z</time></trkpt><trkpt lat="42.1701815631" lon="13.4673969448"><ele>1755.50</ele><time>2013-04-06T11:13:54Z</time></trkpt><trkpt lat="42.1701755282" lon="13.4674046561"><ele>1755.02</ele><time>2013-04-06T11:14:17Z</time></trkpt><trkpt lat="42.1701785456" lon="13.4673837014"><ele>1755.99</ele><time>2013-04-06T11:14:35Z</time></trkpt><trkpt lat="42.1701956447" lon="13.4673296381"><ele>1757.43</ele><time>2013-04-06T11:14:52Z</time></trkpt><trkpt lat="42.1702153422" lon="13.4672767483"><ele>1758.39</ele><time>2013-04-06T11:15:11Z</time></trkpt><trkpt lat="42.1702093910" lon="13.4672538657"><ele>1759.35</ele><time>2013-04-06T11:15:30Z</time></trkpt><trkpt lat="42.1701660566" lon="13.4673361760"><ele>1760.31</ele><time>2013-04-06T11:15:53Z</time></trkpt><trkpt lat="42.1701271646" lon="13.4673561249"><ele>1761.27</ele><time>2013-04-06T11:16:10Z</time></trkpt><trkpt lat="42.1700989176" lon="13.4674002975"><ele>1762.23</ele><time>2013-04-06T11:16:29Z</time></trkpt><trkpt lat="42.1700636297" lon="13.4673977830"><ele>1763.68</ele><time>2013-04-06T11:16:44Z</time></trkpt><trkpt lat="42.1700289287" lon="13.4674180672"><ele>1765.12</ele><time>2013-04-06T11:16:59Z</time></trkpt><trkpt lat="42.1699554194" lon="13.4674000461"><ele>1766.56</ele><time>2013-04-06T11:17:16Z</time></trkpt><trkpt lat="42.1699190419" lon="13.4673793428"><ele>1768.00</ele><time>2013-04-06T11:17:34Z</time></trkpt><trkpt lat="42.1699302737" lon="13.4673505928"><ele>1768.48</ele><time>2013-04-06T11:17:58Z</time></trkpt><trkpt lat="42.1699707583" lon="13.4672950208"><ele>1770.89</ele><time>2013-04-06T11:18:15Z</time></trkpt><trkpt lat="42.1700087283" lon="13.4672331624"><ele>1771.37</ele><time>2013-04-06T11:18:38Z</time></trkpt><trkpt lat="42.1700570080" lon="13.4671082720"><ele>1772.33</ele><time>2013-04-06T11:18:56Z</time></trkpt><trkpt lat="42.1700798906" lon="13.4670068510"><ele>1772.33</ele><time>2013-04-06T11:19:07Z</time></trkpt><trkpt lat="42.1700981632" lon="13.4669365268"><ele>1771.85</ele><time>2013-04-06T11:19:25Z</time></trkpt><trkpt lat="42.1700929664" lon="13.4669412207"><ele>1771.85</ele><time>2013-04-06T11:19:53Z</time></trkpt><trkpt lat="42.1701047011" lon="13.4668305796"><ele>1771.37</ele><time>2013-04-06T11:20:24Z</time></trkpt><trkpt lat="42.1700887755" lon="13.4667969681"><ele>1771.85</ele><time>2013-04-06T11:20:28Z</time></trkpt><trkpt lat="42.1700871829" lon="13.4667495266"><ele>1771.85</ele><time>2013-04-06T11:20:33Z</time></trkpt><trkpt lat="42.1701165196" lon="13.4666632768"><ele>1771.85</ele><time>2013-04-06T11:20:43Z</time></trkpt><trkpt lat="42.1701102331" lon="13.4665771946"><ele>1770.89</ele><time>2013-04-06T11:20:51Z</time></trkpt><trkpt lat="42.1701176930" lon="13.4664800484"><ele>1770.89</ele><time>2013-04-06T11:20:59Z</time></trkpt><trkpt lat="42.1701175254" lon="13.4662189521"><ele>1769.44</ele><time>2013-04-06T11:21:19Z</time></trkpt><trkpt lat="42.1701232251" lon="13.4661148489"><ele>1769.44</ele><time>2013-04-06T11:21:28Z</time></trkpt><trkpt lat="42.1701205429" lon="13.4659243282"><ele>1768.96</ele><time>2013-04-06T11:21:45Z</time></trkpt><trkpt lat="42.1702259872" lon="13.4657726157"><ele>1768.48</ele><time>2013-04-06T11:22:02Z</time></trkpt><trkpt lat="42.1703084651" lon="13.4657010343"><ele>1768.00</ele><time>2013-04-06T11:22:22Z</time></trkpt><trkpt lat="42.1703176852" lon="13.4657011181"><ele>1768.00</ele><time>2013-04-06T11:22:38Z</time></trkpt><trkpt lat="42.1703997441" lon="13.4655891359"><ele>1766.08</ele><time>2013-04-06T11:22:53Z</time></trkpt><trkpt lat="42.1705211978" lon="13.4654304665"><ele>1765.12</ele><time>2013-04-06T11:23:14Z</time></trkpt><trkpt lat="42.1704576630" lon="13.4652933385"><ele>1765.12</ele><time>2013-04-06T11:23:33Z</time></trkpt><trkpt lat="42.1704298351" lon="13.4651608206"><ele>1766.56</ele><time>2013-04-06T11:23:53Z</time></trkpt><trkpt lat="42.1703685634" lon="13.4650959447"><ele>1768.00</ele><time>2013-04-06T11:24:05Z</time></trkpt><trkpt lat="42.1703719161" lon="13.4649807774"><ele>1769.44</ele><time>2013-04-06T11:24:27Z</time></trkpt><trkpt lat="42.1703667194" lon="13.4649479203"><ele>1768.96</ele><time>2013-04-06T11:24:33Z</time></trkpt><trkpt lat="42.1703606006" lon="13.4648890793"><ele>1768.96</ele><time>2013-04-06T11:24:38Z</time></trkpt><trkpt lat="42.1703714970" lon="13.4647993091"><ele>1768.48</ele><time>2013-04-06T11:25:00Z</time></trkpt><trkpt lat="42.1703809686" lon="13.4648109600"><ele>1767.52</ele><time>2013-04-06T11:25:28Z</time></trkpt><trkpt lat="42.1703765262" lon="13.4648174979"><ele>1767.52</ele><time>2013-04-06T11:26:02Z</time></trkpt><trkpt lat="42.1703805495" lon="13.4648002312"><ele>1767.52</ele><time>2013-04-06T11:26:55Z</time></trkpt><trkpt lat="42.1703833155" lon="13.4648068529"><ele>1768.00</ele><time>2013-04-06T11:27:04Z</time></trkpt><trkpt lat="42.1703699883" lon="13.4648040868"><ele>1768.96</ele><time>2013-04-06T11:27:18Z</time></trkpt><trkpt lat="42.1703645401" lon="13.4647812042"><ele>1768.48</ele><time>2013-04-06T11:27:35Z</time></trkpt><trkpt lat="42.1703737602" lon="13.4647117183"><ele>1768.00</ele><time>2013-04-06T11:27:40Z</time></trkpt><trkpt lat="42.1703864168" lon="13.4645750932"><ele>1768.48</ele><time>2013-04-06T11:27:51Z</time></trkpt><trkpt lat="42.1703771967" lon="13.4644755162"><ele>1768.48</ele><time>2013-04-06T11:27:58Z</time></trkpt><trkpt lat="42.1703730896" lon="13.4643207863"><ele>1768.48</ele><time>2013-04-06T11:28:10Z</time></trkpt><trkpt lat="42.1703700721" lon="13.4642724227"><ele>1768.48</ele><time>2013-04-06T11:28:14Z</time></trkpt><trkpt lat="42.1703569964" lon="13.4640645515"><ele>1769.44</ele><time>2013-04-06T11:28:31Z</time></trkpt><trkpt lat="42.1703308448" lon="13.4638636373"><ele>1769.44</ele><time>2013-04-06T11:28:49Z</time></trkpt><trkpt lat="42.1702757757" lon="13.4637208097"><ele>1769.44</ele><time>2013-04-06T11:29:02Z</time></trkpt><trkpt lat="42.1702385601" lon="13.4636064805"><ele>1769.92</ele><time>2013-04-06T11:29:13Z</time></trkpt><trkpt lat="42.1702008415" lon="13.4635120165"><ele>1768.96</ele><time>2013-04-06T11:29:22Z</time></trkpt><trkpt lat="42.1701764502" lon="13.4633673448"><ele>1769.44</ele><time>2013-04-06T11:29:34Z</time></trkpt><trkpt lat="42.1702228859" lon="13.4631709568"><ele>1771.37</ele><time>2013-04-06T11:29:55Z</time></trkpt><trkpt lat="42.1702373028" lon="13.4630367626"><ele>1771.37</ele><time>2013-04-06T11:30:15Z</time></trkpt><trkpt lat="42.1702198684" lon="13.4630057495"><ele>1771.85</ele><time>2013-04-06T11:30:30Z</time></trkpt><trkpt lat="42.1702455170" lon="13.4628806077"><ele>1772.33</ele><time>2013-04-06T11:30:50Z</time></trkpt><trkpt lat="42.1702025179" lon="13.4627793543"><ele>1773.77</ele><time>2013-04-06T11:31:16Z</time></trkpt><trkpt lat="42.1701264102" lon="13.4627197590"><ele>1775.21</ele><time>2013-04-06T11:31:37Z</time></trkpt><trkpt lat="42.1701393183" lon="13.4626164101"><ele>1777.13</ele><time>2013-04-06T11:31:58Z</time></trkpt><trkpt lat="42.1701838262" lon="13.4625032544"><ele>1779.06</ele><time>2013-04-06T11:32:17Z</time></trkpt><trkpt lat="42.1701656375" lon="13.4624475986"><ele>1780.50</ele><time>2013-04-06T11:32:37Z</time></trkpt><trkpt lat="42.1701247338" lon="13.4623365384"><ele>1783.38</ele><time>2013-04-06T11:32:57Z</time></trkpt><trkpt lat="42.1701251529" lon="13.4622184373"><ele>1785.79</ele><time>2013-04-06T11:33:18Z</time></trkpt><trkpt lat="42.1700952295" lon="13.4621455148"><ele>1788.19</ele><time>2013-04-06T11:33:38Z</time></trkpt><trkpt lat="42.1700330358" lon="13.4620663058"><ele>1790.11</ele><time>2013-04-06T11:33:54Z</time></trkpt><trkpt lat="42.1700720116" lon="13.4619526472"><ele>1792.52</ele><time>2013-04-06T11:34:11Z</time></trkpt><trkpt lat="42.1700830758" lon="13.4618894476"><ele>1793.48</ele><time>2013-04-06T11:34:32Z</time></trkpt><trkpt lat="42.1700961515" lon="13.4618604463"><ele>1793.96</ele><time>2013-04-06T11:34:35Z</time></trkpt><trkpt lat="42.1701197885" lon="13.4617074765"><ele>1796.84</ele><time>2013-04-06T11:34:53Z</time></trkpt><trkpt lat="42.1701022703" lon="13.4616429359"><ele>1798.28</ele><time>2013-04-06T11:35:05Z</time></trkpt><trkpt lat="42.1700830758" lon="13.4614867810"><ele>1800.21</ele><time>2013-04-06T11:35:24Z</time></trkpt><trkpt lat="42.1700701676" lon="13.4613431990"><ele>1802.13</ele><time>2013-04-06T11:35:47Z</time></trkpt><trkpt lat="42.1700723469" lon="13.4613209870"><ele>1802.13</ele><time>2013-04-06T11:36:11Z</time></trkpt><trkpt lat="42.1700724307" lon="13.4613180533"><ele>1802.61</ele><time>2013-04-06T11:36:46Z</time></trkpt><trkpt lat="42.1700728498" lon="13.4613119345"><ele>1802.61</ele><time>2013-04-06T11:37:28Z</time></trkpt><trkpt lat="42.1700710896" lon="13.4613005351"><ele>1802.13</ele><time>2013-04-06T11:38:02Z</time></trkpt><trkpt lat="42.1700672340" lon="13.4611991141"><ele>1802.61</ele><time>2013-04-06T11:38:17Z</time></trkpt><trkpt lat="42.1700425912" lon="13.4610954300"><ele>1803.57</ele><time>2013-04-06T11:38:28Z</time></trkpt><trkpt lat="42.1699734405" lon="13.4609348327"><ele>1805.49</ele><time>2013-04-06T11:38:47Z</time></trkpt><trkpt lat="42.1699134260" lon="13.4607771691"><ele>1807.42</ele><time>2013-04-06T11:39:07Z</time></trkpt><trkpt lat="42.1698609553" lon="13.4606335871"><ele>1809.34</ele><time>2013-04-06T11:39:25Z</time></trkpt><trkpt lat="42.1698064730" lon="13.4605067689"><ele>1811.74</ele><time>2013-04-06T11:39:42Z</time></trkpt><trkpt lat="42.1697744541" lon="13.4604306612"><ele>1814.15</ele><time>2013-04-06T11:40:00Z</time></trkpt><trkpt lat="42.1697246656" lon="13.4603043459"><ele>1817.03</ele><time>2013-04-06T11:40:20Z</time></trkpt><trkpt lat="42.1697068121" lon="13.4601980634"><ele>1818.95</ele><time>2013-04-06T11:40:37Z</time></trkpt><trkpt lat="42.1697016992" lon="13.4601703193"><ele>1819.91</ele><time>2013-04-06T11:40:43Z</time></trkpt><trkpt lat="42.1696835943" lon="13.4600048605"><ele>1822.32</ele><time>2013-04-06T11:41:03Z</time></trkpt><trkpt lat="42.1696748771" lon="13.4598945547"><ele>1824.24</ele><time>2013-04-06T11:41:20Z</time></trkpt><trkpt lat="42.1696528327" lon="13.4597130027"><ele>1825.68</ele><time>2013-04-06T11:41:39Z</time></trkpt><trkpt lat="42.1696524136" lon="13.4596736077"><ele>1826.16</ele><time>2013-04-06T11:41:42Z</time></trkpt><trkpt lat="42.1696491446" lon="13.4594954085"><ele>1827.60</ele><time>2013-04-06T11:41:58Z</time></trkpt><trkpt lat="42.1696483064" lon="13.4594566002"><ele>1827.60</ele><time>2013-04-06T11:42:02Z</time></trkpt><trkpt lat="42.1696496475" lon="13.4594099130"><ele>1828.56</ele><time>2013-04-06T11:42:07Z</time></trkpt><trkpt lat="42.1696403436" lon="13.4592471365"><ele>1830.01</ele><time>2013-04-06T11:42:25Z</time></trkpt><trkpt lat="42.1696140245" lon="13.4591566119"><ele>1831.45</ele><time>2013-04-06T11:42:41Z</time></trkpt><trkpt lat="42.1695955005" lon="13.4590181429"><ele>1832.41</ele><time>2013-04-06T11:42:55Z</time></trkpt><trkpt lat="42.1695794072" lon="13.4588671010"><ele>1834.33</ele><time>2013-04-06T11:43:16Z</time></trkpt><trkpt lat="42.1695691813" lon="13.4587826952"><ele>1835.29</ele><time>2013-04-06T11:43:25Z</time></trkpt><trkpt lat="42.1695701871" lon="13.4587031510"><ele>1836.26</ele><time>2013-04-06T11:43:31Z</time></trkpt><trkpt lat="42.1695782337" lon="13.4585895762"><ele>1837.70</ele><time>2013-04-06T11:43:50Z</time></trkpt><trkpt lat="42.1695883758" lon="13.4584946092"><ele>1840.58</ele><time>2013-04-06T11:44:08Z</time></trkpt><trkpt lat="42.1695724502" lon="13.4583680425"><ele>1842.50</ele><time>2013-04-06T11:44:26Z</time></trkpt><trkpt lat="42.1695721988" lon="13.4582820442"><ele>1844.43</ele><time>2013-04-06T11:44:43Z</time></trkpt><trkpt lat="42.1695706062" lon="13.4582294058"><ele>1845.39</ele><time>2013-04-06T11:45:36Z</time></trkpt><trkpt lat="42.1695736237" lon="13.4580509551"><ele>1847.79</ele><time>2013-04-06T11:45:54Z</time></trkpt><trkpt lat="42.1695839334" lon="13.4579285793"><ele>1850.19</ele><time>2013-04-06T11:46:11Z</time></trkpt><trkpt lat="42.1695888788" lon="13.4578146692"><ele>1852.12</ele><time>2013-04-06T11:46:29Z</time></trkpt><trkpt lat="42.1696271840" lon="13.4576539043"><ele>1855.00</ele><time>2013-04-06T11:46:51Z</time></trkpt><trkpt lat="42.1696487255" lon="13.4575490467"><ele>1856.44</ele><time>2013-04-06T11:47:05Z</time></trkpt><trkpt lat="42.1696649026" lon="13.4574544989"><ele>1858.37</ele><time>2013-04-06T11:47:23Z</time></trkpt><trkpt lat="42.1696921438" lon="13.4572957456"><ele>1860.29</ele><time>2013-04-06T11:47:44Z</time></trkpt><trkpt lat="42.1697048005" lon="13.4571314603"><ele>1861.73</ele><time>2013-04-06T11:48:04Z</time></trkpt><trkpt lat="42.1698027011" lon="13.4569639899"><ele>1863.17</ele><time>2013-04-06T11:48:24Z</time></trkpt><trkpt lat="42.1698660683" lon="13.4568311367"><ele>1864.61</ele><time>2013-04-06T11:48:43Z</time></trkpt><trkpt lat="42.1698375698" lon="13.4567152988"><ele>1865.58</ele><time>2013-04-06T11:49:02Z</time></trkpt><trkpt lat="42.1698285174" lon="13.4565616585"><ele>1867.02</ele><time>2013-04-06T11:49:22Z</time></trkpt><trkpt lat="42.1698628832" lon="13.4564158972"><ele>1867.98</ele><time>2013-04-06T11:49:43Z</time></trkpt><trkpt lat="42.1698858496" lon="13.4564117901"><ele>1867.98</ele><time>2013-04-06T11:50:29Z</time></trkpt><trkpt lat="42.1698910464" lon="13.4562547971"><ele>1869.42</ele><time>2013-04-06T11:50:49Z</time></trkpt><trkpt lat="42.1698978357" lon="13.4562392067"><ele>1869.90</ele><time>2013-04-06T11:50:54Z</time></trkpt><trkpt lat="42.1698830836" lon="13.4561000671"><ele>1870.86</ele><time>2013-04-06T11:51:13Z</time></trkpt><trkpt lat="42.1698840894" lon="13.4559590835"><ele>1872.79</ele><time>2013-04-06T11:51:30Z</time></trkpt><trkpt lat="42.1698798984" lon="13.4558256436"><ele>1873.75</ele><time>2013-04-06T11:51:50Z</time></trkpt><trkpt lat="42.1698606201" lon="13.4556995798"><ele>1874.71</ele><time>2013-04-06T11:52:06Z</time></trkpt><trkpt lat="42.1699277591" lon="13.4556005895"><ele>1877.11</ele><time>2013-04-06T11:52:26Z</time></trkpt><trkpt lat="42.1699243225" lon="13.4554599412"><ele>1878.55</ele><time>2013-04-06T11:52:44Z</time></trkpt><trkpt lat="42.1699465346" lon="13.4553835820"><ele>1880.48</ele><time>2013-04-06T11:53:08Z</time></trkpt><trkpt lat="42.1699538268" lon="13.4552639723"><ele>1882.40</ele><time>2013-04-06T11:53:24Z</time></trkpt><trkpt lat="42.1699691657" lon="13.4551110025"><ele>1884.32</ele><time>2013-04-06T11:53:40Z</time></trkpt><trkpt lat="42.1699494682" lon="13.4549871180"><ele>1885.28</ele><time>2013-04-06T11:53:59Z</time></trkpt><trkpt lat="42.1699795593" lon="13.4548633173"><ele>1886.72</ele><time>2013-04-06T11:54:13Z</time></trkpt><trkpt lat="42.1699136775" lon="13.4546993673"><ele>1887.69</ele><time>2013-04-06T11:54:32Z</time></trkpt><trkpt lat="42.1699310280" lon="13.4545308910"><ele>1888.65</ele><time>2013-04-06T11:54:51Z</time></trkpt><trkpt lat="42.1699408349" lon="13.4544174001"><ele>1891.53</ele><time>2013-04-06T11:55:10Z</time></trkpt><trkpt lat="42.1699612029" lon="13.4542609937"><ele>1892.01</ele><time>2013-04-06T11:55:28Z</time></trkpt><trkpt lat="42.1700060461" lon="13.4542173240"><ele>1892.49</ele><time>2013-04-06T11:55:36Z</time></trkpt><trkpt lat="42.1700700000" lon="13.4541874845"><ele>1893.93</ele><time>2013-04-06T11:55:57Z</time></trkpt><trkpt lat="42.1700758673" lon="13.4541801084"><ele>1894.42</ele><time>2013-04-06T11:56:21Z</time></trkpt><trkpt lat="42.1701824851" lon="13.4541555494"><ele>1897.30</ele><time>2013-04-06T11:56:41Z</time></trkpt><trkpt lat="42.1702396497" lon="13.4541423060"><ele>1899.70</ele><time>2013-04-06T11:56:58Z</time></trkpt><trkpt lat="42.1702363808" lon="13.4541129693"><ele>1900.66</ele><time>2013-04-06T11:57:17Z</time></trkpt><trkpt lat="42.1702192817" lon="13.4540434834"><ele>1902.59</ele><time>2013-04-06T11:57:36Z</time></trkpt><trkpt lat="42.1702165157" lon="13.4539694712"><ele>1904.51</ele><time>2013-04-06T11:57:53Z</time></trkpt><trkpt lat="42.1701863408" lon="13.4539001528"><ele>1905.95</ele><time>2013-04-06T11:58:11Z</time></trkpt><trkpt lat="42.1702201199" lon="13.4538751747"><ele>1907.39</ele><time>2013-04-06T11:58:28Z</time></trkpt><trkpt lat="42.1702551562" lon="13.4538145736"><ele>1909.80</ele><time>2013-04-06T11:58:45Z</time></trkpt><trkpt lat="42.1702564135" lon="13.4537876677"><ele>1910.76</ele><time>2013-04-06T11:59:07Z</time></trkpt><trkpt lat="42.1702552401" lon="13.4537836444"><ele>1910.76</ele><time>2013-04-06T11:59:50Z</time></trkpt><trkpt lat="42.1702259872" lon="13.4537025075"><ele>1912.20</ele><time>2013-04-06T12:00:13Z</time></trkpt><trkpt lat="42.1701917890" lon="13.4535936266"><ele>1914.60</ele><time>2013-04-06T12:00:30Z</time></trkpt><trkpt lat="42.1702435892" lon="13.4535852447"><ele>1916.04</ele><time>2013-04-06T12:00:46Z</time></trkpt><trkpt lat="42.1702011768" lon="13.4534694906"><ele>1917.97</ele><time>2013-04-06T12:01:04Z</time></trkpt><trkpt lat="42.1701891068" lon="13.4534199536"><ele>1919.41</ele><time>2013-04-06T12:01:26Z</time></trkpt><trkpt lat="42.1701706666" lon="13.4533746075"><ele>1920.85</ele><time>2013-04-06T12:02:01Z</time></trkpt><trkpt lat="42.1701974049" lon="13.4533031099"><ele>1923.74</ele><time>2013-04-06T12:02:17Z</time></trkpt><trkpt lat="42.1702769492" lon="13.4532648046"><ele>1926.14</ele><time>2013-04-06T12:02:35Z</time></trkpt><trkpt lat="42.1703539789" lon="13.4532363061"><ele>1928.54</ele><time>2013-04-06T12:02:52Z</time></trkpt><trkpt lat="42.1704243869" lon="13.4532290976"><ele>1929.98</ele><time>2013-04-06T12:03:08Z</time></trkpt><trkpt lat="42.1704168431" lon="13.4531254135"><ele>1931.91</ele><time>2013-04-06T12:03:29Z</time></trkpt><trkpt lat="42.1704004984" lon="13.4530684166"><ele>1933.35</ele><time>2013-04-06T12:03:46Z</time></trkpt><trkpt lat="42.1703901049" lon="13.4530100785"><ele>1934.79</ele><time>2013-04-06T12:03:57Z</time></trkpt><trkpt lat="42.1703894343" lon="13.4528844338"><ele>1937.19</ele><time>2013-04-06T12:04:16Z</time></trkpt><trkpt lat="42.1703857463" lon="13.4528756328"><ele>1937.67</ele><time>2013-04-06T12:04:17Z</time></trkpt><trkpt lat="42.1703551523" lon="13.4527925681"><ele>1938.64</ele><time>2013-04-06T12:04:42Z</time></trkpt><trkpt lat="42.1703094710" lon="13.4526780713"><ele>1940.56</ele><time>2013-04-06T12:05:01Z</time></trkpt><trkpt lat="42.1702565812" lon="13.4525546059"><ele>1942.96</ele><time>2013-04-06T12:05:15Z</time></trkpt><trkpt lat="42.1702326089" lon="13.4525062423"><ele>1942.96</ele><time>2013-04-06T12:05:39Z</time></trkpt><trkpt lat="42.1702323575" lon="13.4524880536"><ele>1943.44</ele><time>2013-04-06T12:06:16Z</time></trkpt><trkpt lat="42.1701811440" lon="13.4523338266"><ele>1944.40</ele><time>2013-04-06T12:06:36Z</time></trkpt><trkpt lat="42.1701111551" lon="13.4521894064"><ele>1945.36</ele><time>2013-04-06T12:06:53Z</time></trkpt><trkpt lat="42.1700734366" lon="13.4520507697"><ele>1946.81</ele><time>2013-04-06T12:07:11Z</time></trkpt><trkpt lat="42.1700107399" lon="13.4519329201"><ele>1948.25</ele><time>2013-04-06T12:07:29Z</time></trkpt><trkpt lat="42.1699458640" lon="13.4518149029"><ele>1948.73</ele><time>2013-04-06T12:07:45Z</time></trkpt><trkpt lat="42.1698651463" lon="13.4516786132"><ele>1949.69</ele><time>2013-04-06T12:08:03Z</time></trkpt><trkpt lat="42.1698147710" lon="13.4515461791"><ele>1951.13</ele><time>2013-04-06T12:08:18Z</time></trkpt><trkpt lat="42.1697472129" lon="13.4514624439"><ele>1953.54</ele><time>2013-04-06T12:08:33Z</time></trkpt><trkpt lat="42.1696887910" lon="13.4514385555"><ele>1956.90</ele><time>2013-04-06T12:08:51Z</time></trkpt><trkpt lat="42.1695948299" lon="13.4513984062"><ele>1958.82</ele><time>2013-04-06T12:09:11Z</time></trkpt><trkpt lat="42.1694952529" lon="13.4513238072"><ele>1960.27</ele><time>2013-04-06T12:09:32Z</time></trkpt><trkpt lat="42.1693623159" lon="13.4512703307"><ele>1960.75</ele><time>2013-04-06T12:09:52Z</time></trkpt><trkpt lat="42.1692417003" lon="13.4512381442"><ele>1962.19</ele><time>2013-04-06T12:10:09Z</time></trkpt><trkpt lat="42.1692333184" lon="13.4512357134"><ele>1962.19</ele><time>2013-04-06T12:10:10Z</time></trkpt><trkpt lat="42.1690787561" lon="13.4511753637"><ele>1962.19</ele><time>2013-04-06T12:10:30Z</time></trkpt><trkpt lat="42.1689867228" lon="13.4511348791"><ele>1962.67</ele><time>2013-04-06T12:10:41Z</time></trkpt><trkpt lat="42.1688373573" lon="13.4511083085"><ele>1962.67</ele><time>2013-04-06T12:10:58Z</time></trkpt><trkpt lat="42.1688000578" lon="13.4510870185"><ele>1962.67</ele><time>2013-04-06T12:11:03Z</time></trkpt><trkpt lat="42.1687361039" lon="13.4510645550"><ele>1962.19</ele><time>2013-04-06T12:11:10Z</time></trkpt><trkpt lat="42.1686928533" lon="13.4510566760"><ele>1962.19</ele><time>2013-04-06T12:11:16Z</time></trkpt><trkpt lat="42.1685915999" lon="13.4510386549"><ele>1962.19</ele><time>2013-04-06T12:11:28Z</time></trkpt><trkpt lat="42.1685449965" lon="13.4510324523"><ele>1962.19</ele><time>2013-04-06T12:11:34Z</time></trkpt><trkpt lat="42.1684908494" lon="13.4510125034"><ele>1962.67</ele><time>2013-04-06T12:11:41Z</time></trkpt><trkpt lat="42.1684161667" lon="13.4509772155"><ele>1963.63</ele><time>2013-04-06T12:12:01Z</time></trkpt><trkpt lat="42.1684108023" lon="13.4509664867"><ele>1963.15</ele><time>2013-04-06T12:12:45Z</time></trkpt><trkpt lat="42.1683826391" lon="13.4509638045"><ele>1963.63</ele><time>2013-04-06T12:13:07Z</time></trkpt><trkpt lat="42.1682376321" lon="13.4509835020"><ele>1965.55</ele><time>2013-04-06T12:13:26Z</time></trkpt><trkpt lat="42.1682213712" lon="13.4509614576"><ele>1965.55</ele><time>2013-04-06T12:13:40Z</time></trkpt><trkpt lat="42.1682313457" lon="13.4509515669"><ele>1964.11</ele><time>2013-04-06T12:13:58Z</time></trkpt><trkpt lat="42.1682507079" lon="13.4509464540"><ele>1964.11</ele><time>2013-04-06T12:14:49Z</time></trkpt><trkpt lat="42.1682459302" lon="13.4509515669"><ele>1964.11</ele><time>2013-04-06T12:15:00Z</time></trkpt><trkpt lat="42.1682310104" lon="13.4509634692"><ele>1965.55</ele><time>2013-04-06T12:15:03Z</time></trkpt><trkpt lat="42.1682415716" lon="13.4509579372"><ele>1965.55</ele><time>2013-04-06T12:15:27Z</time></trkpt><trkpt lat="42.1681737620" lon="13.4509558417"><ele>1966.51</ele><time>2013-04-06T12:15:43Z</time></trkpt><trkpt lat="42.1680528112" lon="13.4509414248"><ele>1968.92</ele><time>2013-04-06T12:16:01Z</time></trkpt><trkpt lat="42.1679159347" lon="13.4509082325"><ele>1971.80</ele><time>2013-04-06T12:16:21Z</time></trkpt><trkpt lat="42.1678234823" lon="13.4509052988"><ele>1974.69</ele><time>2013-04-06T12:16:37Z</time></trkpt><trkpt lat="42.1677410882" lon="13.4508814104"><ele>1976.61</ele><time>2013-04-06T12:16:57Z</time></trkpt><trkpt lat="42.1676440258" lon="13.4508555103"><ele>1979.97</ele><time>2013-04-06T12:17:19Z</time></trkpt><trkpt lat="42.1675921418" lon="13.4508661553"><ele>1981.41</ele><time>2013-04-06T12:17:37Z</time></trkpt><trkpt lat="42.1675601229" lon="13.4508849308"><ele>1982.38</ele><time>2013-04-06T12:17:56Z</time></trkpt><trkpt lat="42.1675507352" lon="13.4508807398"><ele>1980.93</ele><time>2013-04-06T12:18:18Z</time></trkpt><trkpt lat="42.1675324626" lon="13.4508688375"><ele>1980.93</ele><time>2013-04-06T12:19:06Z</time></trkpt><trkpt lat="42.1675399225" lon="13.4508683346"><ele>1983.82</ele><time>2013-04-06T12:19:22Z</time></trkpt><trkpt lat="42.1675426047" lon="13.4508701786"><ele>1982.38</ele><time>2013-04-06T12:19:48Z</time></trkpt><trkpt lat="42.1675443649" lon="13.4508837573"><ele>1982.86</ele><time>2013-04-06T12:20:12Z</time></trkpt><trkpt lat="42.1675484721" lon="13.4508907143"><ele>1982.86</ele><time>2013-04-06T12:20:35Z</time></trkpt><trkpt lat="42.1675362345" lon="13.4509011917"><ele>1984.30</ele><time>2013-04-06T12:20:58Z</time></trkpt><trkpt lat="42.1674955823" lon="13.4509162791"><ele>1985.26</ele><time>2013-04-06T12:21:17Z</time></trkpt><trkpt lat="42.1674462967" lon="13.4509352222"><ele>1987.18</ele><time>2013-04-06T12:21:34Z</time></trkpt><trkpt lat="42.1674198937" lon="13.4509913810"><ele>1991.03</ele><time>2013-04-06T12:21:55Z</time></trkpt><trkpt lat="42.1673688479" lon="13.4509928059"><ele>1991.51</ele><time>2013-04-06T12:22:12Z</time></trkpt><trkpt lat="42.1673269384" lon="13.4509562608"><ele>1993.43</ele><time>2013-04-06T12:22:28Z</time></trkpt><trkpt lat="42.1673129406" lon="13.4510229807"><ele>1994.87</ele><time>2013-04-06T12:22:56Z</time></trkpt><trkpt lat="42.1672877949" lon="13.4510845039"><ele>1997.28</ele><time>2013-04-06T12:23:17Z</time></trkpt><trkpt lat="42.1672912315" lon="13.4510771278"><ele>1996.80</ele><time>2013-04-06T12:23:39Z</time></trkpt><trkpt lat="42.1672542673" lon="13.4510392416"><ele>1998.24</ele><time>2013-04-06T12:24:03Z</time></trkpt><trkpt lat="42.1672203206" lon="13.4510094021"><ele>1999.20</ele><time>2013-04-06T12:24:09Z</time></trkpt><trkpt lat="42.1671434585" lon="13.4509379882"><ele>2001.12</ele><time>2013-04-06T12:24:29Z</time></trkpt><trkpt lat="42.1670784149" lon="13.4508949891"><ele>2003.52</ele><time>2013-04-06T12:24:48Z</time></trkpt><trkpt lat="42.1670693625" lon="13.4508877806"><ele>2004.49</ele><time>2013-04-06T12:25:14Z</time></trkpt><trkpt lat="42.1670514252" lon="13.4508682508"><ele>2004.97</ele><time>2013-04-06T12:25:58Z</time></trkpt><trkpt lat="42.1669848729" lon="13.4507971723"><ele>2007.37</ele><time>2013-04-06T12:26:20Z</time></trkpt><trkpt lat="42.1668961924" lon="13.4507252555"><ele>2009.77</ele><time>2013-04-06T12:26:41Z</time></trkpt><trkpt lat="42.1668566298" lon="13.4506565239"><ele>2011.70</ele><time>2013-04-06T12:27:01Z</time></trkpt><trkpt lat="42.1668733098" lon="13.4506709408"><ele>2012.66</ele><time>2013-04-06T12:27:26Z</time></trkpt><trkpt lat="42.1668696217" lon="13.4507865272"><ele>2014.58</ele><time>2013-04-06T12:27:49Z</time></trkpt><trkpt lat="42.1668664366" lon="13.4508370701"><ele>2015.54</ele><time>2013-04-06T12:27:55Z</time></trkpt><trkpt lat="42.1668665204" lon="13.4509132616"><ele>2018.43</ele><time>2013-04-06T12:28:21Z</time></trkpt><trkpt lat="42.1668498404" lon="13.4508978389"><ele>2017.94</ele><time>2013-04-06T12:28:47Z</time></trkpt><trkpt lat="42.1667571366" lon="13.4507746249"><ele>2020.83</ele><time>2013-04-06T12:29:08Z</time></trkpt><trkpt lat="42.1667202562" lon="13.4507536702"><ele>2021.79</ele><time>2013-04-06T12:29:39Z</time></trkpt><trkpt lat="42.1666849684" lon="13.4507083241"><ele>2024.67</ele><time>2013-04-06T12:30:03Z</time></trkpt><trkpt lat="42.1666562185" lon="13.4507011995"><ele>2025.64</ele><time>2013-04-06T12:30:26Z</time></trkpt><trkpt lat="42.1666333359" lon="13.4508683346"><ele>2029.00</ele><time>2013-04-06T12:30:45Z</time></trkpt><trkpt lat="42.1666181646" lon="13.4509448614"><ele>2030.92</ele><time>2013-04-06T12:31:06Z</time></trkpt><trkpt lat="42.1666007303" lon="13.4510743618"><ele>2033.81</ele><time>2013-04-06T12:31:24Z</time></trkpt><trkpt lat="42.1665601619" lon="13.4511823207"><ele>2036.69</ele><time>2013-04-06T12:31:42Z</time></trkpt><trkpt lat="42.1665269695" lon="13.4511999227"><ele>2037.17</ele><time>2013-04-06T12:32:06Z</time></trkpt><trkpt lat="42.1665311605" lon="13.4512027726"><ele>2038.13</ele><time>2013-04-06T12:32:45Z</time></trkpt><trkpt lat="42.1664658654" lon="13.4512175247"><ele>2039.09</ele><time>2013-04-06T12:32:56Z</time></trkpt><trkpt lat="42.1663473453" lon="13.4511983301"><ele>2041.02</ele><time>2013-04-06T12:33:14Z</time></trkpt><trkpt lat="42.1663003229" lon="13.4511809796"><ele>2042.46</ele><time>2013-04-06T12:33:42Z</time></trkpt><trkpt lat="42.1662588324" lon="13.4511446021"><ele>2045.34</ele><time>2013-04-06T12:34:00Z</time></trkpt><trkpt lat="42.1662032604" lon="13.4510839172"><ele>2048.23</ele><time>2013-04-06T12:34:17Z</time></trkpt><trkpt lat="42.1661117300" lon="13.4509831667"><ele>2050.63</ele><time>2013-04-06T12:34:39Z</time></trkpt><trkpt lat="42.1660549007" lon="13.4509337135"><ele>2052.55</ele><time>2013-04-06T12:35:01Z</time></trkpt><trkpt lat="42.1659933776" lon="13.4508524928"><ele>2054.96</ele><time>2013-04-06T12:35:17Z</time></trkpt><trkpt lat="42.1659354586" lon="13.4507775586"><ele>2057.36</ele><time>2013-04-06T12:35:33Z</time></trkpt><trkpt lat="42.1658851672" lon="13.4507138561"><ele>2059.28</ele><time>2013-04-06T12:35:49Z</time></trkpt><trkpt lat="42.1658079699" lon="13.4506527521"><ele>2061.20</ele><time>2013-04-06T12:36:11Z</time></trkpt><trkpt lat="42.1657524817" lon="13.4505898878"><ele>2064.09</ele><time>2013-04-06T12:36:32Z</time></trkpt><trkpt lat="42.1657005977" lon="13.4505330585"><ele>2066.49</ele><time>2013-04-06T12:36:49Z</time></trkpt><trkpt lat="42.1656838339" lon="13.4505067393"><ele>2067.45</ele><time>2013-04-06T12:37:11Z</time></trkpt><trkpt lat="42.1656327043" lon="13.4504146222"><ele>2070.34</ele><time>2013-04-06T12:37:28Z</time></trkpt><trkpt lat="42.1656194609" lon="13.4503731318"><ele>2072.74</ele><time>2013-04-06T12:37:45Z</time></trkpt><trkpt lat="42.1655996796" lon="13.4503064957"><ele>2075.14</ele><time>2013-04-06T12:38:05Z</time></trkpt><trkpt lat="42.1655659843" lon="13.4501914121"><ele>2078.03</ele><time>2013-04-06T12:38:23Z</time></trkpt><trkpt lat="42.1655028686" lon="13.4501381870"><ele>2079.95</ele><time>2013-04-06T12:38:41Z</time></trkpt><trkpt lat="42.1654451173" lon="13.4500908293"><ele>2081.87</ele><time>2013-04-06T12:39:02Z</time></trkpt><trkpt lat="42.1654098295" lon="13.4500352573"><ele>2082.83</ele><time>2013-04-06T12:39:22Z</time></trkpt><trkpt lat="42.1653973404" lon="13.4500169009"><ele>2082.83</ele><time>2013-04-06T12:39:49Z</time></trkpt><trkpt lat="42.1653858572" lon="13.4499816969"><ele>2083.31</ele><time>2013-04-06T12:39:53Z</time></trkpt><trkpt lat="42.1653248370" lon="13.4498366900"><ele>2085.72</ele><time>2013-04-06T12:40:10Z</time></trkpt><trkpt lat="42.1652835980" lon="13.4497349337"><ele>2088.60</ele><time>2013-04-06T12:40:33Z</time></trkpt><trkpt lat="42.1652279422" lon="13.4495803714"><ele>2091.00</ele><time>2013-04-06T12:40:53Z</time></trkpt><trkpt lat="42.1652103402" lon="13.4495202731"><ele>2091.97</ele><time>2013-04-06T12:41:15Z</time></trkpt><trkpt lat="42.1652063169" lon="13.4495157469"><ele>2092.93</ele><time>2013-04-06T12:41:21Z</time></trkpt><trkpt lat="42.1651805006" lon="13.4494439978"><ele>2094.85</ele><time>2013-04-06T12:41:40Z</time></trkpt><trkpt lat="42.1651413571" lon="13.4493776970"><ele>2097.73</ele><time>2013-04-06T12:41:59Z</time></trkpt><trkpt lat="42.1650916524" lon="13.4493157547"><ele>2100.62</ele><time>2013-04-06T12:42:22Z</time></trkpt><trkpt lat="42.1649624035" lon="13.4492484480"><ele>2103.50</ele><time>2013-04-06T12:42:44Z</time></trkpt><trkpt lat="42.1648704540" lon="13.4492502082"><ele>2106.39</ele><time>2013-04-06T12:43:05Z</time></trkpt><trkpt lat="42.1647620760" lon="13.4492461011"><ele>2108.31</ele><time>2013-04-06T12:43:27Z</time></trkpt><trkpt lat="42.1647574659" lon="13.4492356237"><ele>2108.79</ele><time>2013-04-06T12:43:47Z</time></trkpt><trkpt lat="42.1647550352" lon="13.4492362104"><ele>2108.31</ele><time>2013-04-06T12:44:11Z</time></trkpt><trkpt lat="42.1647506766" lon="13.4492384735"><ele>2108.79</ele><time>2013-04-06T12:44:33Z</time></trkpt><trkpt lat="42.1647280455" lon="13.4492523875"><ele>2109.75</ele><time>2013-04-06T12:44:57Z</time></trkpt><trkpt lat="42.1646795142" lon="13.4492120706"><ele>2110.23</ele><time>2013-04-06T12:45:14Z</time></trkpt><trkpt lat="42.1646733955" lon="13.4492057003"><ele>2110.71</ele><time>2013-04-06T12:45:57Z</time></trkpt><trkpt lat="42.1646646783" lon="13.4491274972"><ele>2112.63</ele><time>2013-04-06T12:46:17Z</time></trkpt><trkpt lat="42.1646605711" lon="13.4489886928"><ele>2115.04</ele><time>2013-04-06T12:46:44Z</time></trkpt><trkpt lat="42.1646512672" lon="13.4489591047"><ele>2116.48</ele><time>2013-04-06T12:47:00Z</time></trkpt><trkpt lat="42.1647006366" lon="13.4489404969"><ele>2118.88</ele><time>2013-04-06T12:47:17Z</time></trkpt><trkpt lat="42.1647614893" lon="13.4489022754"><ele>2120.32</ele><time>2013-04-06T12:47:39Z</time></trkpt><trkpt lat="42.1647789236" lon="13.4488965757"><ele>2120.81</ele><time>2013-04-06T12:48:10Z</time></trkpt><trkpt lat="42.1648143791" lon="13.4488844220"><ele>2119.84</ele><time>2013-04-06T12:48:15Z</time></trkpt><trkpt lat="42.1648588870" lon="13.4488754533"><ele>2119.36</ele><time>2013-04-06T12:48:20Z</time></trkpt><trkpt lat="42.1649717074" lon="13.4487925563"><ele>2117.92</ele><time>2013-04-06T12:48:40Z</time></trkpt><trkpt lat="42.1650195681" lon="13.4487409238"><ele>2116.96</ele><time>2013-04-06T12:48:52Z</time></trkpt><trkpt lat="42.1651722025" lon="13.4485855233"><ele>2113.60</ele><time>2013-04-06T12:49:08Z</time></trkpt><trkpt lat="42.1653241664" lon="13.4483960085"><ele>2111.67</ele><time>2013-04-06T12:49:25Z</time></trkpt><trkpt lat="42.1653663274" lon="13.4483335633"><ele>2110.71</ele><time>2013-04-06T12:49:30Z</time></trkpt><trkpt lat="42.1653897129" lon="13.4482893068"><ele>2111.19</ele><time>2013-04-06T12:49:34Z</time></trkpt><trkpt lat="42.1654506493" lon="13.4481930826"><ele>2109.75</ele><time>2013-04-06T12:49:50Z</time></trkpt><trkpt lat="42.1654654015" lon="13.4481743909"><ele>2110.23</ele><time>2013-04-06T12:49:52Z</time></trkpt><trkpt lat="42.1654914692" lon="13.4481380135"><ele>2109.75</ele><time>2013-04-06T12:49:55Z</time></trkpt><trkpt lat="42.1655319538" lon="13.4480949305"><ele>2109.75</ele><time>2013-04-06T12:50:00Z</time></trkpt><trkpt lat="42.1655588597" lon="13.4480614029"><ele>2110.23</ele><time>2013-04-06T12:50:05Z</time></trkpt><trkpt lat="42.1656165272" lon="13.4479800984"><ele>2110.71</ele><time>2013-04-06T12:50:20Z</time></trkpt><trkpt lat="42.1656100731" lon="13.4479606524"><ele>2111.19</ele><time>2013-04-06T12:51:02Z</time></trkpt><trkpt lat="42.1656077262" lon="13.4479549527"><ele>2111.19</ele><time>2013-04-06T12:51:11Z</time></trkpt><trkpt lat="42.1656998433" lon="13.4478200879"><ele>2112.63</ele><time>2013-04-06T12:51:27Z</time></trkpt><trkpt lat="42.1657476202" lon="13.4477236122"><ele>2114.08</ele><time>2013-04-06T12:51:37Z</time></trkpt><trkpt lat="42.1658131666" lon="13.4476228617"><ele>2115.52</ele><time>2013-04-06T12:51:54Z</time></trkpt><trkpt lat="42.1659301780" lon="13.4474654496"><ele>2116.96</ele><time>2013-04-06T12:52:15Z</time></trkpt><trkpt lat="42.1660290007" lon="13.4473630227"><ele>2118.40</ele><time>2013-04-06T12:52:33Z</time></trkpt><trkpt lat="42.1660619415" lon="13.4473024216"><ele>2119.36</ele><time>2013-04-06T12:52:41Z</time></trkpt><trkpt lat="42.1661580820" lon="13.4471759386"><ele>2120.81</ele><time>2013-04-06T12:52:59Z</time></trkpt><trkpt lat="42.1662569884" lon="13.4470311832"><ele>2121.77</ele><time>2013-04-06T12:53:19Z</time></trkpt><trkpt lat="42.1662772726" lon="13.4469950572"><ele>2121.77</ele><time>2013-04-06T12:53:27Z</time></trkpt><trkpt lat="42.1663332637" lon="13.4469304327"><ele>2122.73</ele><time>2013-04-06T12:53:37Z</time></trkpt><trkpt lat="42.1664442401" lon="13.4467958193"><ele>2124.17</ele><time>2013-04-06T12:53:57Z</time></trkpt><trkpt lat="42.1664978005" lon="13.4467373136"><ele>2125.13</ele><time>2013-04-06T12:54:07Z</time></trkpt><trkpt lat="42.1665748302" lon="13.4466338810"><ele>2126.09</ele><time>2013-04-06T12:54:24Z</time></trkpt><trkpt lat="42.1666389517" lon="13.4465250000"><ele>2126.57</ele><time>2013-04-06T12:54:39Z</time></trkpt><trkpt lat="42.1666509379" lon="13.4465073980"><ele>2127.05</ele><time>2013-04-06T12:54:41Z</time></trkpt><trkpt lat="42.1667464916" lon="13.4463842679"><ele>2127.53</ele><time>2013-04-06T12:54:59Z</time></trkpt><trkpt lat="42.1668107808" lon="13.4462778177"><ele>2128.98</ele><time>2013-04-06T12:55:16Z</time></trkpt><trkpt lat="42.1668964438" lon="13.4461793303"><ele>2130.42</ele><time>2013-04-06T12:55:33Z</time></trkpt><trkpt lat="42.1669970267" lon="13.4460465610"><ele>2133.30</ele><time>2013-04-06T12:55:55Z</time></trkpt><trkpt lat="42.1670752298" lon="13.4459407814"><ele>2136.19</ele><time>2013-04-06T12:56:19Z</time></trkpt><trkpt lat="42.1671427041" lon="13.4458424617"><ele>2137.15</ele><time>2013-04-06T12:56:41Z</time></trkpt><trkpt lat="42.1671583783" lon="13.4458087664"><ele>2138.59</ele><time>2013-04-06T12:57:18Z</time></trkpt><trkpt lat="42.1672663372" lon="13.4456748236"><ele>2141.95</ele><time>2013-04-06T12:57:38Z</time></trkpt><trkpt lat="42.1672801673" lon="13.4456474986"><ele>2141.47</ele><time>2013-04-06T12:57:55Z</time></trkpt><trkpt lat="42.1673038043" lon="13.4456198383"><ele>2141.95</ele><time>2013-04-06T12:58:37Z</time></trkpt><trkpt lat="42.1673876233" lon="13.4455350973"><ele>2143.40</ele><time>2013-04-06T12:58:54Z</time></trkpt><trkpt lat="42.1673952509" lon="13.4455338400"><ele>2143.40</ele><time>2013-04-06T12:58:55Z</time></trkpt><trkpt lat="42.1674587019" lon="13.4455172438"><ele>2144.36</ele><time>2013-04-06T12:59:05Z</time></trkpt><trkpt lat="42.1675298642" lon="13.4454033338"><ele>2145.32</ele><time>2013-04-06T12:59:21Z</time></trkpt><trkpt lat="42.1675638948" lon="13.4453396313"><ele>2145.80</ele><time>2013-04-06T12:59:29Z</time></trkpt><trkpt lat="42.1676091570" lon="13.4452299960"><ele>2147.72</ele><time>2013-04-06T12:59:46Z</time></trkpt><trkpt lat="42.1677073929" lon="13.4450679738"><ele>2150.61</ele><time>2013-04-06T13:00:11Z</time></trkpt><trkpt lat="42.1677659824" lon="13.4449470229"><ele>2152.05</ele><time>2013-04-06T13:00:27Z</time></trkpt><trkpt lat="42.1678543277" lon="13.4448239766"><ele>2154.93</ele><time>2013-04-06T13:00:49Z</time></trkpt><trkpt lat="42.1678995062" lon="13.4447306022"><ele>2155.41</ele><time>2013-04-06T13:01:10Z</time></trkpt><trkpt lat="42.1679548267" lon="13.4446239006"><ele>2157.34</ele><time>2013-04-06T13:01:29Z</time></trkpt><trkpt lat="42.1680517215" lon="13.4445004351"><ele>2158.78</ele><time>2013-04-06T13:01:48Z</time></trkpt><trkpt lat="42.1681131609" lon="13.4444256686"><ele>2160.22</ele><time>2013-04-06T13:02:04Z</time></trkpt><trkpt lat="42.1681271587" lon="13.4444229025"><ele>2159.74</ele><time>2013-04-06T13:02:29Z</time></trkpt><trkpt lat="42.1681375522" lon="13.4444091562"><ele>2159.26</ele><time>2013-04-06T13:03:04Z</time></trkpt><trkpt lat="42.1681439225" lon="13.4444055520"><ele>2160.22</ele><time>2013-04-06T13:03:38Z</time></trkpt><trkpt lat="42.1681467723" lon="13.4444144368"><ele>2160.22</ele><time>2013-04-06T13:03:54Z</time></trkpt><trkpt lat="42.1681541484" lon="13.4444385767"><ele>2160.22</ele><time>2013-04-06T13:04:19Z</time></trkpt><trkpt lat="42.1681530587" lon="13.4444435220"><ele>2160.70</ele><time>2013-04-06T13:04:30Z</time></trkpt><trkpt lat="42.1680954751" lon="13.4444511496"><ele>2158.78</ele><time>2013-04-06T13:04:50Z</time></trkpt><trkpt lat="42.1681089699" lon="13.4444255009"><ele>2159.74</ele><time>2013-04-06T13:05:17Z</time></trkpt><trkpt lat="42.1681465209" lon="13.4444008581"><ele>2158.78</ele><time>2013-04-06T13:05:36Z</time></trkpt><trkpt lat="42.1681462694" lon="13.4444042109"><ele>2159.26</ele><time>2013-04-06T13:05:38Z</time></trkpt><trkpt lat="42.1681405697" lon="13.4444094915"><ele>2158.78</ele><time>2013-04-06T13:06:05Z</time></trkpt><trkpt lat="42.1681428328" lon="13.4444106650"><ele>2158.78</ele><time>2013-04-06T13:06:50Z</time></trkpt><trkpt lat="42.1681439225" lon="13.4444141854"><ele>2158.30</ele><time>2013-04-06T13:07:50Z</time></trkpt><trkpt lat="42.1681430005" lon="13.4444167838"><ele>2158.30</ele><time>2013-04-06T13:08:13Z</time></trkpt><trkpt lat="42.1681319363" lon="13.4444230702"><ele>2158.78</ele><time>2013-04-06T13:08:27Z</time></trkpt><trkpt lat="42.1681334451" lon="13.4444141015"><ele>2159.26</ele><time>2013-04-06T13:08:57Z</time></trkpt><trkpt lat="42.1681348700" lon="13.4444094915"><ele>2158.78</ele><time>2013-04-06T13:09:27Z</time></trkpt><trkpt lat="42.1681350376" lon="13.4444099106"><ele>2160.70</ele><time>2013-04-06T13:09:32Z</time></trkpt><trkpt lat="42.1681476105" lon="13.4443996847"><ele>2159.26</ele><time>2013-04-06T13:10:07Z</time></trkpt><trkpt lat="42.1681417432" lon="13.4443439450"><ele>2158.30</ele><time>2013-04-06T13:10:34Z</time></trkpt><trkpt lat="42.1681373846" lon="13.4443316236"><ele>2158.30</ele><time>2013-04-06T13:11:02Z</time></trkpt><trkpt lat="42.1681284998" lon="13.4442954138"><ele>2157.82</ele><time>2013-04-06T13:11:05Z</time></trkpt><trkpt lat="42.1681002527" lon="13.4441866167"><ele>2156.86</ele><time>2013-04-06T13:11:13Z</time></trkpt><trkpt lat="42.1680754423" lon="13.4439244308"><ele>2153.97</ele><time>2013-04-06T13:11:32Z</time></trkpt><trkpt lat="42.1680772025" lon="13.4439259395"><ele>2154.45</ele><time>2013-04-06T13:11:39Z</time></trkpt><trkpt lat="42.1680798009" lon="13.4437945113"><ele>2153.49</ele><time>2013-04-06T13:11:48Z</time></trkpt><trkpt lat="42.1680755261" lon="13.4437615704"><ele>2153.49</ele><time>2013-04-06T13:11:50Z</time></trkpt><trkpt lat="42.1680797171" lon="13.4435936809"><ele>2152.05</ele><time>2013-04-06T13:12:02Z</time></trkpt><trkpt lat="42.1680803876" lon="13.4434476681"><ele>2151.09</ele><time>2013-04-06T13:12:13Z</time></trkpt><trkpt lat="42.1680772025" lon="13.4431589115"><ele>2149.16</ele><time>2013-04-06T13:12:33Z</time></trkpt><trkpt lat="42.1680587623" lon="13.4429217037"><ele>2145.80</ele><time>2013-04-06T13:12:49Z</time></trkpt><trkpt lat="42.1680274978" lon="13.4427025169"><ele>2143.40</ele><time>2013-04-06T13:13:07Z</time></trkpt><trkpt lat="42.1680066269" lon="13.4426238947"><ele>2142.92</ele><time>2013-04-06T13:13:27Z</time></trkpt><trkpt lat="42.1679648012" lon="13.4423402511"><ele>2140.03</ele><time>2013-04-06T13:13:46Z</time></trkpt><trkpt lat="42.1679381467" lon="13.4421476349"><ele>2138.59</ele><time>2013-04-06T13:14:05Z</time></trkpt><trkpt lat="42.1679372247" lon="13.4420959186"><ele>2138.59</ele><time>2013-04-06T13:14:20Z</time></trkpt><trkpt lat="42.1679333691" lon="13.4420641512"><ele>2137.15</ele><time>2013-04-06T13:14:23Z</time></trkpt><trkpt lat="42.1679263283" lon="13.4420245886"><ele>2136.67</ele><time>2013-04-06T13:14:27Z</time></trkpt><trkpt lat="42.1678796411" lon="13.4418644104"><ele>2133.30</ele><time>2013-04-06T13:14:38Z</time></trkpt><trkpt lat="42.1678432636" lon="13.4415953513"><ele>2130.42</ele><time>2013-04-06T13:14:57Z</time></trkpt><trkpt lat="42.1678068023" lon="13.4413805231"><ele>2128.02</ele><time>2013-04-06T13:15:16Z</time></trkpt><trkpt lat="42.1678014379" lon="13.4411861468"><ele>2126.09</ele><time>2013-04-06T13:15:35Z</time></trkpt><trkpt lat="42.1677933913" lon="13.4411059320"><ele>2125.13</ele><time>2013-04-06T13:15:40Z</time></trkpt><trkpt lat="42.1677700058" lon="13.4408013336"><ele>2121.29</ele><time>2013-04-06T13:15:59Z</time></trkpt><trkpt lat="42.1677416749" lon="13.4406839870"><ele>2119.84</ele><time>2013-04-06T13:16:17Z</time></trkpt><trkpt lat="42.1677296888" lon="13.4406471066"><ele>2119.36</ele><time>2013-04-06T13:16:21Z</time></trkpt><trkpt lat="42.1677037887" lon="13.4405950550"><ele>2118.40</ele><time>2013-04-06T13:16:26Z</time></trkpt><trkpt lat="42.1676427685" lon="13.4403559193"><ele>2118.40</ele><time>2013-04-06T13:16:45Z</time></trkpt><trkpt lat="42.1675865259" lon="13.4402068052"><ele>2118.88</ele><time>2013-04-06T13:17:01Z</time></trkpt><trkpt lat="42.1675570216" lon="13.4400025383"><ele>2119.84</ele><time>2013-04-06T13:17:18Z</time></trkpt><trkpt lat="42.1675589494" lon="13.4399778955"><ele>2119.84</ele><time>2013-04-06T13:17:31Z</time></trkpt><trkpt lat="42.1675565187" lon="13.4399029613"><ele>2119.84</ele><time>2013-04-06T13:17:37Z</time></trkpt><trkpt lat="42.1675545070" lon="13.4398728702"><ele>2119.36</ele><time>2013-04-06T13:17:39Z</time></trkpt><trkpt lat="42.1675572731" lon="13.4397893865"><ele>2120.81</ele><time>2013-04-06T13:17:45Z</time></trkpt><trkpt lat="42.1675653197" lon="13.4397051483"><ele>2119.84</ele><time>2013-04-06T13:17:53Z</time></trkpt><trkpt lat="42.1675264277" lon="13.4395987820"><ele>2120.81</ele><time>2013-04-06T13:18:14Z</time></trkpt><trkpt lat="42.1675317083" lon="13.4395245183"><ele>2121.29</ele><time>2013-04-06T13:18:31Z</time></trkpt><trkpt lat="42.1675219852" lon="13.4392421320"><ele>2120.81</ele><time>2013-04-06T13:18:52Z</time></trkpt><trkpt lat="42.1675051376" lon="13.4391019866"><ele>2123.69</ele><time>2013-04-06T13:19:13Z</time></trkpt><trkpt lat="42.1674820036" lon="13.4388815425"><ele>2125.13</ele><time>2013-04-06T13:19:33Z</time></trkpt><trkpt lat="42.1675010305" lon="13.4387217835"><ele>2126.09</ele><time>2013-04-06T13:19:52Z</time></trkpt><trkpt lat="42.1675192192" lon="13.4385772794"><ele>2126.57</ele><time>2013-04-06T13:20:10Z</time></trkpt><trkpt lat="42.1675661579" lon="13.4383673128"><ele>2124.17</ele><time>2013-04-06T13:20:28Z</time></trkpt><trkpt lat="42.1676363982" lon="13.4381426778"><ele>2122.25</ele><time>2013-04-06T13:20:46Z</time></trkpt><trkpt lat="42.1676560119" lon="13.4379764646"><ele>2122.25</ele><time>2013-04-06T13:21:00Z</time></trkpt><trkpt lat="42.1676914673" lon="13.4378402587"><ele>2123.21</ele><time>2013-04-06T13:21:17Z</time></trkpt><trkpt lat="42.1677146014" lon="13.4377189726"><ele>2123.21</ele><time>2013-04-06T13:21:34Z</time></trkpt><trkpt lat="42.1677428484" lon="13.4376079962"><ele>2123.21</ele><time>2013-04-06T13:21:49Z</time></trkpt><trkpt lat="42.1677506436" lon="13.4375758935"><ele>2122.73</ele><time>2013-04-06T13:21:52Z</time></trkpt><trkpt lat="42.1677654795" lon="13.4373696148"><ele>2122.73</ele><time>2013-04-06T13:22:08Z</time></trkpt><trkpt lat="42.1677793935" lon="13.4373368416"><ele>2123.21</ele><time>2013-04-06T13:22:12Z</time></trkpt><trkpt lat="42.1678115800" lon="13.4372138791"><ele>2124.65</ele><time>2013-04-06T13:22:29Z</time></trkpt><trkpt lat="42.1678581834" lon="13.4370779246"><ele>2127.05</ele><time>2013-04-06T13:22:48Z</time></trkpt><trkpt lat="42.1678829100" lon="13.4370018169"><ele>2128.02</ele><time>2013-04-06T13:23:05Z</time></trkpt><trkpt lat="42.1678910404" lon="13.4369672835"><ele>2128.02</ele><time>2013-04-06T13:23:09Z</time></trkpt><trkpt lat="42.1679515578" lon="13.4368093684"><ele>2129.94</ele><time>2013-04-06T13:23:28Z</time></trkpt><trkpt lat="42.1679760329" lon="13.4367183410"><ele>2131.38</ele><time>2013-04-06T13:23:45Z</time></trkpt><trkpt lat="42.1679886896" lon="13.4367129765"><ele>2131.86</ele><time>2013-04-06T13:24:23Z</time></trkpt><trkpt lat="42.1680126619" lon="13.4366225358"><ele>2132.34</ele><time>2013-04-06T13:24:52Z</time></trkpt><trkpt lat="42.1680395678" lon="13.4364727512"><ele>2135.23</ele><time>2013-04-06T13:25:08Z</time></trkpt><trkpt lat="42.1680691559" lon="13.4363566618"><ele>2136.67</ele><time>2013-04-06T13:25:27Z</time></trkpt><trkpt lat="42.1681185253" lon="13.4362190310"><ele>2139.07</ele><time>2013-04-06T13:25:46Z</time></trkpt><trkpt lat="42.1681321040" lon="13.4361694939"><ele>2140.51</ele><time>2013-04-06T13:25:50Z</time></trkpt><trkpt lat="42.1681691520" lon="13.4360512253"><ele>2141.95</ele><time>2013-04-06T13:26:13Z</time></trkpt><trkpt lat="42.1682231314" lon="13.4358861018"><ele>2144.36</ele><time>2013-04-06T13:26:30Z</time></trkpt><trkpt lat="42.1683004964" lon="13.4357571881"><ele>2147.24</ele><time>2013-04-06T13:26:49Z</time></trkpt><trkpt lat="42.1683226246" lon="13.4357006103"><ele>2149.16</ele><time>2013-04-06T13:27:11Z</time></trkpt><trkpt lat="42.1683696471" lon="13.4355738759"><ele>2150.61</ele><time>2013-04-06T13:27:29Z</time></trkpt><trkpt lat="42.1683946252" lon="13.4354859497"><ele>2153.01</ele><time>2013-04-06T13:27:44Z</time></trkpt><trkpt lat="42.1684296615" lon="13.4353762306"><ele>2154.93</ele><time>2013-04-06T13:28:01Z</time></trkpt><trkpt lat="42.1684814617" lon="13.4352906514"><ele>2157.82</ele><time>2013-04-06T13:28:20Z</time></trkpt><trkpt lat="42.1685271431" lon="13.4352015518"><ele>2159.74</ele><time>2013-04-06T13:28:35Z</time></trkpt><trkpt lat="42.1685852297" lon="13.4351212531"><ele>2162.14</ele><time>2013-04-06T13:28:52Z</time></trkpt><trkpt lat="42.1686205175" lon="13.4350259509"><ele>2164.06</ele><time>2013-04-06T13:29:07Z</time></trkpt><trkpt lat="42.1686778497" lon="13.4349063411"><ele>2166.47</ele><time>2013-04-06T13:29:24Z</time></trkpt><trkpt lat="42.1687093657" lon="13.4348387830"><ele>2168.39</ele><time>2013-04-06T13:29:42Z</time></trkpt><trkpt lat="42.1687422227" lon="13.4347538743"><ele>2169.35</ele><time>2013-04-06T13:30:15Z</time></trkpt><trkpt lat="42.1688155644" lon="13.4346003179"><ele>2171.76</ele><time>2013-04-06T13:30:34Z</time></trkpt><trkpt lat="42.1688744053" lon="13.4344786964"><ele>2173.20</ele><time>2013-04-06T13:30:48Z</time></trkpt><trkpt lat="42.1688998863" lon="13.4343389701"><ele>2175.12</ele><time>2013-04-06T13:31:08Z</time></trkpt><trkpt lat="42.1689114533" lon="13.4342711605"><ele>2175.60</ele><time>2013-04-06T13:31:16Z</time></trkpt><trkpt lat="42.1689443104" lon="13.4341766126"><ele>2177.52</ele><time>2013-04-06T13:31:33Z</time></trkpt><trkpt lat="42.1689586435" lon="13.4340397362"><ele>2179.45</ele><time>2013-04-06T13:31:51Z</time></trkpt><trkpt lat="42.1689772513" lon="13.4340233915"><ele>2178.48</ele><time>2013-04-06T13:32:07Z</time></trkpt><trkpt lat="42.1689754911" lon="13.4340109862"><ele>2178.48</ele><time>2013-04-06T13:32:23Z</time></trkpt><trkpt lat="42.1689812746" lon="13.4339902829"><ele>2178.48</ele><time>2013-04-06T13:33:03Z</time></trkpt><trkpt lat="42.1689803526" lon="13.4339809790"><ele>2178.97</ele><time>2013-04-06T13:33:30Z</time></trkpt><trkpt lat="42.1689817775" lon="13.4339737706"><ele>2178.48</ele><time>2013-04-06T13:33:44Z</time></trkpt><trkpt lat="42.1689861361" lon="13.4339990839"><ele>2178.48</ele><time>2013-04-06T13:34:06Z</time></trkpt><trkpt lat="42.1689940989" lon="13.4339878522"><ele>2177.52</ele><time>2013-04-06T13:34:21Z</time></trkpt><trkpt lat="42.1690103598" lon="13.4339694958"><ele>2177.52</ele><time>2013-04-06T13:34:42Z</time></trkpt><trkpt lat="42.1690245252" lon="13.4339501336"><ele>2177.52</ele><time>2013-04-06T13:35:24Z</time></trkpt><trkpt lat="42.1690363437" lon="13.4339288436"><ele>2177.52</ele><time>2013-04-06T13:36:07Z</time></trkpt><trkpt lat="42.1690408699" lon="13.4339233954"><ele>2177.52</ele><time>2013-04-06T13:36:52Z</time></trkpt><trkpt lat="42.1690118685" lon="13.4339218028"><ele>2178.97</ele><time>2013-04-06T13:37:06Z</time></trkpt><trkpt lat="42.1690023970" lon="13.4339970723"><ele>2178.97</ele><time>2013-04-06T13:37:22Z</time></trkpt><trkpt lat="42.1690049116" lon="13.4340049513"><ele>2178.97</ele><time>2013-04-06T13:37:48Z</time></trkpt><trkpt lat="42.1690009721" lon="13.4340046998"><ele>2178.48</ele><time>2013-04-06T13:38:02Z</time></trkpt><trkpt lat="42.1689864714" lon="13.4339401592"><ele>2178.97</ele><time>2013-04-06T13:38:22Z</time></trkpt><trkpt lat="42.1689755749" lon="13.4338420909"><ele>2179.45</ele><time>2013-04-06T13:38:50Z</time></trkpt><trkpt lat="42.1689320728" lon="13.4336329624"><ele>2179.45</ele><time>2013-04-06T13:39:08Z</time></trkpt><trkpt lat="42.1689063404" lon="13.4334903024"><ele>2179.93</ele><time>2013-04-06T13:39:24Z</time></trkpt><trkpt lat="42.1688578092" lon="13.4333278611"><ele>2181.37</ele><time>2013-04-06T13:39:43Z</time></trkpt><trkpt lat="42.1688462421" lon="13.4332530946"><ele>2181.37</ele><time>2013-04-06T13:39:50Z</time></trkpt><trkpt lat="42.1688361000" lon="13.4331610613"><ele>2181.37</ele><time>2013-04-06T13:39:58Z</time></trkpt><trkpt lat="42.1688343398" lon="13.4331092611"><ele>2181.37</ele><time>2013-04-06T13:40:02Z</time></trkpt><trkpt lat="42.1688241139" lon="13.4330567904"><ele>2181.37</ele><time>2013-04-06T13:40:06Z</time></trkpt><trkpt lat="42.1688174084" lon="13.4328712150"><ele>2181.37</ele><time>2013-04-06T13:40:25Z</time></trkpt><trkpt lat="42.1688150615" lon="13.4327949397"><ele>2181.37</ele><time>2013-04-06T13:40:52Z</time></trkpt><trkpt lat="42.1688221022" lon="13.4327834565"><ele>2181.37</ele><time>2013-04-06T13:41:14Z</time></trkpt><trkpt lat="42.1688231081" lon="13.4327869769"><ele>2180.89</ele><time>2013-04-06T13:41:26Z</time></trkpt><trkpt lat="42.1688280534" lon="13.4327897429"><ele>2180.41</ele><time>2013-04-06T13:41:47Z</time></trkpt><trkpt lat="42.1688384470" lon="13.4327941015"><ele>2179.93</ele><time>2013-04-06T13:42:14Z</time></trkpt><trkpt lat="42.1688355971" lon="13.4327856358"><ele>2179.93</ele><time>2013-04-06T13:42:50Z</time></trkpt><trkpt lat="42.1688418835" lon="13.4327703808"><ele>2180.41</ele><time>2013-04-06T13:43:36Z</time></trkpt><trkpt lat="42.1688550431" lon="13.4327760804"><ele>2180.41</ele><time>2013-04-06T13:44:06Z</time></trkpt><trkpt lat="42.1688491758" lon="13.4327642620"><ele>2180.41</ele><time>2013-04-06T13:44:30Z</time></trkpt><trkpt lat="42.1688340884" lon="13.4327635914"><ele>2180.41</ele><time>2013-04-06T13:45:28Z</time></trkpt><trkpt lat="42.1688527800" lon="13.4327847976"><ele>2180.41</ele><time>2013-04-06T13:46:32Z</time></trkpt><trkpt lat="42.1688676998" lon="13.4328010585"><ele>2179.93</ele><time>2013-04-06T13:47:27Z</time></trkpt><trkpt lat="42.1688714717" lon="13.4327980410"><ele>2180.41</ele><time>2013-04-06T13:48:31Z</time></trkpt><trkpt lat="42.1688714717" lon="13.4327996336"><ele>2179.93</ele><time>2013-04-06T13:49:34Z</time></trkpt><trkpt lat="42.1688592341" lon="13.4327945206"><ele>2180.41</ele><time>2013-04-06T13:50:00Z</time></trkpt><trkpt lat="42.1688284725" lon="13.4327989630"><ele>2180.41</ele><time>2013-04-06T13:51:00Z</time></trkpt><trkpt lat="42.1688202582" lon="13.4328049980"><ele>2180.41</ele><time>2013-04-06T13:51:52Z</time></trkpt><trkpt lat="42.1688118763" lon="13.4327908326"><ele>2180.89</ele><time>2013-04-06T13:53:02Z</time></trkpt><trkpt lat="42.1688112058" lon="13.4327915031"><ele>2181.37</ele><time>2013-04-06T13:53:57Z</time></trkpt><trkpt lat="42.1688177437" lon="13.4327909164"><ele>2181.37</ele><time>2013-04-06T13:54:44Z</time></trkpt><trkpt lat="42.1688155644" lon="13.4327894915"><ele>2181.85</ele><time>2013-04-06T13:55:43Z</time></trkpt><trkpt lat="42.1688121278" lon="13.4327925090"><ele>2182.81</ele><time>2013-04-06T13:56:37Z</time></trkpt><trkpt lat="42.1688131336" lon="13.4327941015"><ele>2183.29</ele><time>2013-04-06T13:57:00Z</time></trkpt><trkpt lat="42.1688127145" lon="13.4327964485"><ele>2183.29</ele><time>2013-04-06T13:57:28Z</time></trkpt><trkpt lat="42.1688115411" lon="13.4327982087"><ele>2182.81</ele><time>2013-04-06T13:57:51Z</time></trkpt><trkpt lat="42.1688100323" lon="13.4328003880"><ele>2182.33</ele><time>2013-04-06T13:58:24Z</time></trkpt><trkpt lat="42.1688086912" lon="13.4327961132"><ele>2182.81</ele><time>2013-04-06T13:58:55Z</time></trkpt><trkpt lat="42.1688045003" lon="13.4327942692"><ele>2182.81</ele><time>2013-04-06T13:59:32Z</time></trkpt><trkpt lat="42.1688036621" lon="13.4327971190"><ele>2183.29</ele><time>2013-04-06T14:00:04Z</time></trkpt><trkpt lat="42.1688436437" lon="13.4327987954"><ele>2184.25</ele><time>2013-04-06T14:00:21Z</time></trkpt><trkpt lat="42.1688402072" lon="13.4327994660"><ele>2183.77</ele><time>2013-04-06T14:00:40Z</time></trkpt><trkpt lat="42.1688438952" lon="13.4327992983"><ele>2183.77</ele><time>2013-04-06T14:01:06Z</time></trkpt><trkpt lat="42.1688421350" lon="13.4327975381"><ele>2183.77</ele><time>2013-04-06T14:01:34Z</time></trkpt><trkpt lat="42.1688488405" lon="13.4327807743"><ele>2184.25</ele><time>2013-04-06T14:01:54Z</time></trkpt><trkpt lat="42.1688517742" lon="13.4327713866"><ele>2184.25</ele><time>2013-04-06T14:02:26Z</time></trkpt><trkpt lat="42.1688521933" lon="13.4327666927"><ele>2184.25</ele><time>2013-04-06T14:02:55Z</time></trkpt><trkpt lat="42.1688579768" lon="13.4327951912"><ele>2184.25</ele><time>2013-04-06T14:03:29Z</time></trkpt><trkpt lat="42.1688495111" lon="13.4328117874"><ele>2184.25</ele><time>2013-04-06T14:03:54Z</time></trkpt><trkpt lat="42.1688517742" lon="13.4328203369"><ele>2184.25</ele><time>2013-04-06T14:04:32Z</time></trkpt><trkpt lat="42.1688495949" lon="13.4328276291"><ele>2184.25</ele><time>2013-04-06T14:04:49Z</time></trkpt><trkpt lat="42.1688526962" lon="13.4328371007"><ele>2184.25</ele><time>2013-04-06T14:04:51Z</time></trkpt><trkpt lat="42.1688805241" lon="13.4328780882"><ele>2184.73</ele><time>2013-04-06T14:05:13Z</time></trkpt><trkpt lat="42.1688797697" lon="13.4328619950"><ele>2184.73</ele><time>2013-04-06T14:05:37Z</time></trkpt><trkpt lat="42.1688492596" lon="13.4328343347"><ele>2184.73</ele><time>2013-04-06T14:05:50Z</time></trkpt><trkpt lat="42.1688543726" lon="13.4328394476"><ele>2183.77</ele><time>2013-04-06T14:06:11Z</time></trkpt><trkpt lat="42.1688553784" lon="13.4328096919"><ele>2183.77</ele><time>2013-04-06T14:06:55Z</time></trkpt><trkpt lat="42.1688550431" lon="13.4327996336"><ele>2183.77</ele><time>2013-04-06T14:07:35Z</time></trkpt><trkpt lat="42.1688565519" lon="13.4327938501"><ele>2183.77</ele><time>2013-04-06T14:08:18Z</time></trkpt><trkpt lat="42.1688529477" lon="13.4327906650"><ele>2183.77</ele><time>2013-04-06T14:08:58Z</time></trkpt><trkpt lat="42.1688511875" lon="13.4327890724"><ele>2183.77</ele><time>2013-04-06T14:09:43Z</time></trkpt><trkpt lat="42.1688444819" lon="13.4327907488"><ele>2183.77</ele><time>2013-04-06T14:10:28Z</time></trkpt><trkpt lat="42.1688482538" lon="13.4327951912"><ele>2183.77</ele><time>2013-04-06T14:11:05Z</time></trkpt><trkpt lat="42.1688469965" lon="13.4328012262"><ele>2183.29</ele><time>2013-04-06T14:11:57Z</time></trkpt><trkpt lat="42.1688477509" lon="13.4327941015"><ele>2183.29</ele><time>2013-04-06T14:12:47Z</time></trkpt><trkpt lat="42.1688464936" lon="13.4327832051"><ele>2183.77</ele><time>2013-04-06T14:13:45Z</time></trkpt><trkpt lat="42.1688346751" lon="13.4327738173"><ele>2184.25</ele><time>2013-04-06T14:14:00Z</time></trkpt><trkpt lat="42.1688190848" lon="13.4327923413"><ele>2183.77</ele><time>2013-04-06T14:14:24Z</time></trkpt><trkpt lat="42.1688190009" lon="13.4327909164"><ele>2184.25</ele><time>2013-04-06T14:14:53Z</time></trkpt><trkpt lat="42.1688192524" lon="13.4327901620"><ele>2184.25</ele><time>2013-04-06T14:15:22Z</time></trkpt><trkpt lat="42.1688173246" lon="13.4327895753"><ele>2184.25</ele><time>2013-04-06T14:16:02Z</time></trkpt><trkpt lat="42.1688620001" lon="13.4328804351"><ele>2184.25</ele><time>2013-04-06T14:16:21Z</time></trkpt><trkpt lat="42.1688626707" lon="13.4329419583"><ele>2185.21</ele><time>2013-04-06T14:16:26Z</time></trkpt><trkpt lat="42.1689147223" lon="13.4331843629"><ele>2185.21</ele><time>2013-04-06T14:16:44Z</time></trkpt><trkpt lat="42.1689519379" lon="13.4333238378"><ele>2184.73</ele><time>2013-04-06T14:17:04Z</time></trkpt><trkpt lat="42.1689532790" lon="13.4333273582"><ele>2184.25</ele><time>2013-04-06T14:17:24Z</time></trkpt><trkpt lat="42.1689498425" lon="13.4333313815"><ele>2184.25</ele><time>2013-04-06T14:17:52Z</time></trkpt><trkpt lat="42.1689492557" lon="13.4333322197"><ele>2183.77</ele><time>2013-04-06T14:18:17Z</time></trkpt><trkpt lat="42.1689480823" lon="13.4333312977"><ele>2183.77</ele><time>2013-04-06T14:18:44Z</time></trkpt><trkpt lat="42.1689435560" lon="13.4333346505"><ele>2184.25</ele><time>2013-04-06T14:19:13Z</time></trkpt><trkpt lat="42.1689524408" lon="13.4333323035"><ele>2184.25</ele><time>2013-04-06T14:19:33Z</time></trkpt><trkpt lat="42.1689727250" lon="13.4333218262"><ele>2183.77</ele><time>2013-04-06T14:19:35Z</time></trkpt><trkpt lat="42.1689865552" lon="13.4332459699"><ele>2183.29</ele><time>2013-04-06T14:19:55Z</time></trkpt><trkpt lat="42.1689523570" lon="13.4331390169"><ele>2184.25</ele><time>2013-04-06T14:20:11Z</time></trkpt><trkpt lat="42.1688921750" lon="13.4328832012"><ele>2184.25</ele><time>2013-04-06T14:20:34Z</time></trkpt><trkpt lat="42.1688903309" lon="13.4328790102"><ele>2184.73</ele><time>2013-04-06T14:21:02Z</time></trkpt><trkpt lat="42.1688960306" lon="13.4328665212"><ele>2184.73</ele><time>2013-04-06T14:21:37Z</time></trkpt><trkpt lat="42.1689002216" lon="13.4328619111"><ele>2184.73</ele><time>2013-04-06T14:22:21Z</time></trkpt><trkpt lat="42.1688946057" lon="13.4328632522"><ele>2184.73</ele><time>2013-04-06T14:23:02Z</time></trkpt><trkpt lat="42.1688757464" lon="13.4328562953"><ele>2185.21</ele><time>2013-04-06T14:23:28Z</time></trkpt><trkpt lat="42.1688698791" lon="13.4328613244"><ele>2184.73</ele><time>2013-04-06T14:23:36Z</time></trkpt><trkpt lat="42.1688174922" lon="13.4329334088"><ele>2184.73</ele><time>2013-04-06T14:23:43Z</time></trkpt><trkpt lat="42.1688146424" lon="13.4330225922"><ele>2184.25</ele><time>2013-04-06T14:24:05Z</time></trkpt><trkpt lat="42.1688053384" lon="13.4330144618"><ele>2184.25</ele><time>2013-04-06T14:24:47Z</time></trkpt><trkpt lat="42.1688318253" lon="13.4330291301"><ele>2184.25</ele><time>2013-04-06T14:25:30Z</time></trkpt><trkpt lat="42.1688731480" lon="13.4329804312"><ele>2185.21</ele><time>2013-04-06T14:25:45Z</time></trkpt><trkpt lat="42.1688739862" lon="13.4329835325"><ele>2184.73</ele><time>2013-04-06T14:25:54Z</time></trkpt><trkpt lat="42.1688907500" lon="13.4329816047"><ele>2183.77</ele><time>2013-04-06T14:26:20Z</time></trkpt><trkpt lat="42.1689013112" lon="13.4329836164"><ele>2183.77</ele><time>2013-04-06T14:27:13Z</time></trkpt><trkpt lat="42.1689010598" lon="13.4329903219"><ele>2183.77</ele><time>2013-04-06T14:27:41Z</time></trkpt><trkpt lat="42.1688925102" lon="13.4329944290"><ele>2183.77</ele><time>2013-04-06T14:28:02Z</time></trkpt><trkpt lat="42.1688966174" lon="13.4329850413"><ele>2183.29</ele><time>2013-04-06T14:29:05Z</time></trkpt><trkpt lat="42.1688979585" lon="13.4329603985"><ele>2184.73</ele><time>2013-04-06T14:29:33Z</time></trkpt><trkpt lat="42.1688855533" lon="13.4329725523"><ele>2183.77</ele><time>2013-04-06T14:29:58Z</time></trkpt><trkpt lat="42.1688885707" lon="13.4329800960"><ele>2184.73</ele><time>2013-04-06T14:30:01Z</time></trkpt><trkpt lat="42.1688868944" lon="13.4329747315"><ele>2184.25</ele><time>2013-04-06T14:30:12Z</time></trkpt><trkpt lat="42.1688774228" lon="13.4327916708"><ele>2184.73</ele><time>2013-04-06T14:30:29Z</time></trkpt><trkpt lat="42.1688787639" lon="13.4328043275"><ele>2184.73</ele><time>2013-04-06T14:30:30Z</time></trkpt><trkpt lat="42.1688976232" lon="13.4328371845"><ele>2183.77</ele><time>2013-04-06T14:30:46Z</time></trkpt><trkpt lat="42.1688820329" lon="13.4328443930"><ele>2183.77</ele><time>2013-04-06T14:31:27Z</time></trkpt><trkpt lat="42.1688925102" lon="13.4328371845"><ele>2183.77</ele><time>2013-04-06T14:32:11Z</time></trkpt><trkpt lat="42.1688847151" lon="13.4328442253"><ele>2183.29</ele><time>2013-04-06T14:33:06Z</time></trkpt><trkpt lat="42.1688878164" lon="13.4328562114"><ele>2183.29</ele><time>2013-04-06T14:33:54Z</time></trkpt><trkpt lat="42.1688779257" lon="13.4328628331"><ele>2183.29</ele><time>2013-04-06T14:34:38Z</time></trkpt><trkpt lat="42.1688553784" lon="13.4328537807"><ele>2183.77</ele><time>2013-04-06T14:35:12Z</time></trkpt><trkpt lat="42.1688583959" lon="13.4328510985"><ele>2184.25</ele><time>2013-04-06T14:35:27Z</time></trkpt><trkpt lat="42.1688569710" lon="13.4328471590"><ele>2184.25</ele><time>2013-04-06T14:35:53Z</time></trkpt><trkpt lat="42.1688502654" lon="13.4328464884"><ele>2184.25</ele><time>2013-04-06T14:36:20Z</time></trkpt><trkpt lat="42.1688469965" lon="13.4328518528"><ele>2184.25</ele><time>2013-04-06T14:36:55Z</time></trkpt><trkpt lat="42.1688447334" lon="13.4328376036"><ele>2184.25</ele><time>2013-04-06T14:37:14Z</time></trkpt><trkpt lat="42.1688471641" lon="13.4328412917"><ele>2184.25</ele><time>2013-04-06T14:37:40Z</time></trkpt><trkpt lat="42.1688508522" lon="13.4328433033"><ele>2184.73</ele><time>2013-04-06T14:38:02Z</time></trkpt><trkpt lat="42.1688475832" lon="13.4328383580"><ele>2184.73</ele><time>2013-04-06T14:38:22Z</time></trkpt><trkpt lat="42.1688464936" lon="13.4328298084"><ele>2184.73</ele><time>2013-04-06T14:38:56Z</time></trkpt><trkpt lat="42.1688443143" lon="13.4328304790"><ele>2185.21</ele><time>2013-04-06T14:39:24Z</time></trkpt><trkpt lat="42.1688487567" lon="13.4328270424"><ele>2184.73</ele><time>2013-04-06T14:39:58Z</time></trkpt><trkpt lat="42.1688489243" lon="13.4328317363"><ele>2185.21</ele><time>2013-04-06T14:40:13Z</time></trkpt><trkpt lat="42.1688526124" lon="13.4328332450"><ele>2184.73</ele><time>2013-04-06T14:40:31Z</time></trkpt><trkpt lat="42.1688474156" lon="13.4327968676"><ele>2184.73</ele><time>2013-04-06T14:40:49Z</time></trkpt><trkpt lat="42.1688336693" lon="13.4328332450"><ele>2185.21</ele><time>2013-04-06T14:41:25Z</time></trkpt><trkpt lat="42.1688345075" lon="13.4328338318"><ele>2184.73</ele><time>2013-04-06T14:41:36Z</time></trkpt><trkpt lat="42.1688362677" lon="13.4328248631"><ele>2185.21</ele><time>2013-04-06T14:41:52Z</time></trkpt><trkpt lat="42.1688426379" lon="13.4328330774"><ele>2185.69</ele><time>2013-04-06T14:42:11Z</time></trkpt><trkpt lat="42.1688554622" lon="13.4329308942"><ele>2184.73</ele><time>2013-04-06T14:42:18Z</time></trkpt><trkpt lat="42.1688734833" lon="13.4329737257"><ele>2184.73</ele><time>2013-04-06T14:42:35Z</time></trkpt><trkpt lat="42.1688853018" lon="13.4329650924"><ele>2184.73</ele><time>2013-04-06T14:42:51Z</time></trkpt><trkpt lat="42.1688868944" lon="13.4329703730"><ele>2184.73</ele><time>2013-04-06T14:43:22Z</time></trkpt><trkpt lat="42.1688856371" lon="13.4329716302"><ele>2184.73</ele><time>2013-04-06T14:43:42Z</time></trkpt><trkpt lat="42.1688795183" lon="13.4329674393"><ele>2185.21</ele><time>2013-04-06T14:44:07Z</time></trkpt><trkpt lat="42.1688847989" lon="13.4329706244"><ele>2185.69</ele><time>2013-04-06T14:44:30Z</time></trkpt><trkpt lat="42.1688999701" lon="13.4330078401"><ele>2185.21</ele><time>2013-04-06T14:44:47Z</time></trkpt><trkpt lat="42.1689040773" lon="13.4330079239"><ele>2185.21</ele><time>2013-04-06T14:44:54Z</time></trkpt><trkpt lat="42.1689185780" lon="13.4330504201"><ele>2185.21</ele><time>2013-04-06T14:45:01Z</time></trkpt><trkpt lat="42.1689723060" lon="13.4337047953"><ele>2182.33</ele><time>2013-04-06T14:45:21Z</time></trkpt><trkpt lat="42.1690185741" lon="13.4341793787"><ele>2181.85</ele><time>2013-04-06T14:45:37Z</time></trkpt><trkpt lat="42.1690063365" lon="13.4342755191"><ele>2181.37</ele><time>2013-04-06T14:45:57Z</time></trkpt><trkpt lat="42.1690376010" lon="13.4343311749"><ele>2179.45</ele><time>2013-04-06T14:46:10Z</time></trkpt><trkpt lat="42.1690292191" lon="13.4343336057"><ele>2179.45</ele><time>2013-04-06T14:46:44Z</time></trkpt><trkpt lat="42.1691335738" lon="13.4341072943"><ele>2174.16</ele><time>2013-04-06T14:46:51Z</time></trkpt><trkpt lat="42.1691875532" lon="13.4339587670"><ele>2170.79</ele><time>2013-04-06T14:46:54Z</time></trkpt><trkpt lat="42.1692442987" lon="13.4337187931"><ele>2167.43</ele><time>2013-04-06T14:47:03Z</time></trkpt><trkpt lat="42.1692959312" lon="13.4335214831"><ele>2164.06</ele><time>2013-04-06T14:47:09Z</time></trkpt><trkpt lat="42.1692981105" lon="13.4335082397"><ele>2164.06</ele><time>2013-04-06T14:47:10Z</time></trkpt><trkpt lat="42.1692936681" lon="13.4335117601"><ele>2164.06</ele><time>2013-04-06T14:47:11Z</time></trkpt><trkpt lat="42.1693371702" lon="13.4334149491"><ele>2161.18</ele><time>2013-04-06T14:47:18Z</time></trkpt><trkpt lat="42.1693732962" lon="13.4333291184"><ele>2158.30</ele><time>2013-04-06T14:47:23Z</time></trkpt><trkpt lat="42.1693713684" lon="13.4333276097"><ele>2158.30</ele><time>2013-04-06T14:47:26Z</time></trkpt><trkpt lat="42.1693938319" lon="13.4332782403"><ele>2156.86</ele><time>2013-04-06T14:47:30Z</time></trkpt><trkpt lat="42.1694110148" lon="13.4332603030"><ele>2156.37</ele><time>2013-04-06T14:47:35Z</time></trkpt><trkpt lat="42.1694411058" lon="13.4332188126"><ele>2154.93</ele><time>2013-04-06T14:47:38Z</time></trkpt><trkpt lat="42.1694723703" lon="13.4331566188"><ele>2153.01</ele><time>2013-04-06T14:47:42Z</time></trkpt><trkpt lat="42.1695128549" lon="13.4331161343"><ele>2150.13</ele><time>2013-04-06T14:47:56Z</time></trkpt><trkpt lat="42.1695708577" lon="13.4330175631"><ele>2147.24</ele><time>2013-04-06T14:48:00Z</time></trkpt><trkpt lat="42.1695800778" lon="13.4329656791"><ele>2145.80</ele><time>2013-04-06T14:48:03Z</time></trkpt><trkpt lat="42.1695972607" lon="13.4329567105"><ele>2144.36</ele><time>2013-04-06T14:48:23Z</time></trkpt><trkpt lat="42.1696374938" lon="13.4328997135"><ele>2141.47</ele><time>2013-04-06T14:48:39Z</time></trkpt><trkpt lat="42.1697260905" lon="13.4329522680"><ele>2137.63</ele><time>2013-04-06T14:48:43Z</time></trkpt><trkpt lat="42.1698075626" lon="13.4328997135"><ele>2131.38</ele><time>2013-04-06T14:48:47Z</time></trkpt><trkpt lat="42.1698945668" lon="13.4329213388"><ele>2127.53</ele><time>2013-04-06T14:48:51Z</time></trkpt><trkpt lat="42.1699569281" lon="13.4329192434"><ele>2122.73</ele><time>2013-04-06T14:48:54Z</time></trkpt><trkpt lat="42.1699793916" lon="13.4328841232"><ele>2119.84</ele><time>2013-04-06T14:48:56Z</time></trkpt><trkpt lat="42.1700902842" lon="13.4329675231"><ele>2113.12</ele><time>2013-04-06T14:49:01Z</time></trkpt><trkpt lat="42.1701454371" lon="13.4329267032"><ele>2109.27</ele><time>2013-04-06T14:49:03Z</time></trkpt><trkpt lat="42.1702130791" lon="13.4328491706"><ele>2105.91</ele><time>2013-04-06T14:49:09Z</time></trkpt><trkpt lat="42.1702590119" lon="13.4328462370"><ele>2103.02</ele><time>2013-04-06T14:49:14Z</time></trkpt><trkpt lat="42.1702723391" lon="13.4328671079"><ele>2102.54</ele><time>2013-04-06T14:49:16Z</time></trkpt><trkpt lat="42.1703130752" lon="13.4327779245"><ele>2097.25</ele><time>2013-04-06T14:49:19Z</time></trkpt><trkpt lat="42.1703398973" lon="13.4327232745"><ele>2096.29</ele><time>2013-04-06T14:49:21Z</time></trkpt><trkpt lat="42.1704180166" lon="13.4327632561"><ele>2092.93</ele><time>2013-04-06T14:49:25Z</time></trkpt><trkpt lat="42.1705001593" lon="13.4327566344"><ele>2088.12</ele><time>2013-04-06T14:49:28Z</time></trkpt><trkpt lat="42.1705692261" lon="13.4327666927"><ele>2084.76</ele><time>2013-04-06T14:49:32Z</time></trkpt><trkpt lat="42.1705873311" lon="13.4328026511"><ele>2082.83</ele><time>2013-04-06T14:49:34Z</time></trkpt><trkpt lat="42.1706389636" lon="13.4327524435"><ele>2079.47</ele><time>2013-04-06T14:49:37Z</time></trkpt><trkpt lat="42.1706411429" lon="13.4327210952"><ele>2079.47</ele><time>2013-04-06T14:49:42Z</time></trkpt><trkpt lat="42.1706696413" lon="13.4326556325"><ele>2077.07</ele><time>2013-04-06T14:49:46Z</time></trkpt><trkpt lat="42.1707042586" lon="13.4325884096"><ele>2074.18</ele><time>2013-04-06T14:50:01Z</time></trkpt><trkpt lat="42.1707085334" lon="13.4325935226"><ele>2073.70</ele><time>2013-04-06T14:50:03Z</time></trkpt><trkpt lat="42.1707990579" lon="13.4326614998"><ele>2070.34</ele><time>2013-04-06T14:50:07Z</time></trkpt><trkpt lat="42.1708121337" lon="13.4326887410"><ele>2070.34</ele><time>2013-04-06T14:50:08Z</time></trkpt><trkpt lat="42.1708633471" lon="13.4327103663"><ele>2066.97</ele><time>2013-04-06T14:50:10Z</time></trkpt><trkpt lat="42.1709128842" lon="13.4326168243"><ele>2063.61</ele><time>2013-04-06T14:50:13Z</time></trkpt><trkpt lat="42.1709608287" lon="13.4325977135"><ele>2060.72</ele><time>2013-04-06T14:50:15Z</time></trkpt><trkpt lat="42.1709887404" lon="13.4326623380"><ele>2058.80</ele><time>2013-04-06T14:50:17Z</time></trkpt><trkpt lat="42.1710385289" lon="13.4326264635"><ele>2054.96</ele><time>2013-04-06T14:50:21Z</time></trkpt><trkpt lat="42.1710542869" lon="13.4326041676"><ele>2054.47</ele><time>2013-04-06T14:50:23Z</time></trkpt><trkpt lat="42.1711203363" lon="13.4326366056"><ele>2050.63</ele><time>2013-04-06T14:50:27Z</time></trkpt><trkpt lat="42.1711374354" lon="13.4326460771"><ele>2050.63</ele><time>2013-04-06T14:50:28Z</time></trkpt><trkpt lat="42.1711865533" lon="13.4326033294"><ele>2046.78</ele><time>2013-04-06T14:50:30Z</time></trkpt><trkpt lat="42.1712158062" lon="13.4325749986"><ele>2045.82</ele><time>2013-04-06T14:50:32Z</time></trkpt><trkpt lat="42.1712843701" lon="13.4326097835"><ele>2042.46</ele><time>2013-04-06T14:50:35Z</time></trkpt><trkpt lat="42.1712954342" lon="13.4326303191"><ele>2042.46</ele><time>2013-04-06T14:50:36Z</time></trkpt><trkpt lat="42.1713063307" lon="13.4326398745"><ele>2041.02</ele><time>2013-04-06T14:50:37Z</time></trkpt><trkpt lat="42.1713458933" lon="13.4325651079"><ele>2036.69</ele><time>2013-04-06T14:50:40Z</time></trkpt><trkpt lat="42.1714148764" lon="13.4326005634"><ele>2032.36</ele><time>2013-04-06T14:50:43Z</time></trkpt><trkpt lat="42.1714283712" lon="13.4326278884"><ele>2032.36</ele><time>2013-04-06T14:50:44Z</time></trkpt><trkpt lat="42.1714775730" lon="13.4326082747"><ele>2028.52</ele><time>2013-04-06T14:50:46Z</time></trkpt><trkpt lat="42.1715090051" lon="13.4325675387"><ele>2027.56</ele><time>2013-04-06T14:50:48Z</time></trkpt><trkpt lat="42.1715300437" lon="13.4325496014"><ele>2027.56</ele><time>2013-04-06T14:50:49Z</time></trkpt><trkpt lat="42.1715955064" lon="13.4324682131"><ele>2025.64</ele><time>2013-04-06T14:50:53Z</time></trkpt><trkpt lat="42.1716238372" lon="13.4324026667"><ele>2024.67</ele><time>2013-04-06T14:50:57Z</time></trkpt><trkpt lat="42.1717334725" lon="13.4324493539"><ele>2018.91</ele><time>2013-04-06T14:51:00Z</time></trkpt><trkpt lat="42.1717524156" lon="13.4324831329"><ele>2018.91</ele><time>2013-04-06T14:51:01Z</time></trkpt><trkpt lat="42.1718164533" lon="13.4324588254"><ele>2013.62</ele><time>2013-04-06T14:51:04Z</time></trkpt><trkpt lat="42.1718725283" lon="13.4324499406"><ele>2010.25</ele><time>2013-04-06T14:51:07Z</time></trkpt><trkpt lat="42.1719084028" lon="13.4325160738"><ele>2008.81</ele><time>2013-04-06T14:51:09Z</time></trkpt><trkpt lat="42.1719639748" lon="13.4324620944"><ele>2004.97</ele><time>2013-04-06T14:51:12Z</time></trkpt><trkpt lat="42.1720169485" lon="13.4324897546"><ele>2002.56</ele><time>2013-04-06T14:51:14Z</time></trkpt><trkpt lat="42.1720624622" lon="13.4324921854"><ele>1998.72</ele><time>2013-04-06T14:51:19Z</time></trkpt><trkpt lat="42.1721371450" lon="13.4325519484"><ele>1995.35</ele><time>2013-04-06T14:51:23Z</time></trkpt><trkpt lat="42.1721969079" lon="13.4326288104"><ele>1991.51</ele><time>2013-04-06T14:51:27Z</time></trkpt><trkpt lat="42.1722653043" lon="13.4325892478"><ele>1988.14</ele><time>2013-04-06T14:51:29Z</time></trkpt><trkpt lat="42.1723415796" lon="13.4324844740"><ele>1983.34</ele><time>2013-04-06T14:51:34Z</time></trkpt><trkpt lat="42.1724097244" lon="13.4325522836"><ele>1979.01</ele><time>2013-04-06T14:51:36Z</time></trkpt><trkpt lat="42.1724186093" lon="13.4325920977"><ele>1978.05</ele><time>2013-04-06T14:51:38Z</time></trkpt><trkpt lat="42.1724461857" lon="13.4325200971"><ele>1971.80</ele><time>2013-04-06T14:51:41Z</time></trkpt><trkpt lat="42.1724872570" lon="13.4324354399"><ele>1970.36</ele><time>2013-04-06T14:51:44Z</time></trkpt><trkpt lat="42.1724916156" lon="13.4324258007"><ele>1970.36</ele><time>2013-04-06T14:51:45Z</time></trkpt><trkpt lat="42.1725902706" lon="13.4324583225"><ele>1966.03</ele><time>2013-04-06T14:51:50Z</time></trkpt><trkpt lat="42.1726493631" lon="13.4324490186"><ele>1961.23</ele><time>2013-04-06T14:51:53Z</time></trkpt><trkpt lat="42.1727373730" lon="13.4323416464"><ele>1957.86</ele><time>2013-04-06T14:51:58Z</time></trkpt><trkpt lat="42.1727859881" lon="13.4324201010"><ele>1954.98</ele><time>2013-04-06T14:52:01Z</time></trkpt><trkpt lat="42.1728289034" lon="13.4323530458"><ele>1950.65</ele><time>2013-04-06T14:52:04Z</time></trkpt><trkpt lat="42.1728434879" lon="13.4323036764"><ele>1950.17</ele><time>2013-04-06T14:52:06Z</time></trkpt><trkpt lat="42.1729239542" lon="13.4323923569"><ele>1946.81</ele><time>2013-04-06T14:52:11Z</time></trkpt><trkpt lat="42.1729573142" lon="13.4324097075"><ele>1943.44</ele><time>2013-04-06T14:52:14Z</time></trkpt><trkpt lat="42.1730327513" lon="13.4324185085"><ele>1940.08</ele><time>2013-04-06T14:52:18Z</time></trkpt><trkpt lat="42.1730513591" lon="13.4324644413"><ele>1939.12</ele><time>2013-04-06T14:52:20Z</time></trkpt><trkpt lat="42.1730734874" lon="13.4324516170"><ele>1936.71</ele><time>2013-04-06T14:52:22Z</time></trkpt><trkpt lat="42.1731160674" lon="13.4324142337"><ele>1935.27</ele><time>2013-04-06T14:52:24Z</time></trkpt><trkpt lat="42.1732288878" lon="13.4324154072"><ele>1929.98</ele><time>2013-04-06T14:52:28Z</time></trkpt><trkpt lat="42.1733003855" lon="13.4323991463"><ele>1925.18</ele><time>2013-04-06T14:52:31Z</time></trkpt><trkpt lat="42.1733036544" lon="13.4323762637"><ele>1924.70</ele><time>2013-04-06T14:52:33Z</time></trkpt><trkpt lat="42.1733804327" lon="13.4323842265"><ele>1920.37</ele><time>2013-04-06T14:52:36Z</time></trkpt><trkpt lat="42.1735011321" lon="13.4323569853"><ele>1915.56</ele><time>2013-04-06T14:52:39Z</time></trkpt><trkpt lat="42.1735374257" lon="13.4323187638"><ele>1915.08</ele><time>2013-04-06T14:52:41Z</time></trkpt><trkpt lat="42.1735780779" lon="13.4323211946"><ele>1911.72</ele><time>2013-04-06T14:52:43Z</time></trkpt><trkpt lat="42.1736168861" lon="13.4323522076"><ele>1910.28</ele><time>2013-04-06T14:52:45Z</time></trkpt><trkpt lat="42.1736577898" lon="13.4323227033"><ele>1905.95</ele><time>2013-04-06T14:52:47Z</time></trkpt><trkpt lat="42.1736841928" lon="13.4322497807"><ele>1904.03</ele><time>2013-04-06T14:52:49Z</time></trkpt><trkpt lat="42.1736989450" lon="13.4321971424"><ele>1903.55</ele><time>2013-04-06T14:52:51Z</time></trkpt><trkpt lat="42.1737846918" lon="13.4321934544"><ele>1899.22</ele><time>2013-04-06T14:52:54Z</time></trkpt><trkpt lat="42.1737911459" lon="13.4322184324"><ele>1898.74</ele><time>2013-04-06T14:52:55Z</time></trkpt><trkpt lat="42.1738795750" lon="13.4321338590"><ele>1893.93</ele><time>2013-04-06T14:52:59Z</time></trkpt><trkpt lat="42.1738938242" lon="13.4321071208"><ele>1894.42</ele><time>2013-04-06T14:53:00Z</time></trkpt><trkpt lat="42.1739754640" lon="13.4320778679"><ele>1890.57</ele><time>2013-04-06T14:53:03Z</time></trkpt><trkpt lat="42.1740103327" lon="13.4320770297"><ele>1888.17</ele><time>2013-04-06T14:53:04Z</time></trkpt><trkpt lat="42.1740713529" lon="13.4319468588"><ele>1885.76</ele><time>2013-04-06T14:53:07Z</time></trkpt><trkpt lat="42.1741797309" lon="13.4317684919"><ele>1882.40</ele><time>2013-04-06T14:53:11Z</time></trkpt><trkpt lat="42.1743228938" lon="13.4317304380"><ele>1877.11</ele><time>2013-04-06T14:53:17Z</time></trkpt><trkpt lat="42.1743460279" lon="13.4317759518"><ele>1875.67</ele><time>2013-04-06T14:53:19Z</time></trkpt><trkpt lat="42.1744033601" lon="13.4317218885"><ele>1871.34</ele><time>2013-04-06T14:53:23Z</time></trkpt><trkpt lat="42.1744059585" lon="13.4317136742"><ele>1871.34</ele><time>2013-04-06T14:53:24Z</time></trkpt><trkpt lat="42.1743792202" lon="13.4317144286"><ele>1871.82</ele><time>2013-04-06T14:53:29Z</time></trkpt><trkpt lat="42.1744694095" lon="13.4317555837"><ele>1867.50</ele><time>2013-04-06T14:53:33Z</time></trkpt><trkpt lat="42.1745483670" lon="13.4317659773"><ele>1864.13</ele><time>2013-04-06T14:53:38Z</time></trkpt><trkpt lat="42.1746513806" lon="13.4316749498"><ele>1860.29</ele><time>2013-04-06T14:53:44Z</time></trkpt><trkpt lat="42.1746756043" lon="13.4317565896"><ele>1856.44</ele><time>2013-04-06T14:53:46Z</time></trkpt><trkpt lat="42.1746768616" lon="13.4317764547"><ele>1856.44</ele><time>2013-04-06T14:53:47Z</time></trkpt><trkpt lat="42.1747334395" lon="13.4317515604"><ele>1852.60</ele><time>2013-04-06T14:53:51Z</time></trkpt><trkpt lat="42.1747455094" lon="13.4316831641"><ele>1851.16</ele><time>2013-04-06T14:54:00Z</time></trkpt><trkpt lat="42.1748163365" lon="13.4317145124"><ele>1847.79</ele><time>2013-04-06T14:54:03Z</time></trkpt><trkpt lat="42.1748890914" lon="13.4317090642"><ele>1844.43</ele><time>2013-04-06T14:54:06Z</time></trkpt><trkpt lat="42.1749585774" lon="13.4316903725"><ele>1840.10</ele><time>2013-04-06T14:54:10Z</time></trkpt><trkpt lat="42.1749679651" lon="13.4317391552"><ele>1838.66</ele><time>2013-04-06T14:54:12Z</time></trkpt><trkpt lat="42.1750386246" lon="13.4316999279"><ele>1835.29</ele><time>2013-04-06T14:54:15Z</time></trkpt><trkpt lat="42.1751023270" lon="13.4315830003"><ele>1832.41</ele><time>2013-04-06T14:54:20Z</time></trkpt><trkpt lat="42.1751262154" lon="13.4315974172"><ele>1830.49</ele><time>2013-04-06T14:54:21Z</time></trkpt><trkpt lat="42.1752300672" lon="13.4315645602"><ele>1825.20</ele><time>2013-04-06T14:54:26Z</time></trkpt><trkpt lat="42.1752695460" lon="13.4314413462"><ele>1822.80</ele><time>2013-04-06T14:54:31Z</time></trkpt><trkpt lat="42.1753704641" lon="13.4311745502"><ele>1819.43</ele><time>2013-04-06T14:54:43Z</time></trkpt><trkpt lat="42.1753901616" lon="13.4310818464"><ele>1818.47</ele><time>2013-04-06T14:54:49Z</time></trkpt><trkpt lat="42.1754699573" lon="13.4310824331"><ele>1815.59</ele><time>2013-04-06T14:54:54Z</time></trkpt><trkpt lat="42.1754794288" lon="13.4310851991"><ele>1815.59</ele><time>2013-04-06T14:54:55Z</time></trkpt><trkpt lat="42.1755225118" lon="13.4310367517"><ele>1812.70</ele><time>2013-04-06T14:55:00Z</time></trkpt><trkpt lat="42.1755089331" lon="13.4310304653"><ele>1812.70</ele><time>2013-04-06T14:55:02Z</time></trkpt><trkpt lat="42.1755265351" lon="13.4309642483"><ele>1810.78</ele><time>2013-04-06T14:55:18Z</time></trkpt><trkpt lat="42.1755410358" lon="13.4309080895"><ele>1809.34</ele><time>2013-04-06T14:55:40Z</time></trkpt><trkpt lat="42.1756209154" lon="13.4308756515"><ele>1805.49</ele><time>2013-04-06T14:55:43Z</time></trkpt><trkpt lat="42.1756526828" lon="13.4309178125"><ele>1803.57</ele><time>2013-04-06T14:55:55Z</time></trkpt><trkpt lat="42.1756620705" lon="13.4309217520"><ele>1802.61</ele><time>2013-04-06T14:55:59Z</time></trkpt><trkpt lat="42.1757542714" lon="13.4309447184"><ele>1799.73</ele><time>2013-04-06T14:56:06Z</time></trkpt><trkpt lat="42.1757868771" lon="13.4309685230"><ele>1797.32</ele><time>2013-04-06T14:56:11Z</time></trkpt><trkpt lat="42.1758218296" lon="13.4308971930"><ele>1794.44</ele><time>2013-04-06T14:56:17Z</time></trkpt><trkpt lat="42.1758934110" lon="13.4308971930"><ele>1790.59</ele><time>2013-04-06T14:56:21Z</time></trkpt><trkpt lat="42.1758976020" lon="13.4309033118"><ele>1791.07</ele><time>2013-04-06T14:56:22Z</time></trkpt><trkpt lat="42.1759263519" lon="13.4308577981"><ele>1787.71</ele><time>2013-04-06T14:56:26Z</time></trkpt><trkpt lat="42.1759307105" lon="13.4308395255"><ele>1787.23</ele><time>2013-04-06T14:56:29Z</time></trkpt><trkpt lat="42.1760035492" lon="13.4308624081"><ele>1784.34</ele><time>2013-04-06T14:56:32Z</time></trkpt><trkpt lat="42.1760187205" lon="13.4308465663"><ele>1781.94</ele><time>2013-04-06T14:56:48Z</time></trkpt><trkpt lat="42.1760364901" lon="13.4308557026"><ele>1780.02</ele><time>2013-04-06T14:57:04Z</time></trkpt><trkpt lat="42.1760488953" lon="13.4308528528"><ele>1779.54</ele><time>2013-04-06T14:57:08Z</time></trkpt><trkpt lat="42.1761953272" lon="13.4308883082"><ele>1775.69</ele><time>2013-04-06T14:57:18Z</time></trkpt><trkpt lat="42.1762990952" lon="13.4308294673"><ele>1771.85</ele><time>2013-04-06T14:57:24Z</time></trkpt><trkpt lat="42.1763677429" lon="13.4308442194"><ele>1769.92</ele><time>2013-04-06T14:57:27Z</time></trkpt><trkpt lat="42.1764252428" lon="13.4308186546"><ele>1766.56</ele><time>2013-04-06T14:57:30Z</time></trkpt><trkpt lat="42.1764487121" lon="13.4308437165"><ele>1765.12</ele><time>2013-04-06T14:57:31Z</time></trkpt><trkpt lat="42.1765389852" lon="13.4307752363"><ele>1761.27</ele><time>2013-04-06T14:57:38Z</time></trkpt><trkpt lat="42.1766171884" lon="13.4307907429"><ele>1756.95</ele><time>2013-04-06T14:57:41Z</time></trkpt><trkpt lat="42.1766345389" lon="13.4308189061"><ele>1756.47</ele><time>2013-04-06T14:57:42Z</time></trkpt><trkpt lat="42.1767178550" lon="13.4308090992"><ele>1752.62</ele><time>2013-04-06T14:57:47Z</time></trkpt><trkpt lat="42.1767294221" lon="13.4308025613"><ele>1752.62</ele><time>2013-04-06T14:57:48Z</time></trkpt><trkpt lat="42.1767100599" lon="13.4307779185"><ele>1753.10</ele><time>2013-04-06T14:58:18Z</time></trkpt><trkpt lat="42.1767035220" lon="13.4307858814"><ele>1753.10</ele><time>2013-04-06T14:58:56Z</time></trkpt><trkpt lat="42.1767039411" lon="13.4307844564"><ele>1753.10</ele><time>2013-04-06T14:58:58Z</time></trkpt><trkpt lat="42.1767243091" lon="13.4306590632"><ele>1751.66</ele><time>2013-04-06T14:59:11Z</time></trkpt><trkpt lat="42.1767583396" lon="13.4306747373"><ele>1749.74</ele><time>2013-04-06T14:59:14Z</time></trkpt><trkpt lat="42.1767598484" lon="13.4306893218"><ele>1749.74</ele><time>2013-04-06T14:59:15Z</time></trkpt><trkpt lat="42.1767706610" lon="13.4307795949"><ele>1747.81</ele><time>2013-04-06T14:59:33Z</time></trkpt><trkpt lat="42.1767807193" lon="13.4308675211"><ele>1746.37</ele><time>2013-04-06T14:59:49Z</time></trkpt><trkpt lat="42.1767876763" lon="13.4309513401"><ele>1746.85</ele><time>2013-04-06T14:59:54Z</time></trkpt><trkpt lat="42.1768784523" lon="13.4309123643"><ele>1741.08</ele><time>2013-04-06T14:59:59Z</time></trkpt><trkpt lat="42.1768889297" lon="13.4309036471"><ele>1741.08</ele><time>2013-04-06T15:00:00Z</time></trkpt><trkpt lat="42.1768905222" lon="13.4308973607"><ele>1741.57</ele><time>2013-04-06T15:00:01Z</time></trkpt><trkpt lat="42.1769126505" lon="13.4308141284"><ele>1739.64</ele><time>2013-04-06T15:00:07Z</time></trkpt><trkpt lat="42.1769540571" lon="13.4308797587"><ele>1737.24</ele><time>2013-04-06T15:00:11Z</time></trkpt><trkpt lat="42.1769647859" lon="13.4308798425"><ele>1736.76</ele><time>2013-04-06T15:00:14Z</time></trkpt><trkpt lat="42.1770069469" lon="13.4307782538"><ele>1733.88</ele><time>2013-04-06T15:00:23Z</time></trkpt><trkpt lat="42.1770553943" lon="13.4308036510"><ele>1731.95</ele><time>2013-04-06T15:00:26Z</time></trkpt><trkpt lat="42.1770703141" lon="13.4309051558"><ele>1730.51</ele><time>2013-04-06T15:00:42Z</time></trkpt><trkpt lat="42.1770875808" lon="13.4309246857"><ele>1728.59</ele><time>2013-04-06T15:00:58Z</time></trkpt><trkpt lat="42.1770949569" lon="13.4309444670"><ele>1728.11</ele><time>2013-04-06T15:01:11Z</time></trkpt><trkpt lat="42.1771211922" lon="13.4309740551"><ele>1726.67</ele><time>2013-04-06T15:01:24Z</time></trkpt><trkpt lat="42.1771788597" lon="13.4309056588"><ele>1723.78</ele><time>2013-04-06T15:01:32Z</time></trkpt><trkpt lat="42.1772275586" lon="13.4307739791"><ele>1719.94</ele><time>2013-04-06T15:01:40Z</time></trkpt><trkpt lat="42.1772344317" lon="13.4307468217"><ele>1719.46</ele><time>2013-04-06T15:01:44Z</time></trkpt><trkpt lat="42.1772646066" lon="13.4306938481"><ele>1718.01</ele><time>2013-04-06T15:01:52Z</time></trkpt><trkpt lat="42.1773744095" lon="13.4306815267"><ele>1714.17</ele><time>2013-04-06T15:01:57Z</time></trkpt><trkpt lat="42.1774480026" lon="13.4307808522"><ele>1709.84</ele><time>2013-04-06T15:01:59Z</time></trkpt><trkpt lat="42.1774657723" lon="13.4308324009"><ele>1708.88</ele><time>2013-04-06T15:02:01Z</time></trkpt><trkpt lat="42.1774840448" lon="13.4308947623"><ele>1707.44</ele><time>2013-04-06T15:02:21Z</time></trkpt><trkpt lat="42.1774963662" lon="13.4309249371"><ele>1706.00</ele><time>2013-04-06T15:02:35Z</time></trkpt><trkpt lat="42.1775049996" lon="13.4309364203"><ele>1705.52</ele><time>2013-04-06T15:03:06Z</time></trkpt><trkpt lat="42.1775086038" lon="13.4309388511"><ele>1705.52</ele><time>2013-04-06T15:03:07Z</time></trkpt><trkpt lat="42.1775366832" lon="13.4309976920"><ele>1703.59</ele><time>2013-04-06T15:03:21Z</time></trkpt><trkpt lat="42.1775892377" lon="13.4310877137"><ele>1699.75</ele><time>2013-04-06T15:03:37Z</time></trkpt><trkpt lat="42.1775951050" lon="13.4310955927"><ele>1699.75</ele><time>2013-04-06T15:03:41Z</time></trkpt><trkpt lat="42.1776346676" lon="13.4310715366"><ele>1697.34</ele><time>2013-04-06T15:03:45Z</time></trkpt><trkpt lat="42.1776333265" lon="13.4310636576"><ele>1696.86</ele><time>2013-04-06T15:03:53Z</time></trkpt><trkpt lat="42.1776914131" lon="13.4311696049"><ele>1693.98</ele><time>2013-04-06T15:03:57Z</time></trkpt><trkpt lat="42.1777176484" lon="13.4313532524"><ele>1691.58</ele><time>2013-04-06T15:04:06Z</time></trkpt><trkpt lat="42.1777861286" lon="13.4313698485"><ele>1688.21</ele><time>2013-04-06T15:04:11Z</time></trkpt><trkpt lat="42.1777940076" lon="13.4313144442"><ele>1687.25</ele><time>2013-04-06T15:04:26Z</time></trkpt><trkpt lat="42.1778007969" lon="13.4313119296"><ele>1686.77</ele><time>2013-04-06T15:04:47Z</time></trkpt><trkpt lat="42.1777959354" lon="13.4313113429"><ele>1685.81</ele><time>2013-04-06T15:05:06Z</time></trkpt><trkpt lat="42.1778074186" lon="13.4312989376"><ele>1684.85</ele><time>2013-04-06T15:05:27Z</time></trkpt><trkpt lat="42.1778120287" lon="13.4313048888"><ele>1684.85</ele><time>2013-04-06T15:05:43Z</time></trkpt><trkpt lat="42.1778073348" lon="13.4313002788"><ele>1684.37</ele><time>2013-04-06T15:06:07Z</time></trkpt><trkpt lat="42.1778117772" lon="13.4313152824"><ele>1683.89</ele><time>2013-04-06T15:06:34Z</time></trkpt><trkpt lat="42.1778056584" lon="13.4313285258"><ele>1684.85</ele><time>2013-04-06T15:06:58Z</time></trkpt><trkpt lat="42.1778220870" lon="13.4313449543"><ele>1684.37</ele><time>2013-04-06T15:07:17Z</time></trkpt><trkpt lat="42.1778795868" lon="13.4315476287"><ele>1681.00</ele><time>2013-04-06T15:07:30Z</time></trkpt><trkpt lat="42.1779200714" lon="13.4315966628"><ele>1679.56</ele><time>2013-04-06T15:07:45Z</time></trkpt><trkpt lat="42.1779378410" lon="13.4316152707"><ele>1678.12</ele><time>2013-04-06T15:08:00Z</time></trkpt><trkpt lat="42.1779585443" lon="13.4316244069"><ele>1676.68</ele><time>2013-04-06T15:08:19Z</time></trkpt><trkpt lat="42.1779702790" lon="13.4316262510"><ele>1675.23</ele><time>2013-04-06T15:08:40Z</time></trkpt><trkpt lat="42.1779742185" lon="13.4316304419"><ele>1674.27</ele><time>2013-04-06T15:08:55Z</time></trkpt><trkpt lat="42.1780105121" lon="13.4317244869"><ele>1671.87</ele><time>2013-04-06T15:09:02Z</time></trkpt><trkpt lat="42.1780237556" lon="13.4317586012"><ele>1670.43</ele><time>2013-04-06T15:09:07Z</time></trkpt><trkpt lat="42.1780292876" lon="13.4318082221"><ele>1669.95</ele><time>2013-04-06T15:09:09Z</time></trkpt><trkpt lat="42.1780338977" lon="13.4318304341"><ele>1669.47</ele><time>2013-04-06T15:09:13Z</time></trkpt><trkpt lat="42.1780610550" lon="13.4318859223"><ele>1667.54</ele><time>2013-04-06T15:09:17Z</time></trkpt><trkpt lat="42.1780660842" lon="13.4319788776"><ele>1664.66</ele><time>2013-04-06T15:09:31Z</time></trkpt><trkpt lat="42.1780743822" lon="13.4320093039"><ele>1663.70</ele><time>2013-04-06T15:09:51Z</time></trkpt><trkpt lat="42.1780848596" lon="13.4320171829"><ele>1662.26</ele><time>2013-04-06T15:10:19Z</time></trkpt><trkpt lat="42.1781007852" lon="13.4320228826"><ele>1661.30</ele><time>2013-04-06T15:10:40Z</time></trkpt><trkpt lat="42.1781095862" lon="13.4320455138"><ele>1659.85</ele><time>2013-04-06T15:11:01Z</time></trkpt><trkpt lat="42.1781217400" lon="13.4320590086"><ele>1658.41</ele><time>2013-04-06T15:11:24Z</time></trkpt><trkpt lat="42.1781307086" lon="13.4320759401"><ele>1657.45</ele><time>2013-04-06T15:11:50Z</time></trkpt><trkpt lat="42.1781350672" lon="13.4320896864"><ele>1656.49</ele><time>2013-04-06T15:12:11Z</time></trkpt><trkpt lat="42.1781448741" lon="13.4321004152"><ele>1655.53</ele><time>2013-04-06T15:12:32Z</time></trkpt><trkpt lat="42.1781527530" lon="13.4321398102"><ele>1655.05</ele><time>2013-04-06T15:12:50Z</time></trkpt><trkpt lat="42.1781653259" lon="13.4321590886"><ele>1654.09</ele><time>2013-04-06T15:13:06Z</time></trkpt><trkpt lat="42.1781683434" lon="13.4321838990"><ele>1653.12</ele><time>2013-04-06T15:13:30Z</time></trkpt><trkpt lat="42.1781777311" lon="13.4322031774"><ele>1652.16</ele><time>2013-04-06T15:13:49Z</time></trkpt><trkpt lat="42.1781987697" lon="13.4322548099"><ele>1650.72</ele><time>2013-04-06T15:14:08Z</time></trkpt><trkpt lat="42.1782059781" lon="13.4322918579"><ele>1648.80</ele><time>2013-04-06T15:14:27Z</time></trkpt><trkpt lat="42.1782394219" lon="13.4323473461"><ele>1646.88</ele><time>2013-04-06T15:14:47Z</time></trkpt><trkpt lat="42.1782436129" lon="13.4323658701"><ele>1645.91</ele><time>2013-04-06T15:15:10Z</time></trkpt><trkpt lat="42.1782454569" lon="13.4323680494"><ele>1645.91</ele><time>2013-04-06T15:15:19Z</time></trkpt><trkpt lat="42.1782598738" lon="13.4324569814"><ele>1643.51</ele><time>2013-04-06T15:15:24Z</time></trkpt><trkpt lat="42.1782684233" lon="13.4324786905"><ele>1643.03</ele><time>2013-04-06T15:15:30Z</time></trkpt><trkpt lat="42.1783163678" lon="13.4326236974"><ele>1640.15</ele><time>2013-04-06T15:15:36Z</time></trkpt><trkpt lat="42.1783194691" lon="13.4326934349"><ele>1639.67</ele><time>2013-04-06T15:15:50Z</time></trkpt><trkpt lat="42.1783490572" lon="13.4327510186"><ele>1638.22</ele><time>2013-04-06T15:16:09Z</time></trkpt><trkpt lat="42.1784167830" lon="13.4328414593"><ele>1634.86</ele><time>2013-04-06T15:16:15Z</time></trkpt><trkpt lat="42.1784939803" lon="13.4329685289"><ele>1631.98</ele><time>2013-04-06T15:16:26Z</time></trkpt><trkpt lat="42.1785314474" lon="13.4330047388"><ele>1630.53</ele><time>2013-04-06T15:16:29Z</time></trkpt><trkpt lat="42.1785537433" lon="13.4330111090"><ele>1630.05</ele><time>2013-04-06T15:16:34Z</time></trkpt><trkpt lat="42.1786165237" lon="13.4330776613"><ele>1628.13</ele><time>2013-04-06T15:16:38Z</time></trkpt><trkpt lat="42.1786787175" lon="13.4331292938"><ele>1625.73</ele><time>2013-04-06T15:16:42Z</time></trkpt><trkpt lat="42.1786953975" lon="13.4331474826"><ele>1625.25</ele><time>2013-04-06T15:17:01Z</time></trkpt><trkpt lat="42.1787496284" lon="13.4332348220"><ele>1623.32</ele><time>2013-04-06T15:17:09Z</time></trkpt><trkpt lat="42.1787727624" lon="13.4332764801"><ele>1622.36</ele><time>2013-04-06T15:17:11Z</time></trkpt><trkpt lat="42.1788038593" lon="13.4333059005"><ele>1621.88</ele><time>2013-04-06T15:17:27Z</time></trkpt><trkpt lat="42.1788347885" lon="13.4333395120"><ele>1620.92</ele><time>2013-04-06T15:17:50Z</time></trkpt><trkpt lat="42.1788526420" lon="13.4333373327"><ele>1620.44</ele><time>2013-04-06T15:17:58Z</time></trkpt><trkpt lat="42.1789181884" lon="13.4333981853"><ele>1618.52</ele><time>2013-04-06T15:18:02Z</time></trkpt><trkpt lat="42.1789270733" lon="13.4333587065"><ele>1617.07</ele><time>2013-04-06T15:18:18Z</time></trkpt><trkpt lat="42.1789266542" lon="13.4333070740"><ele>1616.59</ele><time>2013-04-06T15:18:30Z</time></trkpt><trkpt lat="42.1789398137" lon="13.4332743008"><ele>1615.15</ele><time>2013-04-06T15:18:41Z</time></trkpt><trkpt lat="42.1789735928" lon="13.4332930762"><ele>1613.71</ele><time>2013-04-06T15:18:45Z</time></trkpt><trkpt lat="42.1790004149" lon="13.4333172999"><ele>1612.75</ele><time>2013-04-06T15:18:57Z</time></trkpt><trkpt lat="42.1790250577" lon="13.4333354887"><ele>1611.31</ele><time>2013-04-06T15:19:14Z</time></trkpt><trkpt lat="42.1790481079" lon="13.4333680943"><ele>1611.31</ele><time>2013-04-06T15:19:39Z</time></trkpt><trkpt lat="42.1790680569" lon="13.4333746321"><ele>1610.83</ele><time>2013-04-06T15:19:44Z</time></trkpt><trkpt lat="42.1791578270" lon="13.4334430285"><ele>1606.98</ele><time>2013-04-06T15:19:49Z</time></trkpt><trkpt lat="42.1791745070" lon="13.4334654082"><ele>1606.02</ele><time>2013-04-06T15:19:50Z</time></trkpt><trkpt lat="42.1791891754" lon="13.4335134365"><ele>1605.54</ele><time>2013-04-06T15:19:52Z</time></trkpt><trkpt lat="42.1792041790" lon="13.4336321242"><ele>1604.58</ele><time>2013-04-06T15:20:09Z</time></trkpt><trkpt lat="42.1792464238" lon="13.4336856008"><ele>1602.66</ele><time>2013-04-06T15:20:27Z</time></trkpt><trkpt lat="42.1792393830" lon="13.4336939827"><ele>1602.66</ele><time>2013-04-06T15:20:56Z</time></trkpt><trkpt lat="42.1792621817" lon="13.4337721020"><ele>1601.21</ele><time>2013-04-06T15:21:14Z</time></trkpt><trkpt lat="42.1792548057" lon="13.4337925538"><ele>1601.69</ele><time>2013-04-06T15:21:33Z</time></trkpt><trkpt lat="42.1792638581" lon="13.4338112455"><ele>1600.73</ele><time>2013-04-06T15:21:56Z</time></trkpt><trkpt lat="42.1792786103" lon="13.4338723496"><ele>1598.33</ele><time>2013-04-06T15:22:18Z</time></trkpt><trkpt lat="42.1792879142" lon="13.4338912088"><ele>1597.85</ele><time>2013-04-06T15:22:20Z</time></trkpt><trkpt lat="42.1793119702" lon="13.4340310190"><ele>1594.00</ele><time>2013-04-06T15:22:36Z</time></trkpt><trkpt lat="42.1793537959" lon="13.4341097251"><ele>1592.08</ele><time>2013-04-06T15:22:54Z</time></trkpt><trkpt lat="42.1793773491" lon="13.4342755191"><ele>1589.20</ele><time>2013-04-06T15:23:12Z</time></trkpt><trkpt lat="42.1793952025" lon="13.4343361203"><ele>1587.27</ele><time>2013-04-06T15:23:33Z</time></trkpt><trkpt lat="42.1794514451" lon="13.4344077017"><ele>1584.39</ele><time>2013-04-06T15:23:50Z</time></trkpt><trkpt lat="42.1794579830" lon="13.4344248008"><ele>1584.39</ele><time>2013-04-06T15:24:12Z</time></trkpt><trkpt lat="42.1794998087" lon="13.4345690534"><ele>1583.43</ele><time>2013-04-06T15:24:31Z</time></trkpt><trkpt lat="42.1795070171" lon="13.4346471727"><ele>1581.51</ele><time>2013-04-06T15:24:50Z</time></trkpt><trkpt lat="42.1795345936" lon="13.4346713126"><ele>1580.54</ele><time>2013-04-06T15:25:07Z</time></trkpt><trkpt lat="42.1795530338" lon="13.4346809518"><ele>1579.10</ele><time>2013-04-06T15:25:23Z</time></trkpt><trkpt lat="42.1795707196" lon="13.4347273037"><ele>1577.66</ele><time>2013-04-06T15:25:41Z</time></trkpt><trkpt lat="42.1795736533" lon="13.4347433969"><ele>1576.70</ele><time>2013-04-06T15:26:02Z</time></trkpt><trkpt lat="42.1795933507" lon="13.4347732365"><ele>1575.74</ele><time>2013-04-06T15:26:11Z</time></trkpt><trkpt lat="42.1796136349" lon="13.4348230250"><ele>1574.30</ele><time>2013-04-06T15:26:29Z</time></trkpt><trkpt lat="42.1796443965" lon="13.4348307364"><ele>1571.41</ele><time>2013-04-06T15:26:52Z</time></trkpt><trkpt lat="42.1796426363" lon="13.4348322451"><ele>1571.41</ele><time>2013-04-06T15:26:54Z</time></trkpt><trkpt lat="42.1796641778" lon="13.4348577261"><ele>1569.97</ele><time>2013-04-06T15:27:10Z</time></trkpt><trkpt lat="42.1796949394" lon="13.4348801896"><ele>1569.01</ele><time>2013-04-06T15:27:27Z</time></trkpt><trkpt lat="42.1797217615" lon="13.4348864760"><ele>1568.05</ele><time>2013-04-06T15:27:35Z</time></trkpt><trkpt lat="42.1797493380" lon="13.4349130467"><ele>1565.64</ele><time>2013-04-06T15:27:55Z</time></trkpt><trkpt lat="42.1797589771" lon="13.4349216800"><ele>1564.68</ele><time>2013-04-06T15:28:12Z</time></trkpt><trkpt lat="42.1797705442" lon="13.4349244460"><ele>1563.24</ele><time>2013-04-06T15:28:31Z</time></trkpt><trkpt lat="42.1797735617" lon="13.4349262901"><ele>1563.24</ele><time>2013-04-06T15:28:35Z</time></trkpt><trkpt lat="42.1798065025" lon="13.4349653497"><ele>1561.80</ele><time>2013-04-06T15:28:52Z</time></trkpt><trkpt lat="42.1798243560" lon="13.4349869750"><ele>1561.32</ele><time>2013-04-06T15:28:57Z</time></trkpt><trkpt lat="42.1798795089" lon="13.4349213447"><ele>1558.92</ele><time>2013-04-06T15:29:10Z</time></trkpt><trkpt lat="42.1798845381" lon="13.4349118732"><ele>1558.43</ele><time>2013-04-06T15:29:11Z</time></trkpt><trkpt lat="42.1799125336" lon="13.4349614102"><ele>1556.99</ele><time>2013-04-06T15:29:15Z</time></trkpt><trkpt lat="42.1799464803" lon="13.4350432176"><ele>1555.07</ele><time>2013-04-06T15:29:32Z</time></trkpt><trkpt lat="42.1799754817" lon="13.4349921718"><ele>1553.63</ele><time>2013-04-06T15:29:45Z</time></trkpt><trkpt lat="42.1800318919" lon="13.4350527730"><ele>1551.22</ele><time>2013-04-06T15:29:50Z</time></trkpt><trkpt lat="42.1800489910" lon="13.4350922517"><ele>1550.26</ele><time>2013-04-06T15:30:13Z</time></trkpt><trkpt lat="42.1800725441" lon="13.4351807646"><ele>1549.30</ele><time>2013-04-06T15:30:26Z</time></trkpt><trkpt lat="42.1801010426" lon="13.4352327324"><ele>1548.34</ele><time>2013-04-06T15:30:44Z</time></trkpt><trkpt lat="42.1801002882" lon="13.4352578782"><ele>1547.86</ele><time>2013-04-06T15:31:05Z</time></trkpt><trkpt lat="42.1801299602" lon="13.4352619015"><ele>1547.38</ele><time>2013-04-06T15:31:25Z</time></trkpt><trkpt lat="42.1801387612" lon="13.4352458920"><ele>1547.38</ele><time>2013-04-06T15:31:30Z</time></trkpt><trkpt lat="42.1801880468" lon="13.4352188185"><ele>1546.42</ele><time>2013-04-06T15:31:42Z</time></trkpt><trkpt lat="42.1803337242" lon="13.4353893064"><ele>1542.09</ele><time>2013-04-06T15:31:49Z</time></trkpt><trkpt lat="42.1804553457" lon="13.4355187230"><ele>1539.69</ele><time>2013-04-06T15:32:03Z</time></trkpt><trkpt lat="42.1804535855" lon="13.4355153702"><ele>1540.17</ele><time>2013-04-06T15:32:31Z</time></trkpt><trkpt lat="42.1804546751" lon="13.4355147835"><ele>1539.69</ele><time>2013-04-06T15:32:56Z</time></trkpt><trkpt lat="42.1804657392" lon="13.4355273563"><ele>1540.17</ele><time>2013-04-06T15:33:19Z</time></trkpt><trkpt lat="42.1805099119" lon="13.4355497360"><ele>1540.17</ele><time>2013-04-06T15:33:24Z</time></trkpt><trkpt lat="42.1805327106" lon="13.4355675895"><ele>1540.17</ele><time>2013-04-06T15:33:28Z</time></trkpt><trkpt lat="42.1805522405" lon="13.4356124327"><ele>1540.65</ele><time>2013-04-06T15:33:42Z</time></trkpt><trkpt lat="42.1805561800" lon="13.4356125165"><ele>1539.21</ele><time>2013-04-06T15:33:54Z</time></trkpt><trkpt lat="42.1805494744" lon="13.4356219880"><ele>1539.21</ele><time>2013-04-06T15:34:48Z</time></trkpt><trkpt lat="42.1805520728" lon="13.4356111754"><ele>1538.73</ele><time>2013-04-06T15:35:43Z</time></trkpt><trkpt lat="42.1805410925" lon="13.4356141090"><ele>1538.73</ele><time>2013-04-06T15:36:10Z</time></trkpt><trkpt lat="42.1805451158" lon="13.4356269334"><ele>1538.73</ele><time>2013-04-06T15:36:39Z</time></trkpt><trkpt lat="42.1805498097" lon="13.4356288612"><ele>1538.73</ele><time>2013-04-06T15:37:02Z</time></trkpt><trkpt lat="42.1805581078" lon="13.4356214013"><ele>1540.17</ele><time>2013-04-06T15:37:06Z</time></trkpt><trkpt lat="42.1805563476" lon="13.4356234130"><ele>1540.17</ele><time>2013-04-06T15:37:26Z</time></trkpt><trkpt lat="42.1805718541" lon="13.4356589522"><ele>1539.69</ele><time>2013-04-06T15:37:42Z</time></trkpt><trkpt lat="42.1806402504" lon="13.4357036278"><ele>1540.65</ele><time>2013-04-06T15:37:50Z</time></trkpt><trkpt lat="42.1807343792" lon="13.4357620496"><ele>1539.21</ele><time>2013-04-06T15:37:57Z</time></trkpt><trkpt lat="42.1809829026" lon="13.4358672425"><ele>1535.36</ele><time>2013-04-06T15:38:10Z</time></trkpt><trkpt lat="42.1810555737" lon="13.4359156899"><ele>1535.36</ele><time>2013-04-06T15:38:16Z</time></trkpt><trkpt lat="42.1810845751" lon="13.4359398298"><ele>1534.88</ele><time>2013-04-06T15:38:19Z</time></trkpt><trkpt lat="42.1810964774" lon="13.4359548334"><ele>1534.88</ele><time>2013-04-06T15:38:21Z</time></trkpt><trkpt lat="42.1811622754" lon="13.4360134229"><ele>1534.88</ele><time>2013-04-06T15:38:26Z</time></trkpt><trkpt lat="42.1813295782" lon="13.4361851681"><ele>1533.44</ele><time>2013-04-06T15:38:39Z</time></trkpt><trkpt lat="42.1814101283" lon="13.4363090526"><ele>1532.00</ele><time>2013-04-06T15:38:57Z</time></trkpt><trkpt lat="42.1813972201" lon="13.4363057837"><ele>1532.48</ele><time>2013-04-06T15:39:29Z</time></trkpt><trkpt lat="42.1814087871" lon="13.4363211226"><ele>1532.48</ele><time>2013-04-06T15:39:47Z</time></trkpt><trkpt lat="42.1815290675" lon="13.4365400579"><ele>1532.00</ele><time>2013-04-06T15:40:03Z</time></trkpt><trkpt lat="42.1815533750" lon="13.4365884215"><ele>1532.00</ele><time>2013-04-06T15:40:06Z</time></trkpt><trkpt lat="42.1816035826" lon="13.4366683010"><ele>1531.52</ele><time>2013-04-06T15:40:11Z</time></trkpt><trkpt lat="42.1816853900" lon="13.4368650243"><ele>1531.04</ele><time>2013-04-06T15:40:24Z</time></trkpt><trkpt lat="42.1817235276" lon="13.4369549621"><ele>1530.56</ele><time>2013-04-06T15:40:30Z</time></trkpt><trkpt lat="42.1817722265" lon="13.4370324947"><ele>1530.08</ele><time>2013-04-06T15:40:36Z</time></trkpt><trkpt lat="42.1818200871" lon="13.4371206723"><ele>1530.56</ele><time>2013-04-06T15:40:42Z</time></trkpt><trkpt lat="42.1818462387" lon="13.4371743165"><ele>1529.59</ele><time>2013-04-06T15:40:46Z</time></trkpt><trkpt lat="42.1818928421" lon="13.4372821916"><ele>1530.08</ele><time>2013-04-06T15:40:54Z</time></trkpt><trkpt lat="42.1819213405" lon="13.4373433795"><ele>1529.59</ele><time>2013-04-06T15:40:59Z</time></trkpt><trkpt lat="42.1819469053" lon="13.4374072496"><ele>1529.59</ele><time>2013-04-06T15:41:04Z</time></trkpt><trkpt lat="42.1820753999" lon="13.4376598801"><ele>1529.11</ele><time>2013-04-06T15:41:21Z</time></trkpt><trkpt lat="42.1820849553" lon="13.4376871213"><ele>1529.11</ele><time>2013-04-06T15:41:23Z</time></trkpt><trkpt lat="42.1821034793" lon="13.4377607144"><ele>1528.63</ele><time>2013-04-06T15:41:28Z</time></trkpt><trkpt lat="42.1821582131" lon="13.4378776420"><ele>1528.15</ele><time>2013-04-06T15:41:35Z</time></trkpt><trkpt lat="42.1822689380" lon="13.4381021094"><ele>1527.19</ele><time>2013-04-06T15:41:49Z</time></trkpt><trkpt lat="42.1823320538" lon="13.4383222181"><ele>1526.23</ele><time>2013-04-06T15:42:03Z</time></trkpt><trkpt lat="42.1824151184" lon="13.4385567438"><ele>1526.71</ele><time>2013-04-06T15:42:17Z</time></trkpt><trkpt lat="42.1824555192" lon="13.4387378767"><ele>1525.27</ele><time>2013-04-06T15:42:30Z</time></trkpt><trkpt lat="42.1825251728" lon="13.4389968775"><ele>1523.83</ele><time>2013-04-06T15:42:46Z</time></trkpt><trkpt lat="42.1825573593" lon="13.4391050879"><ele>1523.35</ele><time>2013-04-06T15:42:53Z</time></trkpt><trkpt lat="42.1825587004" lon="13.4391550440"><ele>1523.35</ele><time>2013-04-06T15:42:57Z</time></trkpt><trkpt lat="42.1825668309" lon="13.4391687065"><ele>1523.35</ele><time>2013-04-06T15:42:59Z</time></trkpt><trkpt lat="42.1826136857" lon="13.4393096063"><ele>1523.35</ele><time>2013-04-06T15:43:11Z</time></trkpt><trkpt lat="42.1826062258" lon="13.4393570479"><ele>1523.35</ele><time>2013-04-06T15:43:29Z</time></trkpt><trkpt lat="42.1826029569" lon="13.4393551201"><ele>1523.35</ele><time>2013-04-06T15:43:43Z</time></trkpt><trkpt lat="42.1825968381" lon="13.4393936768"><ele>1523.35</ele><time>2013-04-06T15:43:46Z</time></trkpt><trkpt lat="42.1825959999" lon="13.4396027215"><ele>1524.31</ele><time>2013-04-06T15:44:03Z</time></trkpt><trkpt lat="42.1826123446" lon="13.4396893065"><ele>1523.83</ele><time>2013-04-06T15:44:09Z</time></trkpt><trkpt lat="42.1826118417" lon="13.4397544339"><ele>1524.31</ele><time>2013-04-06T15:44:14Z</time></trkpt><trkpt lat="42.1826159488" lon="13.4398089163"><ele>1525.75</ele><time>2013-04-06T15:44:18Z</time></trkpt><trkpt lat="42.1826172899" lon="13.4398354869"><ele>1524.79</ele><time>2013-04-06T15:44:20Z</time></trkpt><trkpt lat="42.1826369036" lon="13.4399207309"><ele>1525.27</ele><time>2013-04-06T15:44:29Z</time></trkpt><trkpt lat="42.1826815791" lon="13.4399814997"><ele>1525.75</ele><time>2013-04-06T15:44:36Z</time></trkpt><trkpt lat="42.1827073954" lon="13.4400519077"><ele>1526.23</ele><time>2013-04-06T15:44:43Z</time></trkpt><trkpt lat="42.1827674937" lon="13.4401650634"><ele>1526.71</ele><time>2013-04-06T15:44:58Z</time></trkpt><trkpt lat="42.1828471217" lon="13.4402342141"><ele>1527.19</ele><time>2013-04-06T15:45:13Z</time></trkpt><trkpt lat="42.1829213016" lon="13.4403230622"><ele>1527.67</ele><time>2013-04-06T15:45:23Z</time></trkpt><trkpt lat="42.1829576790" lon="13.4403927997"><ele>1528.15</ele><time>2013-04-06T15:45:30Z</time></trkpt><trkpt lat="42.1830084734" lon="13.4405188635"><ele>1527.19</ele><time>2013-04-06T15:45:38Z</time></trkpt><trkpt lat="42.1830244828" lon="13.4406046942"><ele>1527.19</ele><time>2013-04-06T15:45:44Z</time></trkpt><trkpt lat="42.1830608603" lon="13.4407225437"><ele>1527.19</ele><time>2013-04-06T15:45:51Z</time></trkpt><trkpt lat="42.1830834914" lon="13.4407818038"><ele>1526.71</ele><time>2013-04-06T15:45:55Z</time></trkpt><trkpt lat="42.1831021830" lon="13.4409170877"><ele>1525.75</ele><time>2013-04-06T15:46:04Z</time></trkpt><trkpt lat="42.1831668075" lon="13.4410714824"><ele>1525.75</ele><time>2013-04-06T15:46:14Z</time></trkpt><trkpt lat="42.1832407359" lon="13.4411626775"><ele>1525.27</ele><time>2013-04-06T15:46:21Z</time></trkpt><trkpt lat="42.1832952183" lon="13.4412461612"><ele>1524.31</ele><time>2013-04-06T15:46:26Z</time></trkpt><trkpt lat="42.1835032571" lon="13.4414555412"><ele>1523.35</ele><time>2013-04-06T15:46:46Z</time></trkpt><trkpt lat="42.1836698893" lon="13.4415785875"><ele>1520.46</ele><time>2013-04-06T15:46:56Z</time></trkpt><trkpt lat="42.1837419737" lon="13.4416496661"><ele>1519.50</ele><time>2013-04-06T15:47:02Z</time></trkpt><trkpt lat="42.1838079393" lon="13.4417354967"><ele>1519.02</ele><time>2013-04-06T15:47:09Z</time></trkpt><trkpt lat="42.1838388685" lon="13.4417806752"><ele>1518.54</ele><time>2013-04-06T15:47:12Z</time></trkpt><trkpt lat="42.1839467436" lon="13.4419229161"><ele>1518.06</ele><time>2013-04-06T15:47:23Z</time></trkpt><trkpt lat="42.1840355080" lon="13.4420719463"><ele>1517.10</ele><time>2013-04-06T15:47:34Z</time></trkpt><trkpt lat="42.1840569656" lon="13.4421412647"><ele>1516.14</ele><time>2013-04-06T15:47:39Z</time></trkpt><trkpt lat="42.1841075085" lon="13.4423622955"><ele>1516.14</ele><time>2013-04-06T15:47:58Z</time></trkpt><trkpt lat="42.1841039043" lon="13.4424302727"><ele>1516.62</ele><time>2013-04-06T15:48:04Z</time></trkpt><trkpt lat="42.1840889845" lon="13.4424912091"><ele>1517.10</ele><time>2013-04-06T15:48:10Z</time></trkpt><trkpt lat="42.1840780880" lon="13.4425367229"><ele>1517.58</ele><time>2013-04-06T15:48:15Z</time></trkpt><trkpt lat="42.1840595640" lon="13.4426033590"><ele>1518.06</ele><time>2013-04-06T15:48:21Z</time></trkpt><trkpt lat="42.1840469074" lon="13.4426811431"><ele>1518.06</ele><time>2013-04-06T15:48:25Z</time></trkpt><trkpt lat="42.1840285510" lon="13.4427942149"><ele>1517.10</ele><time>2013-04-06T15:48:30Z</time></trkpt><trkpt lat="42.1839625854" lon="13.4431247972"><ele>1517.10</ele><time>2013-04-06T15:48:49Z</time></trkpt><trkpt lat="42.1839335002" lon="13.4432471730"><ele>1517.10</ele><time>2013-04-06T15:48:58Z</time></trkpt><trkpt lat="42.1839231905" lon="13.4432967938"><ele>1517.58</ele><time>2013-04-06T15:49:02Z</time></trkpt><trkpt lat="42.1839106176" lon="13.4433915932"><ele>1516.62</ele><time>2013-04-06T15:49:09Z</time></trkpt><trkpt lat="42.1838563029" lon="13.4435883164"><ele>1515.66</ele><time>2013-04-06T15:49:22Z</time></trkpt><trkpt lat="42.1837667841" lon="13.4439331479"><ele>1513.73</ele><time>2013-04-06T15:49:39Z</time></trkpt><trkpt lat="42.1836660337" lon="13.4439897258"><ele>1513.25</ele><time>2013-04-06T15:49:47Z</time></trkpt><trkpt lat="42.1836545505" lon="13.4440426156"><ele>1514.69</ele><time>2013-04-06T15:49:50Z</time></trkpt><trkpt lat="42.1836226154" lon="13.4443831723"><ele>1511.33</ele><time>2013-04-06T15:50:03Z</time></trkpt><trkpt lat="42.1836123895" lon="13.4444575198"><ele>1511.33</ele><time>2013-04-06T15:50:08Z</time></trkpt><trkpt lat="42.1835954580" lon="13.4445265867"><ele>1511.33</ele><time>2013-04-06T15:50:12Z</time></trkpt><trkpt lat="42.1835496090" lon="13.4447118267"><ele>1510.85</ele><time>2013-04-06T15:50:29Z</time></trkpt><trkpt lat="42.1835408919" lon="13.4447461087"><ele>1510.85</ele><time>2013-04-06T15:50:32Z</time></trkpt><trkpt lat="42.1835243795" lon="13.4448591806"><ele>1510.85</ele><time>2013-04-06T15:50:39Z</time></trkpt><trkpt lat="42.1835002396" lon="13.4449850768"><ele>1510.85</ele><time>2013-04-06T15:50:48Z</time></trkpt><trkpt lat="42.1834931150" lon="13.4450263157"><ele>1509.89</ele><time>2013-04-06T15:50:51Z</time></trkpt><trkpt lat="42.1834820509" lon="13.4450203646"><ele>1509.89</ele><time>2013-04-06T15:51:09Z</time></trkpt><trkpt lat="42.1834748425" lon="13.4450338595"><ele>1509.89</ele><time>2013-04-06T15:51:29Z</time></trkpt><trkpt lat="42.1834717412" lon="13.4450459294"><ele>1509.89</ele><time>2013-04-06T15:51:33Z</time></trkpt><trkpt lat="42.1834546421" lon="13.4451009147"><ele>1509.89</ele><time>2013-04-06T15:51:37Z</time></trkpt><trkpt lat="42.1833946276" lon="13.4453598317"><ele>1508.93</ele><time>2013-04-06T15:51:51Z</time></trkpt><trkpt lat="42.1833567414" lon="13.4455484245"><ele>1508.93</ele><time>2013-04-06T15:52:03Z</time></trkpt><trkpt lat="42.1833439171" lon="13.4455955308"><ele>1508.45</ele><time>2013-04-06T15:52:07Z</time></trkpt><trkpt lat="42.1833269857" lon="13.4456966165"><ele>1508.93</ele><time>2013-04-06T15:52:14Z</time></trkpt><trkpt lat="42.1833174303" lon="13.4457629174"><ele>1508.93</ele><time>2013-04-06T15:52:18Z</time></trkpt><trkpt lat="42.1832730900" lon="13.4460487403"><ele>1507.97</ele><time>2013-04-06T15:52:37Z</time></trkpt><trkpt lat="42.1832705755" lon="13.4460653365"><ele>1507.97</ele><time>2013-04-06T15:52:38Z</time></trkpt><trkpt lat="42.1832155902" lon="13.4463678394"><ele>1507.48</ele><time>2013-04-06T15:52:57Z</time></trkpt><trkpt lat="42.1832032688" lon="13.4464464616"><ele>1507.00</ele><time>2013-04-06T15:53:16Z</time></trkpt><trkpt lat="42.1831847448" lon="13.4466257505"><ele>1507.00</ele><time>2013-04-06T15:53:43Z</time></trkpt><trkpt lat="42.1831849124" lon="13.4466420952"><ele>1506.52</ele><time>2013-04-06T15:53:44Z</time></trkpt><trkpt lat="42.1831793804" lon="13.4467341285"><ele>1507.00</ele><time>2013-04-06T15:53:50Z</time></trkpt><trkpt lat="42.1831629518" lon="13.4468239825"><ele>1506.52</ele><time>2013-04-06T15:53:54Z</time></trkpt><trkpt lat="42.1831376385" lon="13.4471821412"><ele>1505.08</ele><time>2013-04-06T15:54:09Z</time></trkpt><trkpt lat="42.1830943041" lon="13.4475242067"><ele>1504.12</ele><time>2013-04-06T15:54:26Z</time></trkpt><trkpt lat="42.1830818150" lon="13.4478192497"><ele>1503.16</ele><time>2013-04-06T15:54:42Z</time></trkpt><trkpt lat="42.1830470301" lon="13.4480973613"><ele>1503.16</ele><time>2013-04-06T15:54:59Z</time></trkpt><trkpt lat="42.1830503829" lon="13.4481405281"><ele>1502.68</ele><time>2013-04-06T15:55:02Z</time></trkpt><trkpt lat="42.1830405761" lon="13.4482305497"><ele>1502.68</ele><time>2013-04-06T15:55:08Z</time></trkpt><trkpt lat="42.1830290090" lon="13.4483836032"><ele>1502.68</ele><time>2013-04-06T15:55:18Z</time></trkpt><trkpt lat="42.1830209624" lon="13.4484626446"><ele>1502.68</ele><time>2013-04-06T15:55:23Z</time></trkpt><trkpt lat="42.1829861775" lon="13.4487778880"><ele>1502.20</ele><time>2013-04-06T15:55:42Z</time></trkpt><trkpt lat="42.1829578467" lon="13.4490668122"><ele>1501.24</ele><time>2013-04-06T15:55:58Z</time></trkpt><trkpt lat="42.1829068847" lon="13.4494064469"><ele>1500.27</ele><time>2013-04-06T15:56:16Z</time></trkpt><trkpt lat="42.1828601137" lon="13.4496340156"><ele>1500.27</ele><time>2013-04-06T15:56:28Z</time></trkpt><trkpt lat="42.1828653943" lon="13.4497718140"><ele>1499.79</ele><time>2013-04-06T15:56:36Z</time></trkpt><trkpt lat="42.1828526538" lon="13.4500949364"><ele>1499.79</ele><time>2013-04-06T15:56:54Z</time></trkpt><trkpt lat="42.1828560065" lon="13.4501574654"><ele>1499.79</ele><time>2013-04-06T15:56:58Z</time></trkpt><trkpt lat="42.1828446072" lon="13.4502676036"><ele>1499.31</ele><time>2013-04-06T15:57:04Z</time></trkpt><trkpt lat="42.1828394104" lon="13.4505379200"><ele>1497.87</ele><time>2013-04-06T15:57:17Z</time></trkpt><trkpt lat="42.1828533243" lon="13.4507689252"><ele>1497.87</ele><time>2013-04-06T15:57:29Z</time></trkpt><trkpt lat="42.1828439366" lon="13.4510116652"><ele>1497.39</ele><time>2013-04-06T15:57:43Z</time></trkpt><trkpt lat="42.1828380693" lon="13.4513099771"><ele>1496.43</ele><time>2013-04-06T15:58:01Z</time></trkpt><trkpt lat="42.1828246582" lon="13.4515916929"><ele>1495.47</ele><time>2013-04-06T15:58:17Z</time></trkpt><trkpt lat="42.1828156896" lon="13.4517397173"><ele>1495.47</ele><time>2013-04-06T15:58:25Z</time></trkpt><trkpt lat="42.1827844251" lon="13.4520524461"><ele>1494.51</ele><time>2013-04-06T15:58:44Z</time></trkpt><trkpt lat="42.1827847604" lon="13.4522414580"><ele>1494.51</ele><time>2013-04-06T15:58:55Z</time></trkpt><trkpt lat="42.1827793121" lon="13.4523375146"><ele>1494.03</ele><time>2013-04-06T15:59:01Z</time></trkpt><trkpt lat="42.1827794798" lon="13.4524396062"><ele>1494.51</ele><time>2013-04-06T15:59:08Z</time></trkpt><trkpt lat="42.1827979200" lon="13.4527493175"><ele>1494.51</ele><time>2013-04-06T15:59:27Z</time></trkpt><trkpt lat="42.1827883646" lon="13.4528463800"><ele>1494.03</ele><time>2013-04-06T15:59:34Z</time></trkpt><trkpt lat="42.1827824973" lon="13.4529364854"><ele>1494.03</ele><time>2013-04-06T15:59:40Z</time></trkpt><trkpt lat="42.1827865206" lon="13.4530690871"><ele>1494.51</ele><time>2013-04-06T15:59:47Z</time></trkpt><trkpt lat="42.1828078944" lon="13.4532814845"><ele>1494.03</ele><time>2013-04-06T15:59:58Z</time></trkpt><trkpt lat="42.1828104090" lon="13.4533179458"><ele>1494.03</ele><time>2013-04-06T16:00:00Z</time></trkpt><trkpt lat="42.1828206349" lon="13.4533884376"><ele>1493.55</ele><time>2013-04-06T16:00:04Z</time></trkpt><trkpt lat="42.1828493010" lon="13.4536288306"><ele>1493.55</ele><time>2013-04-06T16:00:19Z</time></trkpt><trkpt lat="42.1828563418" lon="13.4537359513"><ele>1494.51</ele><time>2013-04-06T16:00:27Z</time></trkpt><trkpt lat="42.1828573477" lon="13.4538123105"><ele>1493.06</ele><time>2013-04-06T16:00:32Z</time></trkpt><trkpt lat="42.1828841697" lon="13.4539191797"><ele>1492.58</ele><time>2013-04-06T16:00:41Z</time></trkpt><trkpt lat="42.1828834992" lon="13.4539416432"><ele>1492.58</ele><time>2013-04-06T16:00:43Z</time></trkpt><trkpt lat="42.1828837506" lon="13.4539929405"><ele>1492.58</ele><time>2013-04-06T16:01:04Z</time></trkpt><trkpt lat="42.1828866005" lon="13.4540239535"><ele>1491.62</ele><time>2013-04-06T16:01:20Z</time></trkpt><trkpt lat="42.1829057112" lon="13.4541315772"><ele>1491.62</ele><time>2013-04-06T16:01:26Z</time></trkpt><trkpt lat="42.1829184517" lon="13.4542190842"><ele>1491.62</ele><time>2013-04-06T16:01:50Z</time></trkpt><trkpt lat="42.1829586010" lon="13.4545141272"><ele>1491.14</ele><time>2013-04-06T16:02:05Z</time></trkpt><trkpt lat="42.1829888597" lon="13.4548098408"><ele>1491.14</ele><time>2013-04-06T16:02:22Z</time></trkpt><trkpt lat="42.1830072161" lon="13.4549513273"><ele>1490.66</ele><time>2013-04-06T16:02:31Z</time></trkpt><trkpt lat="42.1830345411" lon="13.4552780539"><ele>1489.70</ele><time>2013-04-06T16:02:48Z</time></trkpt><trkpt lat="42.1830572560" lon="13.4554367233"><ele>1489.22</ele><time>2013-04-06T16:02:57Z</time></trkpt><trkpt lat="42.1830647159" lon="13.4554889426"><ele>1489.22</ele><time>2013-04-06T16:03:00Z</time></trkpt><trkpt lat="42.1831082180" lon="13.4557647910"><ele>1489.22</ele><time>2013-04-06T16:03:15Z</time></trkpt><trkpt lat="42.1831181087" lon="13.4558159206"><ele>1489.22</ele><time>2013-04-06T16:03:18Z</time></trkpt><trkpt lat="42.1831481997" lon="13.4559799545"><ele>1488.74</ele><time>2013-04-06T16:03:28Z</time></trkpt><trkpt lat="42.1831663046" lon="13.4560748376"><ele>1489.22</ele><time>2013-04-06T16:03:34Z</time></trkpt><trkpt lat="42.1831865050" lon="13.4562285617"><ele>1488.74</ele><time>2013-04-06T16:03:44Z</time></trkpt><trkpt lat="42.1831999999" lon="13.4563182481"><ele>1488.74</ele><time>2013-04-06T16:03:50Z</time></trkpt><trkpt lat="42.1832081303" lon="13.4563457407"><ele>1488.26</ele><time>2013-04-06T16:03:52Z</time></trkpt><trkpt lat="42.1832165960" lon="13.4564679489"><ele>1487.78</ele><time>2013-04-06T16:04:00Z</time></trkpt><trkpt lat="42.1832642052" lon="13.4567984473"><ele>1487.30</ele><time>2013-04-06T16:04:19Z</time></trkpt><trkpt lat="42.1833077073" lon="13.4570990223"><ele>1486.82</ele><time>2013-04-06T16:04:36Z</time></trkpt><trkpt lat="42.1833166759" lon="13.4571293648"><ele>1486.82</ele><time>2013-04-06T16:04:38Z</time></trkpt><trkpt lat="42.1834076196" lon="13.4574097395"><ele>1486.34</ele><time>2013-04-06T16:04:55Z</time></trkpt><trkpt lat="42.1834421530" lon="13.4575591050"><ele>1486.34</ele><time>2013-04-06T16:05:04Z</time></trkpt><trkpt lat="42.1834574919" lon="13.4576617833"><ele>1485.85</ele><time>2013-04-06T16:05:10Z</time></trkpt><trkpt lat="42.1834595874" lon="13.4576926287"><ele>1485.85</ele><time>2013-04-06T16:05:12Z</time></trkpt><trkpt lat="42.1834852360" lon="13.4577962290"><ele>1485.37</ele><time>2013-04-06T16:05:18Z</time></trkpt><trkpt lat="42.1835153271" lon="13.4579067025"><ele>1484.89</ele><time>2013-04-06T16:05:25Z</time></trkpt><trkpt lat="42.1835413948" lon="13.4582392965"><ele>1483.93</ele><time>2013-04-06T16:05:43Z</time></trkpt><trkpt lat="42.1835578233" lon="13.4584915917"><ele>1483.93</ele><time>2013-04-06T16:05:56Z</time></trkpt><trkpt lat="42.1835408919" lon="13.4587160591"><ele>1482.97</ele><time>2013-04-06T16:06:08Z</time></trkpt><trkpt lat="42.1835237928" lon="13.4588059131"><ele>1482.97</ele><time>2013-04-06T16:06:13Z</time></trkpt><trkpt lat="42.1835005749" lon="13.4590458870"><ele>1482.49</ele><time>2013-04-06T16:06:26Z</time></trkpt><trkpt lat="42.1834761836" lon="13.4592644870"><ele>1482.49</ele><time>2013-04-06T16:06:38Z</time></trkpt><trkpt lat="42.1834704839" lon="13.4593654890"><ele>1482.49</ele><time>2013-04-06T16:06:43Z</time></trkpt><trkpt lat="42.1834483556" lon="13.4595456161"><ele>1482.01</ele><time>2013-04-06T16:06:51Z</time></trkpt><trkpt lat="42.1834528819" lon="13.4596731048"><ele>1482.01</ele><time>2013-04-06T16:06:59Z</time></trkpt><trkpt lat="42.1834503673" lon="13.4599052835"><ele>1481.05</ele><time>2013-04-06T16:07:13Z</time></trkpt><trkpt lat="42.1834480204" lon="13.4599778708"><ele>1481.05</ele><time>2013-04-06T16:07:18Z</time></trkpt><trkpt lat="42.1834458411" lon="13.4600427467"><ele>1481.05</ele><time>2013-04-06T16:07:43Z</time></trkpt><trkpt lat="42.1834422369" lon="13.4600772802"><ele>1480.57</ele><time>2013-04-06T16:08:16Z</time></trkpt><trkpt lat="42.1834284067" lon="13.4603960440"><ele>1480.09</ele><time>2013-04-06T16:08:33Z</time></trkpt><trkpt lat="42.1834299993" lon="13.4604273923"><ele>1480.09</ele><time>2013-04-06T16:08:35Z</time></trkpt><trkpt lat="42.1834109724" lon="13.4607400373"><ele>1479.13</ele><time>2013-04-06T16:08:52Z</time></trkpt><trkpt lat="42.1834109724" lon="13.4608248621"><ele>1479.13</ele><time>2013-04-06T16:08:56Z</time></trkpt><trkpt lat="42.1834061109" lon="13.4610045701"><ele>1478.65</ele><time>2013-04-06T16:09:07Z</time></trkpt><trkpt lat="42.1834124811" lon="13.4612653311"><ele>1478.16</ele><time>2013-04-06T16:09:23Z</time></trkpt><trkpt lat="42.1834132355" lon="13.4613430314"><ele>1478.16</ele><time>2013-04-06T16:09:28Z</time></trkpt><trkpt lat="42.1833880059" lon="13.4616462048"><ele>1477.68</ele><time>2013-04-06T16:09:46Z</time></trkpt><trkpt lat="42.1833849046" lon="13.4617641382"><ele>1477.20</ele><time>2013-04-06T16:09:53Z</time></trkpt><trkpt lat="42.1833716612" lon="13.4620254021"><ele>1476.72</ele><time>2013-04-06T16:10:07Z</time></trkpt><trkpt lat="42.1833484434" lon="13.4623456746"><ele>1476.72</ele><time>2013-04-06T16:10:26Z</time></trkpt><trkpt lat="42.1833501197" lon="13.4626461659"><ele>1476.24</ele><time>2013-04-06T16:10:43Z</time></trkpt><trkpt lat="42.1833373792" lon="13.4627898317"><ele>1475.28</ele><time>2013-04-06T16:10:52Z</time></trkpt><trkpt lat="42.1833424084" lon="13.4628407098"><ele>1475.28</ele><time>2013-04-06T16:10:55Z</time></trkpt><trkpt lat="42.1833569091" lon="13.4629155602"><ele>1475.28</ele><time>2013-04-06T16:11:00Z</time></trkpt><trkpt lat="42.1833556518" lon="13.4632034786"><ele>1474.80</ele><time>2013-04-06T16:11:18Z</time></trkpt><trkpt lat="42.1833392233" lon="13.4633460548"><ele>1474.80</ele><time>2013-04-06T16:11:27Z</time></trkpt><trkpt lat="42.1833356190" lon="13.4634117689"><ele>1474.80</ele><time>2013-04-06T16:11:31Z</time></trkpt><trkpt lat="42.1833324339" lon="13.4637263417"><ele>1474.32</ele><time>2013-04-06T16:11:49Z</time></trkpt><trkpt lat="42.1833167598" lon="13.4638449457"><ele>1474.32</ele><time>2013-04-06T16:11:56Z</time></trkpt><trkpt lat="42.1833313443" lon="13.4639693331"><ele>1473.36</ele><time>2013-04-06T16:12:03Z</time></trkpt><trkpt lat="42.1833332721" lon="13.4640268330"><ele>1473.36</ele><time>2013-04-06T16:12:07Z</time></trkpt><trkpt lat="42.1833386365" lon="13.4641171899"><ele>1473.36</ele><time>2013-04-06T16:12:12Z</time></trkpt><trkpt lat="42.1833295841" lon="13.4641870949"><ele>1473.36</ele><time>2013-04-06T16:12:18Z</time></trkpt><trkpt lat="42.1833319310" lon="13.4643043578"><ele>1473.36</ele><time>2013-04-06T16:12:26Z</time></trkpt><trkpt lat="42.1833507065" lon="13.4644013364"><ele>1474.80</ele><time>2013-04-06T16:12:33Z</time></trkpt><trkpt lat="42.1833472699" lon="13.4644456767"><ele>1473.36</ele><time>2013-04-06T16:12:36Z</time></trkpt><trkpt lat="42.1833871678" lon="13.4646069445"><ele>1473.84</ele><time>2013-04-06T16:12:47Z</time></trkpt><trkpt lat="42.1834284905" lon="13.4647521190"><ele>1473.36</ele><time>2013-04-06T16:12:58Z</time></trkpt><trkpt lat="42.1835196018" lon="13.4649306536"><ele>1473.36</ele><time>2013-04-06T16:13:11Z</time></trkpt><trkpt lat="42.1835372038" lon="13.4649858903"><ele>1472.88</ele><time>2013-04-06T16:13:15Z</time></trkpt><trkpt lat="42.1835424006" lon="13.4650558792"><ele>1471.44</ele><time>2013-04-06T16:13:35Z</time></trkpt><trkpt lat="42.1835418977" lon="13.4650806896"><ele>1471.92</ele><time>2013-04-06T16:14:21Z</time></trkpt><trkpt lat="42.1835516207" lon="13.4653363377"><ele>1471.44</ele><time>2013-04-06T16:14:38Z</time></trkpt><trkpt lat="42.1835514531" lon="13.4654311370"><ele>1470.95</ele><time>2013-04-06T16:14:44Z</time></trkpt><trkpt lat="42.1835755091" lon="13.4655068256"><ele>1470.95</ele><time>2013-04-06T16:14:49Z</time></trkpt><trkpt lat="42.1835846454" lon="13.4655784070"><ele>1470.95</ele><time>2013-04-06T16:14:53Z</time></trkpt><trkpt lat="42.1835940331" lon="13.4656109288"><ele>1470.47</ele><time>2013-04-06T16:14:55Z</time></trkpt><trkpt lat="42.1835993137" lon="13.4656568617"><ele>1470.95</ele><time>2013-04-06T16:14:58Z</time></trkpt><trkpt lat="42.1835792810" lon="13.4657084104"><ele>1470.47</ele><time>2013-04-06T16:15:02Z</time></trkpt><trkpt lat="42.1835813764" lon="13.4657645691"><ele>1470.47</ele><time>2013-04-06T16:15:06Z</time></trkpt><trkpt lat="42.1835814603" lon="13.4659157787"><ele>1469.99</ele><time>2013-04-06T16:15:15Z</time></trkpt><trkpt lat="42.1835492738" lon="13.4662068821"><ele>1469.03</ele><time>2013-04-06T16:15:32Z</time></trkpt><trkpt lat="42.1835549735" lon="13.4664108139"><ele>1469.03</ele><time>2013-04-06T16:15:47Z</time></trkpt><trkpt lat="42.1835761797" lon="13.4665699862"><ele>1469.51</ele><time>2013-04-06T16:15:56Z</time></trkpt><trkpt lat="42.1836025827" lon="13.4666707367"><ele>1469.03</ele><time>2013-04-06T16:16:03Z</time></trkpt><trkpt lat="42.1836042590" lon="13.4667232912"><ele>1469.03</ele><time>2013-04-06T16:16:07Z</time></trkpt><trkpt lat="42.1836062707" lon="13.4667451680"><ele>1469.03</ele><time>2013-04-06T16:16:09Z</time></trkpt><trkpt lat="42.1836124733" lon="13.4667947888"><ele>1469.51</ele><time>2013-04-06T16:16:13Z</time></trkpt><trkpt lat="42.1836084500" lon="13.4668180067"><ele>1468.55</ele><time>2013-04-06T16:16:15Z</time></trkpt><trkpt lat="42.1835585777" lon="13.4669318330"><ele>1468.55</ele><time>2013-04-06T16:16:24Z</time></trkpt><trkpt lat="42.1835466754" lon="13.4669518657"><ele>1468.55</ele><time>2013-04-06T16:16:26Z</time></trkpt><trkpt lat="42.1835047659" lon="13.4670264646"><ele>1468.55</ele><time>2013-04-06T16:16:32Z</time></trkpt><trkpt lat="42.1834997367" lon="13.4670900833"><ele>1469.03</ele><time>2013-04-06T16:16:36Z</time></trkpt><trkpt lat="42.1834931988" lon="13.4671384469"><ele>1468.07</ele><time>2013-04-06T16:16:40Z</time></trkpt><trkpt lat="42.1835170873" lon="13.4673290513"><ele>1468.55</ele><time>2013-04-06T16:16:52Z</time></trkpt><trkpt lat="42.1835123096" lon="13.4674269520"><ele>1468.55</ele><time>2013-04-06T16:16:58Z</time></trkpt><trkpt lat="42.1835037600" lon="13.4674811829"><ele>1468.07</ele><time>2013-04-06T16:17:02Z</time></trkpt><trkpt lat="42.1835015807" lon="13.4676736314"><ele>1467.59</ele><time>2013-04-06T16:17:18Z</time></trkpt><trkpt lat="42.1834868286" lon="13.4678748809"><ele>1467.11</ele><time>2013-04-06T16:17:35Z</time></trkpt><trkpt lat="42.1834814642" lon="13.4679210652"><ele>1467.59</ele><time>2013-04-06T16:17:38Z</time></trkpt><trkpt lat="42.1835208591" lon="13.4681896213"><ele>1466.63</ele><time>2013-04-06T16:17:56Z</time></trkpt><trkpt lat="42.1835249662" lon="13.4682017751"><ele>1467.11</ele><time>2013-04-06T16:17:57Z</time></trkpt><trkpt lat="42.1835392993" lon="13.4684399888"><ele>1465.67</ele><time>2013-04-06T16:18:12Z</time></trkpt><trkpt lat="42.1835455857" lon="13.4684728459"><ele>1466.15</ele><time>2013-04-06T16:18:14Z</time></trkpt><trkpt lat="42.1835449152" lon="13.4687411506"><ele>1465.19</ele><time>2013-04-06T16:18:32Z</time></trkpt><trkpt lat="42.1835327614" lon="13.4688028414"><ele>1465.19</ele><time>2013-04-06T16:18:36Z</time></trkpt><trkpt lat="42.1835279837" lon="13.4688311722"><ele>1465.67</ele><time>2013-04-06T16:18:38Z</time></trkpt><trkpt lat="42.1835045144" lon="13.4689429030"><ele>1464.71</ele><time>2013-04-06T16:18:57Z</time></trkpt><trkpt lat="42.1835138183" lon="13.4689563978"><ele>1464.71</ele><time>2013-04-06T16:19:23Z</time></trkpt><trkpt lat="42.1835162491" lon="13.4689662047"><ele>1465.67</ele><time>2013-04-06T16:20:05Z</time></trkpt><trkpt lat="42.1835156623" lon="13.4689663723"><ele>1464.71</ele><time>2013-04-06T16:20:07Z</time></trkpt><trkpt lat="42.1835304145" lon="13.4689631872"><ele>1464.23</ele><time>2013-04-06T16:20:23Z</time></trkpt><trkpt lat="42.1835369524" lon="13.4689644445"><ele>1464.23</ele><time>2013-04-06T16:21:20Z</time></trkpt><trkpt lat="42.1835409757" lon="13.4689431544"><ele>1464.23</ele><time>2013-04-06T16:22:01Z</time></trkpt><trkpt lat="42.1835320909" lon="13.4689238761"><ele>1463.74</ele><time>2013-04-06T16:22:54Z</time></trkpt><trkpt lat="42.1835241280" lon="13.4689193498"><ele>1463.74</ele><time>2013-04-06T16:23:31Z</time></trkpt><trkpt lat="42.1835239604" lon="13.4689273126"><ele>1465.19</ele><time>2013-04-06T16:23:48Z</time></trkpt><trkpt lat="42.1835237090" lon="13.4689247981"><ele>1464.71</ele><time>2013-04-06T16:24:08Z</time></trkpt><trkpt lat="42.1835120581" lon="13.4689312521"><ele>1464.71</ele><time>2013-04-06T16:24:30Z</time></trkpt><trkpt lat="42.1835201047" lon="13.4689367004"><ele>1464.23</ele><time>2013-04-06T16:24:44Z</time></trkpt><trkpt lat="42.1835226193" lon="13.4689647797"><ele>1464.71</ele><time>2013-04-06T16:24:46Z</time></trkpt><trkpt lat="42.1835407242" lon="13.4692089446"><ele>1464.23</ele><time>2013-04-06T16:25:02Z</time></trkpt><trkpt lat="42.1835898422" lon="13.4692925122"><ele>1463.26</ele><time>2013-04-06T16:25:08Z</time></trkpt><trkpt lat="42.1835832205" lon="13.4693385288"><ele>1464.23</ele><time>2013-04-06T16:25:11Z</time></trkpt><trkpt lat="42.1835873276" lon="13.4693748225"><ele>1464.23</ele><time>2013-04-06T16:25:13Z</time></trkpt><trkpt lat="42.1835861541" lon="13.4695826098"><ele>1463.74</ele><time>2013-04-06T16:25:26Z</time></trkpt><trkpt lat="42.1835841425" lon="13.4697901458"><ele>1464.23</ele><time>2013-04-06T16:25:40Z</time></trkpt><trkpt lat="42.1835807897" lon="13.4698789101"><ele>1464.23</ele><time>2013-04-06T16:25:46Z</time></trkpt><trkpt lat="42.1835867409" lon="13.4699149523"><ele>1464.71</ele><time>2013-04-06T16:25:49Z</time></trkpt><trkpt lat="42.1836301591" lon="13.4699529223"><ele>1463.74</ele><time>2013-04-06T16:25:56Z</time></trkpt><trkpt lat="42.1836469229" lon="13.4699553531"><ele>1463.74</ele><time>2013-04-06T16:25:58Z</time></trkpt><trkpt lat="42.1836820431" lon="13.4699608851"><ele>1463.74</ele><time>2013-04-06T16:26:01Z</time></trkpt><trkpt lat="42.1837012377" lon="13.4699766431"><ele>1464.23</ele><time>2013-04-06T16:26:04Z</time></trkpt><trkpt lat="42.1837147325" lon="13.4699938260"><ele>1464.71</ele><time>2013-04-06T16:26:06Z</time></trkpt><trkpt lat="42.1837262157" lon="13.4700179659"><ele>1465.19</ele><time>2013-04-06T16:26:08Z</time></trkpt><trkpt lat="42.1837313287" lon="13.4700770583"><ele>1464.71</ele><time>2013-04-06T16:26:12Z</time></trkpt><trkpt lat="42.1837465838" lon="13.4701300319"><ele>1464.23</ele><time>2013-04-06T16:26:16Z</time></trkpt><trkpt lat="42.1837528702" lon="13.4702830855"><ele>1464.71</ele><time>2013-04-06T16:26:25Z</time></trkpt><trkpt lat="42.1837527864" lon="13.4703244921"><ele>1464.71</ele><time>2013-04-06T16:26:28Z</time></trkpt><trkpt lat="42.1837677062" lon="13.4703985043"><ele>1463.26</ele><time>2013-04-06T16:26:33Z</time></trkpt><trkpt lat="42.1837790217" lon="13.4704285953"><ele>1463.74</ele><time>2013-04-06T16:26:35Z</time></trkpt><trkpt lat="42.1838201769" lon="13.4707065392"><ele>1463.74</ele><time>2013-04-06T16:26:52Z</time></trkpt><trkpt lat="42.1838318277" lon="13.4707543999"><ele>1463.26</ele><time>2013-04-06T16:26:55Z</time></trkpt><trkpt lat="42.1839336678" lon="13.4707510471"><ele>1463.26</ele><time>2013-04-06T16:27:11Z</time></trkpt><trkpt lat="42.1839499287" lon="13.4706950560"><ele>1463.74</ele><time>2013-04-06T16:27:16Z</time></trkpt><trkpt lat="42.1839723084" lon="13.4706472792"><ele>1463.74</ele><time>2013-04-06T16:27:21Z</time></trkpt><trkpt lat="42.1840042435" lon="13.4706503805"><ele>1463.74</ele><time>2013-04-06T16:27:26Z</time></trkpt><trkpt lat="42.1840474103" lon="13.4707072936"><ele>1463.74</ele><time>2013-04-06T16:27:32Z</time></trkpt><trkpt lat="42.1840614080" lon="13.4707348701"><ele>1463.74</ele><time>2013-04-06T16:27:35Z</time></trkpt><trkpt lat="42.1840664372" lon="13.4707630333"><ele>1464.23</ele><time>2013-04-06T16:27:37Z</time></trkpt><trkpt lat="42.1840723883" lon="13.4707896039"><ele>1464.23</ele><time>2013-04-06T16:27:39Z</time></trkpt><trkpt lat="42.1840837877" lon="13.4709092136"><ele>1463.74</ele><time>2013-04-06T16:27:48Z</time></trkpt><trkpt lat="42.1840921696" lon="13.4709644504"><ele>1463.74</ele><time>2013-04-06T16:27:51Z</time></trkpt><trkpt lat="42.1840851288" lon="13.4710732475"><ele>1464.23</ele><time>2013-04-06T16:27:58Z</time></trkpt><trkpt lat="42.1840847936" lon="13.4712146502"><ele>1464.23</ele><time>2013-04-06T16:28:08Z</time></trkpt><trkpt lat="42.1840699576" lon="13.4713716432"><ele>1464.71</ele><time>2013-04-06T16:28:18Z</time></trkpt><trkpt lat="42.1840759087" lon="13.4714013152"><ele>1463.74</ele><time>2013-04-06T16:28:20Z</time></trkpt><trkpt lat="42.1840820275" lon="13.4714369383"><ele>1463.26</ele><time>2013-04-06T16:28:22Z</time></trkpt><trkpt lat="42.1840816084" lon="13.4715369344"><ele>1462.78</ele><time>2013-04-06T16:28:28Z</time></trkpt><trkpt lat="42.1840861347" lon="13.4716132097"><ele>1463.26</ele><time>2013-04-06T16:28:32Z</time></trkpt><trkpt lat="42.1840766631" lon="13.4716860484"><ele>1463.26</ele><time>2013-04-06T16:28:37Z</time></trkpt><trkpt lat="42.1840730589" lon="13.4717506729"><ele>1465.67</ele><time>2013-04-06T16:28:42Z</time></trkpt><trkpt lat="42.1840697899" lon="13.4718134534"><ele>1462.78</ele><time>2013-04-06T16:28:46Z</time></trkpt><trkpt lat="42.1840651799" lon="13.4718606435"><ele>1462.30</ele><time>2013-04-06T16:28:49Z</time></trkpt><trkpt lat="42.1840641741" lon="13.4718883038"><ele>1461.82</ele><time>2013-04-06T16:28:51Z</time></trkpt><trkpt lat="42.1840529423" lon="13.4719567001"><ele>1462.30</ele><time>2013-04-06T16:28:56Z</time></trkpt><trkpt lat="42.1840355080" lon="13.4720685147"><ele>1462.30</ele><time>2013-04-06T16:29:03Z</time></trkpt><trkpt lat="42.1840326581" lon="13.4721579496"><ele>1462.30</ele><time>2013-04-06T16:29:09Z</time></trkpt><trkpt lat="42.1840518527" lon="13.4722011164"><ele>1462.78</ele><time>2013-04-06T16:29:13Z</time></trkpt><trkpt lat="42.1840427164" lon="13.4722437803"><ele>1463.26</ele><time>2013-04-06T16:29:16Z</time></trkpt><trkpt lat="42.1840476617" lon="13.4723022021"><ele>1462.78</ele><time>2013-04-06T16:29:20Z</time></trkpt><trkpt lat="42.1840505954" lon="13.4723322932"><ele>1462.30</ele><time>2013-04-06T16:29:23Z</time></trkpt><trkpt lat="42.1840511821" lon="13.4724700917"><ele>1461.34</ele><time>2013-04-06T16:29:31Z</time></trkpt><trkpt lat="42.1840630844" lon="13.4725568444"><ele>1461.82</ele><time>2013-04-06T16:29:36Z</time></trkpt><trkpt lat="42.1840467397" lon="13.4726827405"><ele>1460.38</ele><time>2013-04-06T16:29:51Z</time></trkpt><trkpt lat="42.1840479132" lon="13.4727255721"><ele>1460.38</ele><time>2013-04-06T16:29:54Z</time></trkpt><trkpt lat="42.1840680297" lon="13.4728503786"><ele>1458.94</ele><time>2013-04-06T16:30:02Z</time></trkpt><trkpt lat="42.1840750705" lon="13.4729286656"><ele>1459.42</ele><time>2013-04-06T16:30:07Z</time></trkpt><trkpt lat="42.1841025632" lon="13.4729562420"><ele>1459.90</ele><time>2013-04-06T16:30:11Z</time></trkpt><trkpt lat="42.1841528546" lon="13.4729840700"><ele>1460.38</ele><time>2013-04-06T16:30:18Z</time></trkpt><trkpt lat="42.1841604821" lon="13.4730015043"><ele>1460.38</ele><time>2013-04-06T16:30:20Z</time></trkpt><trkpt lat="42.1841790061" lon="13.4730402287"><ele>1460.38</ele><time>2013-04-06T16:30:23Z</time></trkpt><trkpt lat="42.1841748152" lon="13.4732433222"><ele>1459.42</ele><time>2013-04-06T16:30:36Z</time></trkpt><trkpt lat="42.1841690317" lon="13.4732819628"><ele>1459.42</ele><time>2013-04-06T16:30:38Z</time></trkpt><trkpt lat="42.1840606537" lon="13.4726002626"><ele>1485.85</ele><time>2013-04-06T16:52:06Z</time></trkpt><trkpt lat="42.1811515465" lon="13.4840148222"><ele>1499.79</ele><time>2013-04-06T16:52:13Z</time></trkpt><trkpt lat="42.1811236348" lon="13.4840247128"><ele>1497.87</ele><time>2013-04-06T16:52:14Z</time></trkpt><trkpt lat="42.1811646223" lon="13.4840259701"><ele>1494.51</ele><time>2013-04-06T16:52:20Z</time></trkpt><trkpt lat="42.1811652090" lon="13.4840308316"><ele>1494.51</ele><time>2013-04-06T16:52:21Z</time></trkpt><trkpt lat="42.1811675560" lon="13.4840397164"><ele>1490.66</ele><time>2013-04-06T16:52:27Z</time></trkpt><trkpt lat="42.1811631136" lon="13.4840512834"><ele>1487.30</ele><time>2013-04-06T16:52:35Z</time></trkpt><trkpt lat="42.1811698191" lon="13.4840417281"><ele>1484.41</ele><time>2013-04-06T16:52:47Z</time></trkpt></trkseg></trk></gpx>